<?xml version="1.0" encoding="UTF-8" standalone="no" ?>
<gpx xmlns="http://www.topografix.com/GPX/1/1" xmlns:xsi="http://www.w3.org/2001/XMLSchema-instance" xsi:schemaLocation="http://www.topografix.com/GPX/1/1 http://www.topografix.com/GPX/1/1/gpx.xsd" version="1.1" creator="VisuGPX - https://www.visugpx.com">
  <metadata>
    <name>VTT avec RSPG Turriers /La Cimbe/30 pas /Les Dorats</name>
    <desc><![CDATA[Sortie avec les amis d erSPG sans que ce soit RSPG . Montée longue et un peu fastidieuse descente sympa dans la foret ]]></desc>
  </metadata>
  <trk>
    <name><![CDATA[N°  Turriers/ Piste 30 pas /Les Dorats ACTIVE LOG 003]]></name>
    <trkseg>
      <trkpt lat="44.39998" lon="6.17094">
        <ele>972.5109863</ele>
        <time>2016-05-03T07:52:35Z</time>
      </trkpt>
      <trkpt lat="44.39997" lon="6.17094">
        <ele>975.8754883</ele>
        <time>2016-05-03T07:52:44Z</time>
      </trkpt>
      <trkpt lat="44.39997" lon="6.17095">
        <ele>979.2399902</ele>
        <time>2016-05-03T07:52:46Z</time>
      </trkpt>
      <trkpt lat="44.39996" lon="6.17095">
        <ele>982.6047363</ele>
        <time>2016-05-03T07:52:48Z</time>
      </trkpt>
      <trkpt lat="44.39997" lon="6.17094">
        <ele>985.9692383</ele>
        <time>2016-05-03T07:52:50Z</time>
      </trkpt>
      <trkpt lat="44.39997" lon="6.17094">
        <ele>989.8146973</ele>
        <time>2016-05-03T07:52:53Z</time>
      </trkpt>
      <trkpt lat="44.39996" lon="6.17094">
        <ele>993.6599121</ele>
        <time>2016-05-03T07:52:56Z</time>
      </trkpt>
      <trkpt lat="44.39995" lon="6.17093">
        <ele>997.0244141</ele>
        <time>2016-05-03T07:52:59Z</time>
      </trkpt>
      <trkpt lat="44.39995" lon="6.17093">
        <ele>1000.8696289</ele>
        <time>2016-05-03T07:53:03Z</time>
      </trkpt>
      <trkpt lat="44.39995" lon="6.17093">
        <ele>1004.2346191</ele>
        <time>2016-05-03T07:53:08Z</time>
      </trkpt>
      <trkpt lat="44.39995" lon="6.17093">
        <ele>1007.5991211</ele>
        <time>2016-05-03T07:53:13Z</time>
      </trkpt>
      <trkpt lat="44.39995" lon="6.17093">
        <ele>1007.5991211</ele>
        <time>2016-05-03T07:53:14Z</time>
      </trkpt>
      <trkpt lat="44.39995" lon="6.17093">
        <ele>1010.963623</ele>
        <time>2016-05-03T07:53:21Z</time>
      </trkpt>
      <trkpt lat="44.39995" lon="6.17093">
        <ele>1014.328125</ele>
        <time>2016-05-03T07:53:30Z</time>
      </trkpt>
      <trkpt lat="44.39994" lon="6.17093">
        <ele>1017.2121582</ele>
        <time>2016-05-03T07:53:43Z</time>
      </trkpt>
      <trkpt lat="44.39994" lon="6.17093">
        <ele>1019.6154785</ele>
        <time>2016-05-03T07:53:54Z</time>
      </trkpt>
      <trkpt lat="44.39996" lon="6.17093">
        <ele>1020.5769043</ele>
        <time>2016-05-03T07:54:12Z</time>
      </trkpt>
      <trkpt lat="44.39992" lon="6.17093">
        <ele>1021.0576172</ele>
        <time>2016-05-03T07:54:20Z</time>
      </trkpt>
      <trkpt lat="44.39993" lon="6.17092">
        <ele>1022.9802246</ele>
        <time>2016-05-03T07:54:37Z</time>
      </trkpt>
      <trkpt lat="44.39993" lon="6.17093">
        <ele>1022.4995117</ele>
        <time>2016-05-03T07:55:27Z</time>
      </trkpt>
      <trkpt lat="44.39997" lon="6.17093">
        <ele>1021.0576172</ele>
        <time>2016-05-03T07:55:42Z</time>
      </trkpt>
      <trkpt lat="44.39995" lon="6.171">
        <ele>1022.4995117</ele>
        <time>2016-05-03T07:55:57Z</time>
      </trkpt>
      <trkpt lat="44.39989" lon="6.17104">
        <ele>1021.5380859</ele>
        <time>2016-05-03T07:56:20Z</time>
      </trkpt>
      <trkpt lat="44.39991" lon="6.171">
        <ele>1021.5380859</ele>
        <time>2016-05-03T07:56:33Z</time>
      </trkpt>
      <trkpt lat="44.39998" lon="6.17064">
        <ele>1023.9414063</ele>
        <time>2016-05-03T07:56:57Z</time>
      </trkpt>
      <trkpt lat="44.39992" lon="6.1706">
        <ele>1024.4221191</ele>
        <time>2016-05-03T07:57:15Z</time>
      </trkpt>
      <trkpt lat="44.39983" lon="6.17049">
        <ele>1022.9802246</ele>
        <time>2016-05-03T07:59:43Z</time>
      </trkpt>
      <trkpt lat="44.39964" lon="6.17037">
        <ele>1021.0576172</ele>
        <time>2016-05-03T07:59:48Z</time>
      </trkpt>
      <trkpt lat="44.39932" lon="6.17022">
        <ele>1020.0961914</ele>
        <time>2016-05-03T07:59:59Z</time>
      </trkpt>
      <trkpt lat="44.39881" lon="6.1704">
        <ele>1018.1733398</ele>
        <time>2016-05-03T08:00:10Z</time>
      </trkpt>
      <trkpt lat="44.39845" lon="6.17043">
        <ele>1017.2121582</ele>
        <time>2016-05-03T08:00:19Z</time>
      </trkpt>
      <trkpt lat="44.398" lon="6.1704">
        <ele>1015.2895508</ele>
        <time>2016-05-03T08:00:32Z</time>
      </trkpt>
      <trkpt lat="44.39763" lon="6.1703">
        <ele>1013.3669434</ele>
        <time>2016-05-03T08:00:40Z</time>
      </trkpt>
      <trkpt lat="44.39751" lon="6.17025">
        <ele>1012.4055176</ele>
        <time>2016-05-03T08:00:42Z</time>
      </trkpt>
      <trkpt lat="44.39717" lon="6.17004">
        <ele>1009.0410156</ele>
        <time>2016-05-03T08:00:47Z</time>
      </trkpt>
      <trkpt lat="44.39709" lon="6.16998">
        <ele>1009.5217285</ele>
        <time>2016-05-03T08:00:48Z</time>
      </trkpt>
      <trkpt lat="44.39701" lon="6.16993">
        <ele>1009.5217285</ele>
        <time>2016-05-03T08:00:49Z</time>
      </trkpt>
      <trkpt lat="44.39651" lon="6.16993">
        <ele>1006.1569824</ele>
        <time>2016-05-03T08:00:54Z</time>
      </trkpt>
      <trkpt lat="44.3961" lon="6.16989">
        <ele>1004.2346191</ele>
        <time>2016-05-03T08:00:58Z</time>
      </trkpt>
      <trkpt lat="44.39551" lon="6.17009">
        <ele>1002.7922363</ele>
        <time>2016-05-03T08:01:06Z</time>
      </trkpt>
      <trkpt lat="44.39493" lon="6.17043">
        <ele>1004.2346191</ele>
        <time>2016-05-03T08:01:19Z</time>
      </trkpt>
      <trkpt lat="44.39449" lon="6.17074">
        <ele>1006.6376953</ele>
        <time>2016-05-03T08:01:36Z</time>
      </trkpt>
      <trkpt lat="44.39419" lon="6.17095">
        <ele>1009.0410156</ele>
        <time>2016-05-03T08:01:54Z</time>
      </trkpt>
      <trkpt lat="44.39394" lon="6.17115">
        <ele>1012.4055176</ele>
        <time>2016-05-03T08:02:11Z</time>
      </trkpt>
      <trkpt lat="44.39372" lon="6.17111">
        <ele>1014.8088379</ele>
        <time>2016-05-03T08:02:25Z</time>
      </trkpt>
      <trkpt lat="44.39363" lon="6.17071">
        <ele>1017.2121582</ele>
        <time>2016-05-03T08:02:42Z</time>
      </trkpt>
      <trkpt lat="44.3935" lon="6.17038">
        <ele>1020.0961914</ele>
        <time>2016-05-03T08:02:59Z</time>
      </trkpt>
      <trkpt lat="44.39329" lon="6.17018">
        <ele>1022.0187988</ele>
        <time>2016-05-03T08:03:17Z</time>
      </trkpt>
      <trkpt lat="44.39323" lon="6.1698">
        <ele>1024.4221191</ele>
        <time>2016-05-03T08:03:35Z</time>
      </trkpt>
      <trkpt lat="44.39338" lon="6.16938">
        <ele>1027.3061523</ele>
        <time>2016-05-03T08:03:55Z</time>
      </trkpt>
      <trkpt lat="44.39352" lon="6.16888">
        <ele>1029.2285156</ele>
        <time>2016-05-03T08:04:16Z</time>
      </trkpt>
      <trkpt lat="44.39351" lon="6.16835">
        <ele>1030.6706543</ele>
        <time>2016-05-03T08:04:37Z</time>
      </trkpt>
      <trkpt lat="44.39352" lon="6.16797">
        <ele>1033.5544434</ele>
        <time>2016-05-03T08:04:52Z</time>
      </trkpt>
      <trkpt lat="44.39349" lon="6.16765">
        <ele>1036.4387207</ele>
        <time>2016-05-03T08:05:07Z</time>
      </trkpt>
      <trkpt lat="44.3933" lon="6.16731">
        <ele>1039.8032227</ele>
        <time>2016-05-03T08:05:27Z</time>
      </trkpt>
      <trkpt lat="44.39307" lon="6.16701">
        <ele>1042.6872559</ele>
        <time>2016-05-03T08:05:48Z</time>
      </trkpt>
      <trkpt lat="44.39285" lon="6.16691">
        <ele>1045.5710449</ele>
        <time>2016-05-03T08:06:05Z</time>
      </trkpt>
      <trkpt lat="44.39268" lon="6.16685">
        <ele>1047.0129395</ele>
        <time>2016-05-03T08:06:17Z</time>
      </trkpt>
      <trkpt lat="44.39265" lon="6.16681">
        <ele>1047.4936523</ele>
        <time>2016-05-03T08:06:20Z</time>
      </trkpt>
      <trkpt lat="44.3926" lon="6.16634">
        <ele>1050.8581543</ele>
        <time>2016-05-03T08:06:41Z</time>
      </trkpt>
      <trkpt lat="44.39263" lon="6.16595">
        <ele>1054.2231445</ele>
        <time>2016-05-03T08:07:00Z</time>
      </trkpt>
      <trkpt lat="44.39269" lon="6.16551">
        <ele>1056.6262207</ele>
        <time>2016-05-03T08:07:22Z</time>
      </trkpt>
      <trkpt lat="44.3927" lon="6.1653">
        <ele>1058.0683594</ele>
        <time>2016-05-03T08:07:28Z</time>
      </trkpt>
      <trkpt lat="44.39282" lon="6.16491">
        <ele>1059.9907227</ele>
        <time>2016-05-03T08:07:47Z</time>
      </trkpt>
      <trkpt lat="44.39277" lon="6.16484">
        <ele>1060.9521484</ele>
        <time>2016-05-03T08:07:51Z</time>
      </trkpt>
      <trkpt lat="44.39269" lon="6.16484">
        <ele>1060.9521484</ele>
        <time>2016-05-03T08:07:56Z</time>
      </trkpt>
      <trkpt lat="44.39237" lon="6.1652">
        <ele>1063.3554688</ele>
        <time>2016-05-03T08:08:18Z</time>
      </trkpt>
      <trkpt lat="44.39205" lon="6.1655">
        <ele>1065.7587891</ele>
        <time>2016-05-03T08:08:39Z</time>
      </trkpt>
      <trkpt lat="44.39186" lon="6.1656">
        <ele>1067.2006836</ele>
        <time>2016-05-03T08:08:50Z</time>
      </trkpt>
      <trkpt lat="44.3918" lon="6.16553">
        <ele>1068.1621094</ele>
        <time>2016-05-03T08:08:55Z</time>
      </trkpt>
      <trkpt lat="44.3917" lon="6.16514">
        <ele>1071.5266113</ele>
        <time>2016-05-03T08:09:12Z</time>
      </trkpt>
      <trkpt lat="44.39163" lon="6.16463">
        <ele>1073.9299316</ele>
        <time>2016-05-03T08:09:33Z</time>
      </trkpt>
      <trkpt lat="44.39142" lon="6.16448">
        <ele>1076.333252</ele>
        <time>2016-05-03T08:09:49Z</time>
      </trkpt>
      <trkpt lat="44.3911" lon="6.16445">
        <ele>1079.217041</ele>
        <time>2016-05-03T08:10:08Z</time>
      </trkpt>
      <trkpt lat="44.39072" lon="6.16419">
        <ele>1080.1784668</ele>
        <time>2016-05-03T08:10:29Z</time>
      </trkpt>
      <trkpt lat="44.39028" lon="6.16387">
        <ele>1081.6203613</ele>
        <time>2016-05-03T08:10:53Z</time>
      </trkpt>
      <trkpt lat="44.38965" lon="6.16364">
        <ele>1084.0239258</ele>
        <time>2016-05-03T08:11:24Z</time>
      </trkpt>
      <trkpt lat="44.38926" lon="6.16349">
        <ele>1086.4272461</ele>
        <time>2016-05-03T08:11:46Z</time>
      </trkpt>
      <trkpt lat="44.38882" lon="6.16342">
        <ele>1088.8305664</ele>
        <time>2016-05-03T08:12:08Z</time>
      </trkpt>
      <trkpt lat="44.38839" lon="6.16313">
        <ele>1090.7529297</ele>
        <time>2016-05-03T08:12:32Z</time>
      </trkpt>
      <trkpt lat="44.38806" lon="6.16281">
        <ele>1093.6369629</ele>
        <time>2016-05-03T08:12:53Z</time>
      </trkpt>
      <trkpt lat="44.38772" lon="6.16259">
        <ele>1097.0014648</ele>
        <time>2016-05-03T08:13:13Z</time>
      </trkpt>
      <trkpt lat="44.38737" lon="6.1625">
        <ele>1100.3664551</ele>
        <time>2016-05-03T08:13:32Z</time>
      </trkpt>
      <trkpt lat="44.38702" lon="6.16257">
        <ele>1103.2502441</ele>
        <time>2016-05-03T08:13:52Z</time>
      </trkpt>
      <trkpt lat="44.38663" lon="6.16244">
        <ele>1105.6535645</ele>
        <time>2016-05-03T08:14:14Z</time>
      </trkpt>
      <trkpt lat="44.38627" lon="6.16217">
        <ele>1108.5373535</ele>
        <time>2016-05-03T08:14:36Z</time>
      </trkpt>
      <trkpt lat="44.38583" lon="6.1622">
        <ele>1109.979248</ele>
        <time>2016-05-03T08:14:57Z</time>
      </trkpt>
      <trkpt lat="44.38529" lon="6.16227">
        <ele>1109.979248</ele>
        <time>2016-05-03T08:15:16Z</time>
      </trkpt>
      <trkpt lat="44.38479" lon="6.16232">
        <ele>1109.4987793</ele>
        <time>2016-05-03T08:15:32Z</time>
      </trkpt>
      <trkpt lat="44.38435" lon="6.16225">
        <ele>1109.979248</ele>
        <time>2016-05-03T08:15:49Z</time>
      </trkpt>
      <trkpt lat="44.3843" lon="6.16227">
        <ele>1109.979248</ele>
        <time>2016-05-03T08:16:02Z</time>
      </trkpt>
      <trkpt lat="44.3843" lon="6.16228">
        <ele>1109.979248</ele>
        <time>2016-05-03T08:17:55Z</time>
      </trkpt>
      <trkpt lat="44.3843" lon="6.16227">
        <ele>1109.4987793</ele>
        <time>2016-05-03T08:18:34Z</time>
      </trkpt>
      <trkpt lat="44.38428" lon="6.16228">
        <ele>1107.095459</ele>
        <time>2016-05-03T08:22:02Z</time>
      </trkpt>
      <trkpt lat="44.38391" lon="6.1624">
        <ele>1109.0180664</ele>
        <time>2016-05-03T08:22:21Z</time>
      </trkpt>
      <trkpt lat="44.38357" lon="6.16246">
        <ele>1111.4213867</ele>
        <time>2016-05-03T08:22:39Z</time>
      </trkpt>
      <trkpt lat="44.38329" lon="6.1627">
        <ele>1113.8244629</ele>
        <time>2016-05-03T08:22:58Z</time>
      </trkpt>
      <trkpt lat="44.38303" lon="6.16298">
        <ele>1116.2280273</ele>
        <time>2016-05-03T08:23:18Z</time>
      </trkpt>
      <trkpt lat="44.38282" lon="6.16332">
        <ele>1119.5927734</ele>
        <time>2016-05-03T08:23:38Z</time>
      </trkpt>
      <trkpt lat="44.38262" lon="6.16365">
        <ele>1121.034668</ele>
        <time>2016-05-03T08:23:56Z</time>
      </trkpt>
      <trkpt lat="44.38235" lon="6.16386">
        <ele>1124.3991699</ele>
        <time>2016-05-03T08:24:15Z</time>
      </trkpt>
      <trkpt lat="44.38202" lon="6.16409">
        <ele>1126.3217773</ele>
        <time>2016-05-03T08:24:35Z</time>
      </trkpt>
      <trkpt lat="44.38171" lon="6.16426">
        <ele>1128.7250977</ele>
        <time>2016-05-03T08:24:56Z</time>
      </trkpt>
      <trkpt lat="44.38147" lon="6.16451">
        <ele>1130.6477051</ele>
        <time>2016-05-03T08:25:14Z</time>
      </trkpt>
      <trkpt lat="44.3812" lon="6.16456">
        <ele>1131.128418</ele>
        <time>2016-05-03T08:25:28Z</time>
      </trkpt>
      <trkpt lat="44.38094" lon="6.16438">
        <ele>1132.5705566</ele>
        <time>2016-05-03T08:25:44Z</time>
      </trkpt>
      <trkpt lat="44.38053" lon="6.16423">
        <ele>1134.0124512</ele>
        <time>2016-05-03T08:26:05Z</time>
      </trkpt>
      <trkpt lat="44.38031" lon="6.16399">
        <ele>1134.973877</ele>
        <time>2016-05-03T08:26:19Z</time>
      </trkpt>
      <trkpt lat="44.38005" lon="6.16373">
        <ele>1136.8962402</ele>
        <time>2016-05-03T08:26:36Z</time>
      </trkpt>
      <trkpt lat="44.37989" lon="6.16339">
        <ele>1138.8190918</ele>
        <time>2016-05-03T08:26:52Z</time>
      </trkpt>
      <trkpt lat="44.37989" lon="6.16336">
        <ele>1138.8190918</ele>
        <time>2016-05-03T08:26:53Z</time>
      </trkpt>
      <trkpt lat="44.38001" lon="6.16289">
        <ele>1142.1835938</ele>
        <time>2016-05-03T08:27:13Z</time>
      </trkpt>
      <trkpt lat="44.37985" lon="6.16271">
        <ele>1145.0673828</ele>
        <time>2016-05-03T08:27:27Z</time>
      </trkpt>
      <trkpt lat="44.37952" lon="6.1629">
        <ele>1147.951416</ele>
        <time>2016-05-03T08:27:46Z</time>
      </trkpt>
      <trkpt lat="44.37926" lon="6.16306">
        <ele>1151.3161621</ele>
        <time>2016-05-03T08:28:04Z</time>
      </trkpt>
      <trkpt lat="44.37893" lon="6.16305">
        <ele>1154.2001953</ele>
        <time>2016-05-03T08:28:24Z</time>
      </trkpt>
      <trkpt lat="44.37864" lon="6.16307">
        <ele>1156.1225586</ele>
        <time>2016-05-03T08:28:41Z</time>
      </trkpt>
      <trkpt lat="44.37828" lon="6.16307">
        <ele>1159.4873047</ele>
        <time>2016-05-03T08:29:00Z</time>
      </trkpt>
      <trkpt lat="44.37788" lon="6.16309">
        <ele>1162.3710938</ele>
        <time>2016-05-03T08:29:21Z</time>
      </trkpt>
      <trkpt lat="44.37749" lon="6.16315">
        <ele>1164.7746582</ele>
        <time>2016-05-03T08:29:41Z</time>
      </trkpt>
      <trkpt lat="44.37711" lon="6.1631">
        <ele>1166.6972656</ele>
        <time>2016-05-03T08:30:00Z</time>
      </trkpt>
      <trkpt lat="44.37674" lon="6.16308">
        <ele>1169.5812988</ele>
        <time>2016-05-03T08:30:19Z</time>
      </trkpt>
      <trkpt lat="44.37645" lon="6.1632">
        <ele>1171.5036621</ele>
        <time>2016-05-03T08:30:36Z</time>
      </trkpt>
      <trkpt lat="44.37604" lon="6.16337">
        <ele>1173.9069824</ele>
        <time>2016-05-03T08:30:58Z</time>
      </trkpt>
      <trkpt lat="44.37564" lon="6.1636">
        <ele>1176.3103027</ele>
        <time>2016-05-03T08:31:21Z</time>
      </trkpt>
      <trkpt lat="44.37539" lon="6.16372">
        <ele>1177.7521973</ele>
        <time>2016-05-03T08:31:36Z</time>
      </trkpt>
      <trkpt lat="44.37509" lon="6.16387">
        <ele>1179.6748047</ele>
        <time>2016-05-03T08:31:52Z</time>
      </trkpt>
      <trkpt lat="44.37462" lon="6.16416">
        <ele>1181.1171875</ele>
        <time>2016-05-03T08:32:18Z</time>
      </trkpt>
      <trkpt lat="44.37457" lon="6.16415">
        <ele>1181.1171875</ele>
        <time>2016-05-03T08:32:33Z</time>
      </trkpt>
      <trkpt lat="44.37436" lon="6.16423">
        <ele>1181.1171875</ele>
        <time>2016-05-03T08:37:56Z</time>
      </trkpt>
      <trkpt lat="44.37379" lon="6.16447">
        <ele>1178.2329102</ele>
        <time>2016-05-03T08:38:11Z</time>
      </trkpt>
      <trkpt lat="44.37318" lon="6.16475">
        <ele>1177.7521973</ele>
        <time>2016-05-03T08:38:26Z</time>
      </trkpt>
      <trkpt lat="44.37282" lon="6.16487">
        <ele>1177.2717285</ele>
        <time>2016-05-03T08:38:38Z</time>
      </trkpt>
      <trkpt lat="44.37216" lon="6.16534">
        <ele>1174.3876953</ele>
        <time>2016-05-03T08:38:52Z</time>
      </trkpt>
      <trkpt lat="44.37147" lon="6.1659">
        <ele>1172.4650879</ele>
        <time>2016-05-03T08:39:04Z</time>
      </trkpt>
      <trkpt lat="44.37129" lon="6.16606">
        <ele>1171.984375</ele>
        <time>2016-05-03T08:39:07Z</time>
      </trkpt>
      <trkpt lat="44.37109" lon="6.16661">
        <ele>1170.0617676</ele>
        <time>2016-05-03T08:39:13Z</time>
      </trkpt>
      <trkpt lat="44.37114" lon="6.16696">
        <ele>1169.1005859</ele>
        <time>2016-05-03T08:39:16Z</time>
      </trkpt>
      <trkpt lat="44.37097" lon="6.16743">
        <ele>1166.2165527</ele>
        <time>2016-05-03T08:39:22Z</time>
      </trkpt>
      <trkpt lat="44.3709" lon="6.16742">
        <ele>1166.6972656</ele>
        <time>2016-05-03T08:39:23Z</time>
      </trkpt>
      <trkpt lat="44.37068" lon="6.16741">
        <ele>1165.2553711</ele>
        <time>2016-05-03T08:39:26Z</time>
      </trkpt>
      <trkpt lat="44.37042" lon="6.16751">
        <ele>1163.3325195</ele>
        <time>2016-05-03T08:39:29Z</time>
      </trkpt>
      <trkpt lat="44.3698" lon="6.16782">
        <ele>1159.9677734</ele>
        <time>2016-05-03T08:39:35Z</time>
      </trkpt>
      <trkpt lat="44.36969" lon="6.16788">
        <ele>1159.9677734</ele>
        <time>2016-05-03T08:39:36Z</time>
      </trkpt>
      <trkpt lat="44.36959" lon="6.16794">
        <ele>1158.5258789</ele>
        <time>2016-05-03T08:39:37Z</time>
      </trkpt>
      <trkpt lat="44.36916" lon="6.16843">
        <ele>1154.6806641</ele>
        <time>2016-05-03T08:39:42Z</time>
      </trkpt>
      <trkpt lat="44.36908" lon="6.16854">
        <ele>1154.6806641</ele>
        <time>2016-05-03T08:39:43Z</time>
      </trkpt>
      <trkpt lat="44.36892" lon="6.16871">
        <ele>1153.2387695</ele>
        <time>2016-05-03T08:39:45Z</time>
      </trkpt>
      <trkpt lat="44.36839" lon="6.16902">
        <ele>1149.8742676</ele>
        <time>2016-05-03T08:39:51Z</time>
      </trkpt>
      <trkpt lat="44.3683" lon="6.16906">
        <ele>1149.8742676</ele>
        <time>2016-05-03T08:39:52Z</time>
      </trkpt>
      <trkpt lat="44.36812" lon="6.16916">
        <ele>1147.951416</ele>
        <time>2016-05-03T08:39:54Z</time>
      </trkpt>
      <trkpt lat="44.36794" lon="6.16925">
        <ele>1146.9899902</ele>
        <time>2016-05-03T08:39:56Z</time>
      </trkpt>
      <trkpt lat="44.36771" lon="6.16933">
        <ele>1144.1062012</ele>
        <time>2016-05-03T08:39:59Z</time>
      </trkpt>
      <trkpt lat="44.36759" lon="6.16938">
        <ele>1142.1835938</ele>
        <time>2016-05-03T08:40:01Z</time>
      </trkpt>
      <trkpt lat="44.36741" lon="6.16943">
        <ele>1140.2609863</ele>
        <time>2016-05-03T08:40:08Z</time>
      </trkpt>
      <trkpt lat="44.36741" lon="6.16944">
        <ele>1141.7028809</ele>
        <time>2016-05-03T08:42:41Z</time>
      </trkpt>
      <trkpt lat="44.36725" lon="6.16949">
        <ele>1140.2609863</ele>
        <time>2016-05-03T08:43:01Z</time>
      </trkpt>
      <trkpt lat="44.3671" lon="6.16951">
        <ele>1140.2609863</ele>
        <time>2016-05-03T08:43:04Z</time>
      </trkpt>
      <trkpt lat="44.36683" lon="6.16967">
        <ele>1139.2995605</ele>
        <time>2016-05-03T08:43:09Z</time>
      </trkpt>
      <trkpt lat="44.36655" lon="6.17003">
        <ele>1138.3383789</ele>
        <time>2016-05-03T08:43:14Z</time>
      </trkpt>
      <trkpt lat="44.36635" lon="6.17024">
        <ele>1136.8962402</ele>
        <time>2016-05-03T08:43:17Z</time>
      </trkpt>
      <trkpt lat="44.3658" lon="6.17052">
        <ele>1134.4931641</ele>
        <time>2016-05-03T08:43:23Z</time>
      </trkpt>
      <trkpt lat="44.36551" lon="6.17071">
        <ele>1132.0898438</ele>
        <time>2016-05-03T08:43:26Z</time>
      </trkpt>
      <trkpt lat="44.36517" lon="6.17084">
        <ele>1130.1669922</ele>
        <time>2016-05-03T08:43:29Z</time>
      </trkpt>
      <trkpt lat="44.36482" lon="6.17095">
        <ele>1128.2443848</ele>
        <time>2016-05-03T08:43:32Z</time>
      </trkpt>
      <trkpt lat="44.36459" lon="6.17099">
        <ele>1126.8024902</ele>
        <time>2016-05-03T08:43:34Z</time>
      </trkpt>
      <trkpt lat="44.36447" lon="6.17099">
        <ele>1126.3217773</ele>
        <time>2016-05-03T08:43:35Z</time>
      </trkpt>
      <trkpt lat="44.36403" lon="6.17089">
        <ele>1124.3991699</ele>
        <time>2016-05-03T08:43:39Z</time>
      </trkpt>
      <trkpt lat="44.36372" lon="6.17081">
        <ele>1121.5151367</ele>
        <time>2016-05-03T08:43:42Z</time>
      </trkpt>
      <trkpt lat="44.36362" lon="6.1708">
        <ele>1121.5151367</ele>
        <time>2016-05-03T08:43:43Z</time>
      </trkpt>
      <trkpt lat="44.36333" lon="6.17076">
        <ele>1118.6313477</ele>
        <time>2016-05-03T08:43:46Z</time>
      </trkpt>
      <trkpt lat="44.36323" lon="6.17075">
        <ele>1117.1894531</ele>
        <time>2016-05-03T08:43:47Z</time>
      </trkpt>
      <trkpt lat="44.36297" lon="6.17061">
        <ele>1114.7858887</ele>
        <time>2016-05-03T08:43:50Z</time>
      </trkpt>
      <trkpt lat="44.3629" lon="6.17054">
        <ele>1112.8632813</ele>
        <time>2016-05-03T08:43:51Z</time>
      </trkpt>
      <trkpt lat="44.36248" lon="6.17001">
        <ele>1109.4987793</ele>
        <time>2016-05-03T08:43:57Z</time>
      </trkpt>
      <trkpt lat="44.36242" lon="6.16992">
        <ele>1108.0568848</ele>
        <time>2016-05-03T08:43:58Z</time>
      </trkpt>
      <trkpt lat="44.36227" lon="6.16979">
        <ele>1107.095459</ele>
        <time>2016-05-03T08:44:00Z</time>
      </trkpt>
      <trkpt lat="44.36199" lon="6.16969">
        <ele>1106.1340332</ele>
        <time>2016-05-03T08:44:03Z</time>
      </trkpt>
      <trkpt lat="44.3618" lon="6.16967">
        <ele>1104.6921387</ele>
        <time>2016-05-03T08:44:05Z</time>
      </trkpt>
      <trkpt lat="44.36151" lon="6.16955">
        <ele>1101.3276367</ele>
        <time>2016-05-03T08:44:08Z</time>
      </trkpt>
      <trkpt lat="44.36141" lon="6.1695">
        <ele>1101.3276367</ele>
        <time>2016-05-03T08:44:09Z</time>
      </trkpt>
      <trkpt lat="44.36131" lon="6.16946">
        <ele>1102.2888184</ele>
        <time>2016-05-03T08:44:10Z</time>
      </trkpt>
      <trkpt lat="44.36112" lon="6.16941">
        <ele>1098.9240723</ele>
        <time>2016-05-03T08:44:12Z</time>
      </trkpt>
      <trkpt lat="44.36084" lon="6.16928">
        <ele>1094.1176758</ele>
        <time>2016-05-03T08:44:15Z</time>
      </trkpt>
      <trkpt lat="44.36075" lon="6.16923">
        <ele>1094.1176758</ele>
        <time>2016-05-03T08:44:16Z</time>
      </trkpt>
      <trkpt lat="44.36067" lon="6.1692">
        <ele>1092.6757813</ele>
        <time>2016-05-03T08:44:17Z</time>
      </trkpt>
      <trkpt lat="44.36043" lon="6.16912">
        <ele>1089.791748</ele>
        <time>2016-05-03T08:44:20Z</time>
      </trkpt>
      <trkpt lat="44.36018" lon="6.16893">
        <ele>1087.8691406</ele>
        <time>2016-05-03T08:44:23Z</time>
      </trkpt>
      <trkpt lat="44.35979" lon="6.16875">
        <ele>1086.4272461</ele>
        <time>2016-05-03T08:44:27Z</time>
      </trkpt>
      <trkpt lat="44.3597" lon="6.16871">
        <ele>1084.9853516</ele>
        <time>2016-05-03T08:44:28Z</time>
      </trkpt>
      <trkpt lat="44.35953" lon="6.16862">
        <ele>1081.6203613</ele>
        <time>2016-05-03T08:44:30Z</time>
      </trkpt>
      <trkpt lat="44.35944" lon="6.1686">
        <ele>1081.1398926</ele>
        <time>2016-05-03T08:44:31Z</time>
      </trkpt>
      <trkpt lat="44.35918" lon="6.16863">
        <ele>1079.217041</ele>
        <time>2016-05-03T08:44:34Z</time>
      </trkpt>
      <trkpt lat="44.35902" lon="6.16873">
        <ele>1075.8525391</ele>
        <time>2016-05-03T08:44:36Z</time>
      </trkpt>
      <trkpt lat="44.3589" lon="6.16883">
        <ele>1073.9299316</ele>
        <time>2016-05-03T08:44:38Z</time>
      </trkpt>
      <trkpt lat="44.35878" lon="6.16882">
        <ele>1072.4880371</ele>
        <time>2016-05-03T08:44:41Z</time>
      </trkpt>
      <trkpt lat="44.35876" lon="6.16864">
        <ele>1071.0461426</ele>
        <time>2016-05-03T08:44:44Z</time>
      </trkpt>
      <trkpt lat="44.35879" lon="6.16848">
        <ele>1070.5654297</ele>
        <time>2016-05-03T08:44:46Z</time>
      </trkpt>
      <trkpt lat="44.35868" lon="6.16815">
        <ele>1072.4880371</ele>
        <time>2016-05-03T08:44:51Z</time>
      </trkpt>
      <trkpt lat="44.35859" lon="6.16803">
        <ele>1072.4880371</ele>
        <time>2016-05-03T08:44:53Z</time>
      </trkpt>
      <trkpt lat="44.35852" lon="6.16788">
        <ele>1069.604248</ele>
        <time>2016-05-03T08:44:55Z</time>
      </trkpt>
      <trkpt lat="44.35852" lon="6.16763">
        <ele>1067.2006836</ele>
        <time>2016-05-03T08:44:57Z</time>
      </trkpt>
      <trkpt lat="44.35854" lon="6.16739">
        <ele>1065.2780762</ele>
        <time>2016-05-03T08:44:59Z</time>
      </trkpt>
      <trkpt lat="44.35857" lon="6.16716">
        <ele>1065.2780762</ele>
        <time>2016-05-03T08:45:01Z</time>
      </trkpt>
      <trkpt lat="44.35851" lon="6.16684">
        <ele>1063.3554688</ele>
        <time>2016-05-03T08:45:04Z</time>
      </trkpt>
      <trkpt lat="44.35844" lon="6.16665">
        <ele>1059.9907227</ele>
        <time>2016-05-03T08:45:06Z</time>
      </trkpt>
      <trkpt lat="44.35837" lon="6.16659">
        <ele>1059.9907227</ele>
        <time>2016-05-03T08:45:07Z</time>
      </trkpt>
      <trkpt lat="44.35825" lon="6.16649">
        <ele>1059.9907227</ele>
        <time>2016-05-03T08:45:09Z</time>
      </trkpt>
      <trkpt lat="44.35809" lon="6.16638">
        <ele>1055.1843262</ele>
        <time>2016-05-03T08:45:12Z</time>
      </trkpt>
      <trkpt lat="44.35802" lon="6.16635">
        <ele>1053.2617188</ele>
        <time>2016-05-03T08:45:14Z</time>
      </trkpt>
      <trkpt lat="44.358" lon="6.1664">
        <ele>1051.8195801</ele>
        <time>2016-05-03T08:45:16Z</time>
      </trkpt>
      <trkpt lat="44.35814" lon="6.16657">
        <ele>1051.8195801</ele>
        <time>2016-05-03T08:45:20Z</time>
      </trkpt>
      <trkpt lat="44.35828" lon="6.16671">
        <ele>1050.3776855</ele>
        <time>2016-05-03T08:45:22Z</time>
      </trkpt>
      <trkpt lat="44.35824" lon="6.16738">
        <ele>1050.3776855</ele>
        <time>2016-05-03T08:45:26Z</time>
      </trkpt>
      <trkpt lat="44.35831" lon="6.16758">
        <ele>1050.3776855</ele>
        <time>2016-05-03T08:45:28Z</time>
      </trkpt>
      <trkpt lat="44.35835" lon="6.16792">
        <ele>1046.5324707</ele>
        <time>2016-05-03T08:45:32Z</time>
      </trkpt>
      <trkpt lat="44.35831" lon="6.16795">
        <ele>1044.6096191</ele>
        <time>2016-05-03T08:45:34Z</time>
      </trkpt>
      <trkpt lat="44.35833" lon="6.16772">
        <ele>1042.6872559</ele>
        <time>2016-05-03T08:45:36Z</time>
      </trkpt>
      <trkpt lat="44.3583" lon="6.16765">
        <ele>1042.6872559</ele>
        <time>2016-05-03T08:45:37Z</time>
      </trkpt>
      <trkpt lat="44.35823" lon="6.16719">
        <ele>1042.206543</ele>
        <time>2016-05-03T08:45:42Z</time>
      </trkpt>
      <trkpt lat="44.35806" lon="6.16689">
        <ele>1040.7644043</ele>
        <time>2016-05-03T08:45:46Z</time>
      </trkpt>
      <trkpt lat="44.3579" lon="6.16673">
        <ele>1035.9577637</ele>
        <time>2016-05-03T08:45:50Z</time>
      </trkpt>
      <trkpt lat="44.35793" lon="6.16689">
        <ele>1034.5158691</ele>
        <time>2016-05-03T08:45:55Z</time>
      </trkpt>
      <trkpt lat="44.35797" lon="6.16716">
        <ele>1034.0351563</ele>
        <time>2016-05-03T08:45:57Z</time>
      </trkpt>
      <trkpt lat="44.35805" lon="6.1675">
        <ele>1033.0737305</ele>
        <time>2016-05-03T08:46:01Z</time>
      </trkpt>
      <trkpt lat="44.35812" lon="6.16765">
        <ele>1030.1899414</ele>
        <time>2016-05-03T08:46:04Z</time>
      </trkpt>
      <trkpt lat="44.35803" lon="6.16771">
        <ele>1028.267334</ele>
        <time>2016-05-03T08:46:07Z</time>
      </trkpt>
      <trkpt lat="44.35802" lon="6.16747">
        <ele>1028.267334</ele>
        <time>2016-05-03T08:46:10Z</time>
      </trkpt>
      <trkpt lat="44.35798" lon="6.16732">
        <ele>1028.267334</ele>
        <time>2016-05-03T08:46:12Z</time>
      </trkpt>
      <trkpt lat="44.35754" lon="6.16693">
        <ele>1026.3447266</ele>
        <time>2016-05-03T08:46:20Z</time>
      </trkpt>
      <trkpt lat="44.35741" lon="6.1669">
        <ele>1027.3061523</ele>
        <time>2016-05-03T08:46:22Z</time>
      </trkpt>
      <trkpt lat="44.35728" lon="6.16681">
        <ele>1023.4609375</ele>
        <time>2016-05-03T08:46:24Z</time>
      </trkpt>
      <trkpt lat="44.3572" lon="6.16677">
        <ele>1023.4609375</ele>
        <time>2016-05-03T08:46:25Z</time>
      </trkpt>
      <trkpt lat="44.35712" lon="6.16676">
        <ele>1020.5769043</ele>
        <time>2016-05-03T08:46:26Z</time>
      </trkpt>
      <trkpt lat="44.3565" lon="6.16725">
        <ele>1018.1733398</ele>
        <time>2016-05-03T08:46:35Z</time>
      </trkpt>
      <trkpt lat="44.35635" lon="6.16733">
        <ele>1013.8474121</ele>
        <time>2016-05-03T08:46:37Z</time>
      </trkpt>
      <trkpt lat="44.35619" lon="6.16737">
        <ele>1011.4443359</ele>
        <time>2016-05-03T08:46:39Z</time>
      </trkpt>
      <trkpt lat="44.35604" lon="6.16737">
        <ele>1010.963623</ele>
        <time>2016-05-03T08:46:41Z</time>
      </trkpt>
      <trkpt lat="44.3558" lon="6.16744">
        <ele>1009.5217285</ele>
        <time>2016-05-03T08:46:44Z</time>
      </trkpt>
      <trkpt lat="44.35524" lon="6.16755">
        <ele>1004.7150879</ele>
        <time>2016-05-03T08:46:50Z</time>
      </trkpt>
      <trkpt lat="44.35516" lon="6.16756">
        <ele>1004.7150879</ele>
        <time>2016-05-03T08:46:51Z</time>
      </trkpt>
      <trkpt lat="44.35508" lon="6.16755">
        <ele>1001.3503418</ele>
        <time>2016-05-03T08:46:52Z</time>
      </trkpt>
      <trkpt lat="44.355" lon="6.16755">
        <ele>1001.3503418</ele>
        <time>2016-05-03T08:46:53Z</time>
      </trkpt>
      <trkpt lat="44.35482" lon="6.16755">
        <ele>997.505127</ele>
        <time>2016-05-03T08:46:55Z</time>
      </trkpt>
      <trkpt lat="44.35475" lon="6.16752">
        <ele>997.505127</ele>
        <time>2016-05-03T08:46:56Z</time>
      </trkpt>
      <trkpt lat="44.35465" lon="6.16755">
        <ele>994.6210938</ele>
        <time>2016-05-03T08:46:58Z</time>
      </trkpt>
      <trkpt lat="44.35461" lon="6.16766">
        <ele>993.6599121</ele>
        <time>2016-05-03T08:47:00Z</time>
      </trkpt>
      <trkpt lat="44.35465" lon="6.1678">
        <ele>991.7373047</ele>
        <time>2016-05-03T08:47:02Z</time>
      </trkpt>
      <trkpt lat="44.35469" lon="6.16782">
        <ele>991.2565918</ele>
        <time>2016-05-03T08:47:03Z</time>
      </trkpt>
      <trkpt lat="44.35482" lon="6.16824">
        <ele>989.8146973</ele>
        <time>2016-05-03T08:47:10Z</time>
      </trkpt>
      <trkpt lat="44.35466" lon="6.16841">
        <ele>988.8535156</ele>
        <time>2016-05-03T08:47:13Z</time>
      </trkpt>
      <trkpt lat="44.35429" lon="6.16867">
        <ele>985.4885254</ele>
        <time>2016-05-03T08:47:18Z</time>
      </trkpt>
      <trkpt lat="44.3538" lon="6.16895">
        <ele>983.565918</ele>
        <time>2016-05-03T08:47:23Z</time>
      </trkpt>
      <trkpt lat="44.35347" lon="6.16909">
        <ele>981.1628418</ele>
        <time>2016-05-03T08:47:26Z</time>
      </trkpt>
      <trkpt lat="44.35288" lon="6.16927">
        <ele>977.7980957</ele>
        <time>2016-05-03T08:47:31Z</time>
      </trkpt>
      <trkpt lat="44.35276" lon="6.16932">
        <ele>975.8754883</ele>
        <time>2016-05-03T08:47:32Z</time>
      </trkpt>
      <trkpt lat="44.35243" lon="6.16955">
        <ele>973.4724121</ele>
        <time>2016-05-03T08:47:35Z</time>
      </trkpt>
      <trkpt lat="44.35234" lon="6.16964">
        <ele>971.0688477</ele>
        <time>2016-05-03T08:47:36Z</time>
      </trkpt>
      <trkpt lat="44.35207" lon="6.1699">
        <ele>967.2236328</ele>
        <time>2016-05-03T08:47:39Z</time>
      </trkpt>
      <trkpt lat="44.35198" lon="6.16999">
        <ele>967.2236328</ele>
        <time>2016-05-03T08:47:40Z</time>
      </trkpt>
      <trkpt lat="44.35131" lon="6.17049">
        <ele>968.1848145</ele>
        <time>2016-05-03T08:47:46Z</time>
      </trkpt>
      <trkpt lat="44.35119" lon="6.17056">
        <ele>964.3395996</ele>
        <time>2016-05-03T08:47:47Z</time>
      </trkpt>
      <trkpt lat="44.35097" lon="6.17071">
        <ele>963.378418</ele>
        <time>2016-05-03T08:47:49Z</time>
      </trkpt>
      <trkpt lat="44.35043" lon="6.17111">
        <ele>959.0524902</ele>
        <time>2016-05-03T08:47:54Z</time>
      </trkpt>
      <trkpt lat="44.35032" lon="6.1712">
        <ele>955.6877441</ele>
        <time>2016-05-03T08:47:55Z</time>
      </trkpt>
      <trkpt lat="44.35021" lon="6.17129">
        <ele>955.6877441</ele>
        <time>2016-05-03T08:47:56Z</time>
      </trkpt>
      <trkpt lat="44.34999" lon="6.17145">
        <ele>954.2458496</ele>
        <time>2016-05-03T08:47:58Z</time>
      </trkpt>
      <trkpt lat="44.34961" lon="6.17163">
        <ele>950.8811035</ele>
        <time>2016-05-03T08:48:01Z</time>
      </trkpt>
      <trkpt lat="44.34936" lon="6.17175">
        <ele>949.9199219</ele>
        <time>2016-05-03T08:48:03Z</time>
      </trkpt>
      <trkpt lat="44.34884" lon="6.1719">
        <ele>947.0358887</ele>
        <time>2016-05-03T08:48:07Z</time>
      </trkpt>
      <trkpt lat="44.34858" lon="6.17193">
        <ele>943.1906738</ele>
        <time>2016-05-03T08:48:09Z</time>
      </trkpt>
      <trkpt lat="44.34847" lon="6.17195">
        <ele>943.1906738</ele>
        <time>2016-05-03T08:48:10Z</time>
      </trkpt>
      <trkpt lat="44.34826" lon="6.17198">
        <ele>940.7873535</ele>
        <time>2016-05-03T08:48:12Z</time>
      </trkpt>
      <trkpt lat="44.34816" lon="6.172">
        <ele>937.4226074</ele>
        <time>2016-05-03T08:48:13Z</time>
      </trkpt>
      <trkpt lat="44.34806" lon="6.17203">
        <ele>937.4226074</ele>
        <time>2016-05-03T08:48:14Z</time>
      </trkpt>
      <trkpt lat="44.34777" lon="6.17212">
        <ele>934.5388184</ele>
        <time>2016-05-03T08:48:17Z</time>
      </trkpt>
      <trkpt lat="44.34739" lon="6.17225">
        <ele>932.135498</ele>
        <time>2016-05-03T08:48:21Z</time>
      </trkpt>
      <trkpt lat="44.34688" lon="6.17246">
        <ele>929.2514648</ele>
        <time>2016-05-03T08:48:26Z</time>
      </trkpt>
      <trkpt lat="44.34668" lon="6.17258">
        <ele>927.8095703</ele>
        <time>2016-05-03T08:48:28Z</time>
      </trkpt>
      <trkpt lat="44.34648" lon="6.17274">
        <ele>925.8869629</ele>
        <time>2016-05-03T08:48:30Z</time>
      </trkpt>
      <trkpt lat="44.34566" lon="6.1734">
        <ele>923.0029297</ele>
        <time>2016-05-03T08:48:38Z</time>
      </trkpt>
      <trkpt lat="44.34548" lon="6.17345">
        <ele>920.1188965</ele>
        <time>2016-05-03T08:48:40Z</time>
      </trkpt>
      <trkpt lat="44.3453" lon="6.17346">
        <ele>918.677002</ele>
        <time>2016-05-03T08:48:42Z</time>
      </trkpt>
      <trkpt lat="44.34516" lon="6.17338">
        <ele>917.2351074</ele>
        <time>2016-05-03T08:48:44Z</time>
      </trkpt>
      <trkpt lat="44.34494" lon="6.1733">
        <ele>915.3125</ele>
        <time>2016-05-03T08:48:47Z</time>
      </trkpt>
      <trkpt lat="44.34477" lon="6.17331">
        <ele>914.8317871</ele>
        <time>2016-05-03T08:48:49Z</time>
      </trkpt>
      <trkpt lat="44.3445" lon="6.17343">
        <ele>913.3898926</ele>
        <time>2016-05-03T08:48:52Z</time>
      </trkpt>
      <trkpt lat="44.34431" lon="6.17349">
        <ele>912.4284668</ele>
        <time>2016-05-03T08:48:54Z</time>
      </trkpt>
      <trkpt lat="44.3441" lon="6.17351">
        <ele>910.5058594</ele>
        <time>2016-05-03T08:48:56Z</time>
      </trkpt>
      <trkpt lat="44.34316" lon="6.17341">
        <ele>909.5446777</ele>
        <time>2016-05-03T08:49:05Z</time>
      </trkpt>
      <trkpt lat="44.34287" lon="6.17346">
        <ele>906.1796875</ele>
        <time>2016-05-03T08:49:08Z</time>
      </trkpt>
      <trkpt lat="44.34268" lon="6.17354">
        <ele>904.737793</ele>
        <time>2016-05-03T08:49:10Z</time>
      </trkpt>
      <trkpt lat="44.34237" lon="6.17367">
        <ele>900.8925781</ele>
        <time>2016-05-03T08:49:13Z</time>
      </trkpt>
      <trkpt lat="44.34228" lon="6.17371">
        <ele>900.8925781</ele>
        <time>2016-05-03T08:49:14Z</time>
      </trkpt>
      <trkpt lat="44.34204" lon="6.17375">
        <ele>895.6054688</ele>
        <time>2016-05-03T08:49:17Z</time>
      </trkpt>
      <trkpt lat="44.34192" lon="6.17379">
        <ele>893.2021484</ele>
        <time>2016-05-03T08:49:19Z</time>
      </trkpt>
      <trkpt lat="44.34181" lon="6.17395">
        <ele>891.2792969</ele>
        <time>2016-05-03T08:49:26Z</time>
      </trkpt>
      <trkpt lat="44.34169" lon="6.17408">
        <ele>891.2792969</ele>
        <time>2016-05-03T08:56:36Z</time>
      </trkpt>
      <trkpt lat="44.34169" lon="6.17416">
        <ele>891.7600098</ele>
        <time>2016-05-03T08:56:40Z</time>
      </trkpt>
      <trkpt lat="44.34165" lon="6.17461">
        <ele>890.3181152</ele>
        <time>2016-05-03T08:56:51Z</time>
      </trkpt>
      <trkpt lat="44.34163" lon="6.17483">
        <ele>890.798584</ele>
        <time>2016-05-03T08:56:55Z</time>
      </trkpt>
      <trkpt lat="44.34153" lon="6.17514">
        <ele>889.3566895</ele>
        <time>2016-05-03T08:57:01Z</time>
      </trkpt>
      <trkpt lat="44.3414" lon="6.17532">
        <ele>888.8762207</ele>
        <time>2016-05-03T08:57:05Z</time>
      </trkpt>
      <trkpt lat="44.34131" lon="6.17549">
        <ele>887.434082</ele>
        <time>2016-05-03T08:57:08Z</time>
      </trkpt>
      <trkpt lat="44.34139" lon="6.17584">
        <ele>886.4729004</ele>
        <time>2016-05-03T08:57:12Z</time>
      </trkpt>
      <trkpt lat="44.34148" lon="6.17631">
        <ele>887.9147949</ele>
        <time>2016-05-03T08:57:18Z</time>
      </trkpt>
      <trkpt lat="44.34175" lon="6.17727">
        <ele>889.8374023</ele>
        <time>2016-05-03T08:57:37Z</time>
      </trkpt>
      <trkpt lat="44.34212" lon="6.17787">
        <ele>891.7600098</ele>
        <time>2016-05-03T08:57:56Z</time>
      </trkpt>
      <trkpt lat="44.3424" lon="6.17854">
        <ele>893.6828613</ele>
        <time>2016-05-03T08:58:16Z</time>
      </trkpt>
      <trkpt lat="44.34265" lon="6.17919">
        <ele>894.644043</ele>
        <time>2016-05-03T08:58:36Z</time>
      </trkpt>
      <trkpt lat="44.3429" lon="6.17981">
        <ele>896.0861816</ele>
        <time>2016-05-03T08:58:55Z</time>
      </trkpt>
      <trkpt lat="44.34311" lon="6.18037">
        <ele>896.5668945</ele>
        <time>2016-05-03T08:59:13Z</time>
      </trkpt>
      <trkpt lat="44.3434" lon="6.18114">
        <ele>898.9699707</ele>
        <time>2016-05-03T08:59:37Z</time>
      </trkpt>
      <trkpt lat="44.34364" lon="6.18175">
        <ele>900.4121094</ele>
        <time>2016-05-03T08:59:56Z</time>
      </trkpt>
      <trkpt lat="44.34388" lon="6.18252">
        <ele>901.8540039</ele>
        <time>2016-05-03T09:00:18Z</time>
      </trkpt>
      <trkpt lat="44.34414" lon="6.18293">
        <ele>903.7766113</ele>
        <time>2016-05-03T09:00:34Z</time>
      </trkpt>
      <trkpt lat="44.34448" lon="6.18348">
        <ele>904.2573242</ele>
        <time>2016-05-03T09:00:53Z</time>
      </trkpt>
      <trkpt lat="44.34476" lon="6.18406">
        <ele>905.6992188</ele>
        <time>2016-05-03T09:01:12Z</time>
      </trkpt>
      <trkpt lat="44.34508" lon="6.18451">
        <ele>907.1411133</ele>
        <time>2016-05-03T09:01:31Z</time>
      </trkpt>
      <trkpt lat="44.34544" lon="6.18498">
        <ele>909.5446777</ele>
        <time>2016-05-03T09:01:52Z</time>
      </trkpt>
      <trkpt lat="44.34569" lon="6.18522">
        <ele>911.947998</ele>
        <time>2016-05-03T09:02:06Z</time>
      </trkpt>
      <trkpt lat="44.34599" lon="6.18548">
        <ele>915.3125</ele>
        <time>2016-05-03T09:02:25Z</time>
      </trkpt>
      <trkpt lat="44.34645" lon="6.18522">
        <ele>914.8317871</ele>
        <time>2016-05-03T09:02:41Z</time>
      </trkpt>
      <trkpt lat="44.34655" lon="6.18519">
        <ele>913.8703613</ele>
        <time>2016-05-03T09:02:43Z</time>
      </trkpt>
      <trkpt lat="44.34674" lon="6.18522">
        <ele>913.8703613</ele>
        <time>2016-05-03T09:02:47Z</time>
      </trkpt>
      <trkpt lat="44.34688" lon="6.18533">
        <ele>914.3510742</ele>
        <time>2016-05-03T09:02:51Z</time>
      </trkpt>
      <trkpt lat="44.34714" lon="6.18565">
        <ele>915.7932129</ele>
        <time>2016-05-03T09:03:02Z</time>
      </trkpt>
      <trkpt lat="44.34745" lon="6.18602">
        <ele>916.2736816</ele>
        <time>2016-05-03T09:03:16Z</time>
      </trkpt>
      <trkpt lat="44.34788" lon="6.1863">
        <ele>916.2736816</ele>
        <time>2016-05-03T09:03:31Z</time>
      </trkpt>
      <trkpt lat="44.34834" lon="6.18637">
        <ele>919.1577148</ele>
        <time>2016-05-03T09:03:50Z</time>
      </trkpt>
      <trkpt lat="44.34862" lon="6.18676">
        <ele>920.1188965</ele>
        <time>2016-05-03T09:04:07Z</time>
      </trkpt>
      <trkpt lat="44.34865" lon="6.18692">
        <ele>920.5996094</ele>
        <time>2016-05-03T09:04:12Z</time>
      </trkpt>
      <trkpt lat="44.34867" lon="6.18743">
        <ele>922.5222168</ele>
        <time>2016-05-03T09:04:29Z</time>
      </trkpt>
      <trkpt lat="44.34862" lon="6.18771">
        <ele>923.4836426</ele>
        <time>2016-05-03T09:04:38Z</time>
      </trkpt>
      <trkpt lat="44.34852" lon="6.18813">
        <ele>923.9641113</ele>
        <time>2016-05-03T09:04:51Z</time>
      </trkpt>
      <trkpt lat="44.34851" lon="6.18868">
        <ele>926.3676758</ele>
        <time>2016-05-03T09:05:10Z</time>
      </trkpt>
      <trkpt lat="44.34861" lon="6.1887">
        <ele>926.3676758</ele>
        <time>2016-05-03T09:05:15Z</time>
      </trkpt>
      <trkpt lat="44.34896" lon="6.18874">
        <ele>928.2902832</ele>
        <time>2016-05-03T09:05:31Z</time>
      </trkpt>
      <trkpt lat="44.34907" lon="6.18916">
        <ele>929.7321777</ele>
        <time>2016-05-03T09:05:46Z</time>
      </trkpt>
      <trkpt lat="44.34912" lon="6.18974">
        <ele>931.6547852</ele>
        <time>2016-05-03T09:06:05Z</time>
      </trkpt>
      <trkpt lat="44.34911" lon="6.1905">
        <ele>934.0581055</ele>
        <time>2016-05-03T09:06:29Z</time>
      </trkpt>
      <trkpt lat="44.34904" lon="6.19103">
        <ele>936.4614258</ele>
        <time>2016-05-03T09:06:48Z</time>
      </trkpt>
      <trkpt lat="44.34923" lon="6.19131">
        <ele>937.4226074</ele>
        <time>2016-05-03T09:07:00Z</time>
      </trkpt>
      <trkpt lat="44.34933" lon="6.1914">
        <ele>937.4226074</ele>
        <time>2016-05-03T09:07:06Z</time>
      </trkpt>
      <trkpt lat="44.34952" lon="6.19159">
        <ele>938.8647461</ele>
        <time>2016-05-03T09:07:19Z</time>
      </trkpt>
      <trkpt lat="44.34981" lon="6.19194">
        <ele>940.7873535</ele>
        <time>2016-05-03T09:07:36Z</time>
      </trkpt>
      <trkpt lat="44.34994" lon="6.1924">
        <ele>940.7873535</ele>
        <time>2016-05-03T09:07:52Z</time>
      </trkpt>
      <trkpt lat="44.34985" lon="6.19298">
        <ele>941.2680664</ele>
        <time>2016-05-03T09:08:07Z</time>
      </trkpt>
      <trkpt lat="44.34952" lon="6.19333">
        <ele>942.2294922</ele>
        <time>2016-05-03T09:08:21Z</time>
      </trkpt>
      <trkpt lat="44.34932" lon="6.19379">
        <ele>943.1906738</ele>
        <time>2016-05-03T09:08:36Z</time>
      </trkpt>
      <trkpt lat="44.34955" lon="6.19412">
        <ele>943.6713867</ele>
        <time>2016-05-03T09:08:49Z</time>
      </trkpt>
      <trkpt lat="44.34995" lon="6.19458">
        <ele>944.6325684</ele>
        <time>2016-05-03T09:09:04Z</time>
      </trkpt>
      <trkpt lat="44.3501" lon="6.19504">
        <ele>945.5939941</ele>
        <time>2016-05-03T09:09:15Z</time>
      </trkpt>
      <trkpt lat="44.34993" lon="6.19534">
        <ele>947.0358887</ele>
        <time>2016-05-03T09:09:26Z</time>
      </trkpt>
      <trkpt lat="44.34968" lon="6.19587">
        <ele>948.9584961</ele>
        <time>2016-05-03T09:09:44Z</time>
      </trkpt>
      <trkpt lat="44.34975" lon="6.19614">
        <ele>949.439209</ele>
        <time>2016-05-03T09:09:52Z</time>
      </trkpt>
      <trkpt lat="44.35002" lon="6.19662">
        <ele>950.8811035</ele>
        <time>2016-05-03T09:10:08Z</time>
      </trkpt>
      <trkpt lat="44.35003" lon="6.19681">
        <ele>951.3618164</ele>
        <time>2016-05-03T09:10:13Z</time>
      </trkpt>
      <trkpt lat="44.35007" lon="6.19748">
        <ele>951.8425293</ele>
        <time>2016-05-03T09:10:32Z</time>
      </trkpt>
      <trkpt lat="44.35013" lon="6.19793">
        <ele>953.7651367</ele>
        <time>2016-05-03T09:10:45Z</time>
      </trkpt>
      <trkpt lat="44.35022" lon="6.19815">
        <ele>953.7651367</ele>
        <time>2016-05-03T09:10:52Z</time>
      </trkpt>
      <trkpt lat="44.35046" lon="6.19878">
        <ele>956.6491699</ele>
        <time>2016-05-03T09:11:11Z</time>
      </trkpt>
      <trkpt lat="44.35052" lon="6.19898">
        <ele>957.1298828</ele>
        <time>2016-05-03T09:11:17Z</time>
      </trkpt>
      <trkpt lat="44.35053" lon="6.19932">
        <ele>957.6105957</ele>
        <time>2016-05-03T09:11:27Z</time>
      </trkpt>
      <trkpt lat="44.35054" lon="6.19979">
        <ele>958.0913086</ele>
        <time>2016-05-03T09:11:40Z</time>
      </trkpt>
      <trkpt lat="44.3505" lon="6.20018">
        <ele>958.5717773</ele>
        <time>2016-05-03T09:11:50Z</time>
      </trkpt>
      <trkpt lat="44.35066" lon="6.20054">
        <ele>958.5717773</ele>
        <time>2016-05-03T09:12:00Z</time>
      </trkpt>
      <trkpt lat="44.35045" lon="6.20097">
        <ele>959.5332031</ele>
        <time>2016-05-03T09:12:14Z</time>
      </trkpt>
      <trkpt lat="44.35024" lon="6.20132">
        <ele>960.9750977</ele>
        <time>2016-05-03T09:12:28Z</time>
      </trkpt>
      <trkpt lat="44.35021" lon="6.20155">
        <ele>961.9365234</ele>
        <time>2016-05-03T09:12:37Z</time>
      </trkpt>
      <trkpt lat="44.35018" lon="6.20165">
        <ele>962.4169922</ele>
        <time>2016-05-03T09:12:40Z</time>
      </trkpt>
      <trkpt lat="44.35003" lon="6.2021">
        <ele>962.8977051</ele>
        <time>2016-05-03T09:12:55Z</time>
      </trkpt>
      <trkpt lat="44.34995" lon="6.20266">
        <ele>964.8203125</ele>
        <time>2016-05-03T09:13:12Z</time>
      </trkpt>
      <trkpt lat="44.34999" lon="6.20301">
        <ele>965.7817383</ele>
        <time>2016-05-03T09:13:24Z</time>
      </trkpt>
      <trkpt lat="44.34996" lon="6.20352">
        <ele>966.7429199</ele>
        <time>2016-05-03T09:13:39Z</time>
      </trkpt>
      <trkpt lat="44.35001" lon="6.20409">
        <ele>968.6655273</ele>
        <time>2016-05-03T09:13:56Z</time>
      </trkpt>
      <trkpt lat="44.34973" lon="6.20437">
        <ele>969.6269531</ele>
        <time>2016-05-03T09:14:10Z</time>
      </trkpt>
      <trkpt lat="44.34967" lon="6.20449">
        <ele>969.6269531</ele>
        <time>2016-05-03T09:14:23Z</time>
      </trkpt>
      <trkpt lat="44.34964" lon="6.20451">
        <ele>969.6269531</ele>
        <time>2016-05-03T09:14:45Z</time>
      </trkpt>
      <trkpt lat="44.34967" lon="6.20449">
        <ele>969.6269531</ele>
        <time>2016-05-03T09:15:05Z</time>
      </trkpt>
      <trkpt lat="44.34966" lon="6.20447">
        <ele>969.6269531</ele>
        <time>2016-05-03T09:16:10Z</time>
      </trkpt>
      <trkpt lat="44.34966" lon="6.20447">
        <ele>968.1848145</ele>
        <time>2016-05-03T09:17:31Z</time>
      </trkpt>
      <trkpt lat="44.34966" lon="6.20448">
        <ele>967.2236328</ele>
        <time>2016-05-03T09:19:15Z</time>
      </trkpt>
      <trkpt lat="44.34967" lon="6.20447">
        <ele>965.3010254</ele>
        <time>2016-05-03T09:22:17Z</time>
      </trkpt>
      <trkpt lat="44.34975" lon="6.20444">
        <ele>965.3010254</ele>
        <time>2016-05-03T09:22:23Z</time>
      </trkpt>
      <trkpt lat="44.3498" lon="6.20449">
        <ele>965.3010254</ele>
        <time>2016-05-03T09:22:27Z</time>
      </trkpt>
      <trkpt lat="44.34998" lon="6.20472">
        <ele>967.2236328</ele>
        <time>2016-05-03T09:22:43Z</time>
      </trkpt>
      <trkpt lat="44.35001" lon="6.20476">
        <ele>967.2236328</ele>
        <time>2016-05-03T09:22:46Z</time>
      </trkpt>
      <trkpt lat="44.35003" lon="6.20482">
        <ele>967.7041016</ele>
        <time>2016-05-03T09:22:50Z</time>
      </trkpt>
      <trkpt lat="44.35009" lon="6.20489">
        <ele>968.1848145</ele>
        <time>2016-05-03T09:22:55Z</time>
      </trkpt>
      <trkpt lat="44.35021" lon="6.205">
        <ele>969.1462402</ele>
        <time>2016-05-03T09:23:08Z</time>
      </trkpt>
      <trkpt lat="44.35032" lon="6.20505">
        <ele>969.6269531</ele>
        <time>2016-05-03T09:23:19Z</time>
      </trkpt>
      <trkpt lat="44.35056" lon="6.20507">
        <ele>970.1074219</ele>
        <time>2016-05-03T09:23:30Z</time>
      </trkpt>
      <trkpt lat="44.3506" lon="6.20507">
        <ele>970.1074219</ele>
        <time>2016-05-03T09:23:32Z</time>
      </trkpt>
      <trkpt lat="44.35076" lon="6.20515">
        <ele>971.5493164</ele>
        <time>2016-05-03T09:23:42Z</time>
      </trkpt>
      <trkpt lat="44.35088" lon="6.20539">
        <ele>972.5109863</ele>
        <time>2016-05-03T09:23:55Z</time>
      </trkpt>
      <trkpt lat="44.35096" lon="6.2056">
        <ele>973.9528809</ele>
        <time>2016-05-03T09:24:10Z</time>
      </trkpt>
      <trkpt lat="44.35095" lon="6.20561">
        <ele>973.4724121</ele>
        <time>2016-05-03T09:24:15Z</time>
      </trkpt>
      <trkpt lat="44.35103" lon="6.20563">
        <ele>973.9528809</ele>
        <time>2016-05-03T09:24:28Z</time>
      </trkpt>
      <trkpt lat="44.35105" lon="6.20564">
        <ele>973.4724121</ele>
        <time>2016-05-03T09:24:36Z</time>
      </trkpt>
      <trkpt lat="44.35104" lon="6.20569">
        <ele>973.9528809</ele>
        <time>2016-05-03T09:24:48Z</time>
      </trkpt>
      <trkpt lat="44.35104" lon="6.20569">
        <ele>973.9528809</ele>
        <time>2016-05-03T09:24:49Z</time>
      </trkpt>
      <trkpt lat="44.35105" lon="6.20576">
        <ele>974.4335938</ele>
        <time>2016-05-03T09:24:52Z</time>
      </trkpt>
      <trkpt lat="44.35105" lon="6.20608">
        <ele>976.3562012</ele>
        <time>2016-05-03T09:25:06Z</time>
      </trkpt>
      <trkpt lat="44.35118" lon="6.20643">
        <ele>978.2788086</ele>
        <time>2016-05-03T09:25:26Z</time>
      </trkpt>
      <trkpt lat="44.3513" lon="6.20646">
        <ele>978.7595215</ele>
        <time>2016-05-03T09:25:31Z</time>
      </trkpt>
      <trkpt lat="44.3515" lon="6.2065">
        <ele>980.201416</ele>
        <time>2016-05-03T09:25:41Z</time>
      </trkpt>
      <trkpt lat="44.35155" lon="6.20654">
        <ele>980.6821289</ele>
        <time>2016-05-03T09:25:46Z</time>
      </trkpt>
      <trkpt lat="44.35158" lon="6.20661">
        <ele>981.1628418</ele>
        <time>2016-05-03T09:25:50Z</time>
      </trkpt>
      <trkpt lat="44.3516" lon="6.20679">
        <ele>981.6433105</ele>
        <time>2016-05-03T09:25:59Z</time>
      </trkpt>
      <trkpt lat="44.35177" lon="6.20692">
        <ele>983.0852051</ele>
        <time>2016-05-03T09:26:11Z</time>
      </trkpt>
      <trkpt lat="44.35195" lon="6.20699">
        <ele>984.0466309</ele>
        <time>2016-05-03T09:26:22Z</time>
      </trkpt>
      <trkpt lat="44.35198" lon="6.20705">
        <ele>985.0080566</ele>
        <time>2016-05-03T09:26:27Z</time>
      </trkpt>
      <trkpt lat="44.35214" lon="6.20721">
        <ele>985.0080566</ele>
        <time>2016-05-03T09:26:37Z</time>
      </trkpt>
      <trkpt lat="44.35224" lon="6.20741">
        <ele>985.9692383</ele>
        <time>2016-05-03T09:26:47Z</time>
      </trkpt>
      <trkpt lat="44.35228" lon="6.20755">
        <ele>986.9304199</ele>
        <time>2016-05-03T09:26:54Z</time>
      </trkpt>
      <trkpt lat="44.35247" lon="6.20796">
        <ele>988.3728027</ele>
        <time>2016-05-03T09:27:14Z</time>
      </trkpt>
      <trkpt lat="44.35252" lon="6.20805">
        <ele>989.3339844</ele>
        <time>2016-05-03T09:27:19Z</time>
      </trkpt>
      <trkpt lat="44.35272" lon="6.20814">
        <ele>990.2954102</ele>
        <time>2016-05-03T09:27:30Z</time>
      </trkpt>
      <trkpt lat="44.35305" lon="6.20813">
        <ele>992.6987305</ele>
        <time>2016-05-03T09:27:49Z</time>
      </trkpt>
      <trkpt lat="44.3533" lon="6.20819">
        <ele>994.140625</ele>
        <time>2016-05-03T09:28:05Z</time>
      </trkpt>
      <trkpt lat="44.35332" lon="6.20822">
        <ele>994.6210938</ele>
        <time>2016-05-03T09:28:07Z</time>
      </trkpt>
      <trkpt lat="44.35333" lon="6.20827">
        <ele>994.6210938</ele>
        <time>2016-05-03T09:28:10Z</time>
      </trkpt>
      <trkpt lat="44.35339" lon="6.20842">
        <ele>995.5825195</ele>
        <time>2016-05-03T09:28:17Z</time>
      </trkpt>
      <trkpt lat="44.35341" lon="6.20857">
        <ele>996.5439453</ele>
        <time>2016-05-03T09:28:28Z</time>
      </trkpt>
      <trkpt lat="44.35349" lon="6.20864">
        <ele>997.0244141</ele>
        <time>2016-05-03T09:28:33Z</time>
      </trkpt>
      <trkpt lat="44.35353" lon="6.20864">
        <ele>997.505127</ele>
        <time>2016-05-03T09:28:35Z</time>
      </trkpt>
      <trkpt lat="44.35383" lon="6.20866">
        <ele>999.4277344</ele>
        <time>2016-05-03T09:28:54Z</time>
      </trkpt>
      <trkpt lat="44.35403" lon="6.20856">
        <ele>1001.3503418</ele>
        <time>2016-05-03T09:29:09Z</time>
      </trkpt>
      <trkpt lat="44.35414" lon="6.20849">
        <ele>1002.3115234</ele>
        <time>2016-05-03T09:29:18Z</time>
      </trkpt>
      <trkpt lat="44.35417" lon="6.20848">
        <ele>1002.3115234</ele>
        <time>2016-05-03T09:29:20Z</time>
      </trkpt>
      <trkpt lat="44.35435" lon="6.20862">
        <ele>1003.7536621</ele>
        <time>2016-05-03T09:29:34Z</time>
      </trkpt>
      <trkpt lat="44.35438" lon="6.20867">
        <ele>1003.7536621</ele>
        <time>2016-05-03T09:29:37Z</time>
      </trkpt>
      <trkpt lat="44.35454" lon="6.20884">
        <ele>1005.1958008</ele>
        <time>2016-05-03T09:29:52Z</time>
      </trkpt>
      <trkpt lat="44.3548" lon="6.20887">
        <ele>1006.6376953</ele>
        <time>2016-05-03T09:30:04Z</time>
      </trkpt>
      <trkpt lat="44.35504" lon="6.20889">
        <ele>1008.079834</ele>
        <time>2016-05-03T09:30:18Z</time>
      </trkpt>
      <trkpt lat="44.35521" lon="6.20893">
        <ele>1010.0021973</ele>
        <time>2016-05-03T09:30:29Z</time>
      </trkpt>
      <trkpt lat="44.35525" lon="6.20917">
        <ele>1012.4055176</ele>
        <time>2016-05-03T09:30:44Z</time>
      </trkpt>
      <trkpt lat="44.35534" lon="6.20939">
        <ele>1014.328125</ele>
        <time>2016-05-03T09:30:56Z</time>
      </trkpt>
      <trkpt lat="44.35529" lon="6.2095">
        <ele>1014.8088379</ele>
        <time>2016-05-03T09:31:00Z</time>
      </trkpt>
      <trkpt lat="44.35524" lon="6.20961">
        <ele>1015.2895508</ele>
        <time>2016-05-03T09:31:04Z</time>
      </trkpt>
      <trkpt lat="44.35533" lon="6.20975">
        <ele>1017.2121582</ele>
        <time>2016-05-03T09:31:15Z</time>
      </trkpt>
      <trkpt lat="44.35536" lon="6.20978">
        <ele>1017.692627</ele>
        <time>2016-05-03T09:31:17Z</time>
      </trkpt>
      <trkpt lat="44.35539" lon="6.20982">
        <ele>1017.692627</ele>
        <time>2016-05-03T09:31:20Z</time>
      </trkpt>
      <trkpt lat="44.35544" lon="6.20989">
        <ele>1018.6540527</ele>
        <time>2016-05-03T09:31:26Z</time>
      </trkpt>
      <trkpt lat="44.35562" lon="6.20992">
        <ele>1020.0961914</ele>
        <time>2016-05-03T09:31:37Z</time>
      </trkpt>
      <trkpt lat="44.35576" lon="6.20985">
        <ele>1022.4995117</ele>
        <time>2016-05-03T09:31:55Z</time>
      </trkpt>
      <trkpt lat="44.35594" lon="6.2097">
        <ele>1026.3447266</ele>
        <time>2016-05-03T09:32:11Z</time>
      </trkpt>
      <trkpt lat="44.3561" lon="6.20966">
        <ele>1027.7866211</ele>
        <time>2016-05-03T09:32:23Z</time>
      </trkpt>
      <trkpt lat="44.35614" lon="6.20965">
        <ele>1028.267334</ele>
        <time>2016-05-03T09:32:26Z</time>
      </trkpt>
      <trkpt lat="44.35621" lon="6.2096">
        <ele>1029.2285156</ele>
        <time>2016-05-03T09:32:32Z</time>
      </trkpt>
      <trkpt lat="44.35628" lon="6.20955">
        <ele>1030.1899414</ele>
        <time>2016-05-03T09:32:38Z</time>
      </trkpt>
      <trkpt lat="44.35639" lon="6.20952">
        <ele>1031.6318359</ele>
        <time>2016-05-03T09:32:47Z</time>
      </trkpt>
      <trkpt lat="44.35647" lon="6.20946">
        <ele>1032.1125488</ele>
        <time>2016-05-03T09:32:52Z</time>
      </trkpt>
      <trkpt lat="44.35672" lon="6.20941">
        <ele>1033.5544434</ele>
        <time>2016-05-03T09:33:09Z</time>
      </trkpt>
      <trkpt lat="44.35675" lon="6.2094">
        <ele>1034.0351563</ele>
        <time>2016-05-03T09:33:11Z</time>
      </trkpt>
      <trkpt lat="44.35677" lon="6.20944">
        <ele>1034.996582</ele>
        <time>2016-05-03T09:33:16Z</time>
      </trkpt>
      <trkpt lat="44.35682" lon="6.20953">
        <ele>1034.996582</ele>
        <time>2016-05-03T09:33:21Z</time>
      </trkpt>
      <trkpt lat="44.35685" lon="6.20967">
        <ele>1035.4770508</ele>
        <time>2016-05-03T09:33:27Z</time>
      </trkpt>
      <trkpt lat="44.35687" lon="6.20972">
        <ele>1035.4770508</ele>
        <time>2016-05-03T09:33:30Z</time>
      </trkpt>
      <trkpt lat="44.35687" lon="6.20981">
        <ele>1035.9577637</ele>
        <time>2016-05-03T09:33:34Z</time>
      </trkpt>
      <trkpt lat="44.35686" lon="6.20985">
        <ele>1036.4387207</ele>
        <time>2016-05-03T09:33:36Z</time>
      </trkpt>
      <trkpt lat="44.35696" lon="6.21006">
        <ele>1035.9577637</ele>
        <time>2016-05-03T09:33:47Z</time>
      </trkpt>
      <trkpt lat="44.35722" lon="6.21032">
        <ele>1037.8806152</ele>
        <time>2016-05-03T09:34:06Z</time>
      </trkpt>
      <trkpt lat="44.35745" lon="6.21036">
        <ele>1040.2839355</ele>
        <time>2016-05-03T09:34:21Z</time>
      </trkpt>
      <trkpt lat="44.35747" lon="6.21037">
        <ele>1041.2451172</ele>
        <time>2016-05-03T09:34:24Z</time>
      </trkpt>
      <trkpt lat="44.35755" lon="6.21062">
        <ele>1044.6096191</ele>
        <time>2016-05-03T09:34:40Z</time>
      </trkpt>
      <trkpt lat="44.35754" lon="6.21091">
        <ele>1046.0517578</ele>
        <time>2016-05-03T09:34:58Z</time>
      </trkpt>
      <trkpt lat="44.35753" lon="6.21094">
        <ele>1046.0517578</ele>
        <time>2016-05-03T09:35:00Z</time>
      </trkpt>
      <trkpt lat="44.35754" lon="6.21106">
        <ele>1046.5324707</ele>
        <time>2016-05-03T09:35:08Z</time>
      </trkpt>
      <trkpt lat="44.35747" lon="6.21142">
        <ele>1047.4936523</ele>
        <time>2016-05-03T09:35:21Z</time>
      </trkpt>
      <trkpt lat="44.35774" lon="6.21162">
        <ele>1048.454834</ele>
        <time>2016-05-03T09:35:38Z</time>
      </trkpt>
      <trkpt lat="44.35778" lon="6.21169">
        <ele>1049.4162598</ele>
        <time>2016-05-03T09:35:45Z</time>
      </trkpt>
      <trkpt lat="44.35797" lon="6.21175">
        <ele>1049.4162598</ele>
        <time>2016-05-03T09:35:53Z</time>
      </trkpt>
      <trkpt lat="44.3581" lon="6.21192">
        <ele>1050.3776855</ele>
        <time>2016-05-03T09:36:04Z</time>
      </trkpt>
      <trkpt lat="44.35842" lon="6.21203">
        <ele>1051.3388672</ele>
        <time>2016-05-03T09:36:19Z</time>
      </trkpt>
      <trkpt lat="44.35857" lon="6.21216">
        <ele>1052.7810059</ele>
        <time>2016-05-03T09:36:32Z</time>
      </trkpt>
      <trkpt lat="44.35879" lon="6.21226">
        <ele>1053.2617188</ele>
        <time>2016-05-03T09:36:46Z</time>
      </trkpt>
      <trkpt lat="44.35905" lon="6.21239">
        <ele>1054.7036133</ele>
        <time>2016-05-03T09:37:03Z</time>
      </trkpt>
      <trkpt lat="44.35914" lon="6.21244">
        <ele>1055.1843262</ele>
        <time>2016-05-03T09:37:10Z</time>
      </trkpt>
      <trkpt lat="44.35917" lon="6.2125">
        <ele>1055.6650391</ele>
        <time>2016-05-03T09:37:16Z</time>
      </trkpt>
      <trkpt lat="44.35926" lon="6.21257">
        <ele>1056.6262207</ele>
        <time>2016-05-03T09:37:21Z</time>
      </trkpt>
      <trkpt lat="44.35929" lon="6.21262">
        <ele>1056.6262207</ele>
        <time>2016-05-03T09:37:24Z</time>
      </trkpt>
      <trkpt lat="44.35953" lon="6.21281">
        <ele>1058.0683594</ele>
        <time>2016-05-03T09:37:40Z</time>
      </trkpt>
      <trkpt lat="44.35982" lon="6.2129">
        <ele>1059.029541</ele>
        <time>2016-05-03T09:37:54Z</time>
      </trkpt>
      <trkpt lat="44.36003" lon="6.21292">
        <ele>1059.9907227</ele>
        <time>2016-05-03T09:38:07Z</time>
      </trkpt>
      <trkpt lat="44.36024" lon="6.21292">
        <ele>1060.9521484</ele>
        <time>2016-05-03T09:38:18Z</time>
      </trkpt>
      <trkpt lat="44.36051" lon="6.21293">
        <ele>1061.9135742</ele>
        <time>2016-05-03T09:38:33Z</time>
      </trkpt>
      <trkpt lat="44.3607" lon="6.21296">
        <ele>1062.394043</ele>
        <time>2016-05-03T09:38:44Z</time>
      </trkpt>
      <trkpt lat="44.36083" lon="6.21297">
        <ele>1063.8359375</ele>
        <time>2016-05-03T09:38:52Z</time>
      </trkpt>
      <trkpt lat="44.36105" lon="6.21298">
        <ele>1064.7973633</ele>
        <time>2016-05-03T09:39:06Z</time>
      </trkpt>
      <trkpt lat="44.36118" lon="6.21309">
        <ele>1065.2780762</ele>
        <time>2016-05-03T09:39:16Z</time>
      </trkpt>
      <trkpt lat="44.36138" lon="6.21329">
        <ele>1066.7199707</ele>
        <time>2016-05-03T09:39:31Z</time>
      </trkpt>
      <trkpt lat="44.36152" lon="6.21332">
        <ele>1067.6811523</ele>
        <time>2016-05-03T09:39:41Z</time>
      </trkpt>
      <trkpt lat="44.36169" lon="6.21349">
        <ele>1070.0847168</ele>
        <time>2016-05-03T09:39:57Z</time>
      </trkpt>
      <trkpt lat="44.36176" lon="6.21358">
        <ele>1070.5654297</ele>
        <time>2016-05-03T09:40:05Z</time>
      </trkpt>
      <trkpt lat="44.36195" lon="6.21375">
        <ele>1071.5266113</ele>
        <time>2016-05-03T09:40:18Z</time>
      </trkpt>
      <trkpt lat="44.36195" lon="6.2138">
        <ele>1071.5266113</ele>
        <time>2016-05-03T09:40:22Z</time>
      </trkpt>
      <trkpt lat="44.36194" lon="6.21387">
        <ele>1071.5266113</ele>
        <time>2016-05-03T09:40:25Z</time>
      </trkpt>
      <trkpt lat="44.36195" lon="6.214">
        <ele>1071.5266113</ele>
        <time>2016-05-03T09:40:32Z</time>
      </trkpt>
      <trkpt lat="44.36197" lon="6.21405">
        <ele>1071.5266113</ele>
        <time>2016-05-03T09:40:34Z</time>
      </trkpt>
      <trkpt lat="44.36193" lon="6.21438">
        <ele>1071.5266113</ele>
        <time>2016-05-03T09:40:47Z</time>
      </trkpt>
      <trkpt lat="44.36193" lon="6.21439">
        <ele>1071.5266113</ele>
        <time>2016-05-03T09:40:48Z</time>
      </trkpt>
      <trkpt lat="44.36191" lon="6.21457">
        <ele>1071.5266113</ele>
        <time>2016-05-03T09:40:55Z</time>
      </trkpt>
      <trkpt lat="44.36197" lon="6.21476">
        <ele>1072.96875</ele>
        <time>2016-05-03T09:41:08Z</time>
      </trkpt>
      <trkpt lat="44.36198" lon="6.21487">
        <ele>1073.4494629</ele>
        <time>2016-05-03T09:41:14Z</time>
      </trkpt>
      <trkpt lat="44.36196" lon="6.21511">
        <ele>1075.3718262</ele>
        <time>2016-05-03T09:41:27Z</time>
      </trkpt>
      <trkpt lat="44.36193" lon="6.21536">
        <ele>1076.333252</ele>
        <time>2016-05-03T09:41:40Z</time>
      </trkpt>
      <trkpt lat="44.36197" lon="6.21542">
        <ele>1075.8525391</ele>
        <time>2016-05-03T09:41:46Z</time>
      </trkpt>
      <trkpt lat="44.36198" lon="6.21567">
        <ele>1076.333252</ele>
        <time>2016-05-03T09:41:58Z</time>
      </trkpt>
      <trkpt lat="44.36195" lon="6.21577">
        <ele>1076.333252</ele>
        <time>2016-05-03T09:42:02Z</time>
      </trkpt>
      <trkpt lat="44.36197" lon="6.21591">
        <ele>1076.333252</ele>
        <time>2016-05-03T09:42:08Z</time>
      </trkpt>
      <trkpt lat="44.36202" lon="6.21608">
        <ele>1075.8525391</ele>
        <time>2016-05-03T09:42:17Z</time>
      </trkpt>
      <trkpt lat="44.36203" lon="6.21614">
        <ele>1076.333252</ele>
        <time>2016-05-03T09:42:20Z</time>
      </trkpt>
      <trkpt lat="44.36206" lon="6.2162">
        <ele>1076.333252</ele>
        <time>2016-05-03T09:42:24Z</time>
      </trkpt>
      <trkpt lat="44.36208" lon="6.21627">
        <ele>1076.8139648</ele>
        <time>2016-05-03T09:42:28Z</time>
      </trkpt>
      <trkpt lat="44.36208" lon="6.21635">
        <ele>1076.8139648</ele>
        <time>2016-05-03T09:42:31Z</time>
      </trkpt>
      <trkpt lat="44.36225" lon="6.2165">
        <ele>1077.2946777</ele>
        <time>2016-05-03T09:42:45Z</time>
      </trkpt>
      <trkpt lat="44.36242" lon="6.21656">
        <ele>1077.2946777</ele>
        <time>2016-05-03T09:42:57Z</time>
      </trkpt>
      <trkpt lat="44.36268" lon="6.21651">
        <ele>1077.7751465</ele>
        <time>2016-05-03T09:43:12Z</time>
      </trkpt>
      <trkpt lat="44.36287" lon="6.21652">
        <ele>1078.7365723</ele>
        <time>2016-05-03T09:43:24Z</time>
      </trkpt>
      <trkpt lat="44.36288" lon="6.21652">
        <ele>1078.7365723</ele>
        <time>2016-05-03T09:43:25Z</time>
      </trkpt>
      <trkpt lat="44.36293" lon="6.21661">
        <ele>1079.217041</ele>
        <time>2016-05-03T09:43:32Z</time>
      </trkpt>
      <trkpt lat="44.36294" lon="6.21664">
        <ele>1079.217041</ele>
        <time>2016-05-03T09:43:34Z</time>
      </trkpt>
      <trkpt lat="44.36295" lon="6.21667">
        <ele>1079.217041</ele>
        <time>2016-05-03T09:43:36Z</time>
      </trkpt>
      <trkpt lat="44.36299" lon="6.21676">
        <ele>1080.1784668</ele>
        <time>2016-05-03T09:43:43Z</time>
      </trkpt>
      <trkpt lat="44.3631" lon="6.21684">
        <ele>1080.1784668</ele>
        <time>2016-05-03T09:43:52Z</time>
      </trkpt>
      <trkpt lat="44.36331" lon="6.21683">
        <ele>1079.6977539</ele>
        <time>2016-05-03T09:44:05Z</time>
      </trkpt>
      <trkpt lat="44.36338" lon="6.21678">
        <ele>1079.6977539</ele>
        <time>2016-05-03T09:44:10Z</time>
      </trkpt>
      <trkpt lat="44.3635" lon="6.2168">
        <ele>1079.6977539</ele>
        <time>2016-05-03T09:44:25Z</time>
      </trkpt>
      <trkpt lat="44.3635" lon="6.2168">
        <ele>1079.6977539</ele>
        <time>2016-05-03T09:44:26Z</time>
      </trkpt>
      <trkpt lat="44.36361" lon="6.21685">
        <ele>1078.7365723</ele>
        <time>2016-05-03T09:44:35Z</time>
      </trkpt>
      <trkpt lat="44.36372" lon="6.21692">
        <ele>1079.6977539</ele>
        <time>2016-05-03T09:44:43Z</time>
      </trkpt>
      <trkpt lat="44.36396" lon="6.21699">
        <ele>1081.1398926</ele>
        <time>2016-05-03T09:44:59Z</time>
      </trkpt>
      <trkpt lat="44.36399" lon="6.21704">
        <ele>1081.1398926</ele>
        <time>2016-05-03T09:45:04Z</time>
      </trkpt>
      <trkpt lat="44.36406" lon="6.21712">
        <ele>1081.6203613</ele>
        <time>2016-05-03T09:45:11Z</time>
      </trkpt>
      <trkpt lat="44.36417" lon="6.21728">
        <ele>1082.1010742</ele>
        <time>2016-05-03T09:45:24Z</time>
      </trkpt>
      <trkpt lat="44.36424" lon="6.21736">
        <ele>1082.5817871</ele>
        <time>2016-05-03T09:45:32Z</time>
      </trkpt>
      <trkpt lat="44.36437" lon="6.21741">
        <ele>1082.5817871</ele>
        <time>2016-05-03T09:45:41Z</time>
      </trkpt>
      <trkpt lat="44.36463" lon="6.21742">
        <ele>1084.5046387</ele>
        <time>2016-05-03T09:46:00Z</time>
      </trkpt>
      <trkpt lat="44.36472" lon="6.21746">
        <ele>1084.0239258</ele>
        <time>2016-05-03T09:46:07Z</time>
      </trkpt>
      <trkpt lat="44.36474" lon="6.21753">
        <ele>1084.5046387</ele>
        <time>2016-05-03T09:46:12Z</time>
      </trkpt>
      <trkpt lat="44.36481" lon="6.21767">
        <ele>1084.5046387</ele>
        <time>2016-05-03T09:46:20Z</time>
      </trkpt>
      <trkpt lat="44.36487" lon="6.21776">
        <ele>1083.5429688</ele>
        <time>2016-05-03T09:46:26Z</time>
      </trkpt>
      <trkpt lat="44.36492" lon="6.21783">
        <ele>1084.0239258</ele>
        <time>2016-05-03T09:46:30Z</time>
      </trkpt>
      <trkpt lat="44.36497" lon="6.2179">
        <ele>1083.5429688</ele>
        <time>2016-05-03T09:46:35Z</time>
      </trkpt>
      <trkpt lat="44.36497" lon="6.21792">
        <ele>1083.5429688</ele>
        <time>2016-05-03T09:46:37Z</time>
      </trkpt>
      <trkpt lat="44.36502" lon="6.21803">
        <ele>1084.0239258</ele>
        <time>2016-05-03T09:46:46Z</time>
      </trkpt>
      <trkpt lat="44.36518" lon="6.21811">
        <ele>1083.5429688</ele>
        <time>2016-05-03T09:46:57Z</time>
      </trkpt>
      <trkpt lat="44.36532" lon="6.21813">
        <ele>1083.5429688</ele>
        <time>2016-05-03T09:47:06Z</time>
      </trkpt>
      <trkpt lat="44.36539" lon="6.21813">
        <ele>1084.0239258</ele>
        <time>2016-05-03T09:47:10Z</time>
      </trkpt>
      <trkpt lat="44.36548" lon="6.21815">
        <ele>1084.0239258</ele>
        <time>2016-05-03T09:47:16Z</time>
      </trkpt>
      <trkpt lat="44.36554" lon="6.21815">
        <ele>1084.5046387</ele>
        <time>2016-05-03T09:47:20Z</time>
      </trkpt>
      <trkpt lat="44.36563" lon="6.21816">
        <ele>1084.5046387</ele>
        <time>2016-05-03T09:47:27Z</time>
      </trkpt>
      <trkpt lat="44.36567" lon="6.21816">
        <ele>1084.5046387</ele>
        <time>2016-05-03T09:47:30Z</time>
      </trkpt>
      <trkpt lat="44.36575" lon="6.21817">
        <ele>1084.5046387</ele>
        <time>2016-05-03T09:47:35Z</time>
      </trkpt>
      <trkpt lat="44.36598" lon="6.2181">
        <ele>1086.4272461</ele>
        <time>2016-05-03T09:47:54Z</time>
      </trkpt>
      <trkpt lat="44.36612" lon="6.21808">
        <ele>1086.9077148</ele>
        <time>2016-05-03T09:48:04Z</time>
      </trkpt>
      <trkpt lat="44.36617" lon="6.21809">
        <ele>1087.3884277</ele>
        <time>2016-05-03T09:48:08Z</time>
      </trkpt>
      <trkpt lat="44.36636" lon="6.21812">
        <ele>1087.3884277</ele>
        <time>2016-05-03T09:48:22Z</time>
      </trkpt>
      <trkpt lat="44.3664" lon="6.21813">
        <ele>1087.8691406</ele>
        <time>2016-05-03T09:48:26Z</time>
      </trkpt>
      <trkpt lat="44.36643" lon="6.21813">
        <ele>1087.8691406</ele>
        <time>2016-05-03T09:48:28Z</time>
      </trkpt>
      <trkpt lat="44.36652" lon="6.2181">
        <ele>1087.8691406</ele>
        <time>2016-05-03T09:48:34Z</time>
      </trkpt>
      <trkpt lat="44.36664" lon="6.21809">
        <ele>1087.8691406</ele>
        <time>2016-05-03T09:48:43Z</time>
      </trkpt>
      <trkpt lat="44.36674" lon="6.21807">
        <ele>1087.8691406</ele>
        <time>2016-05-03T09:48:50Z</time>
      </trkpt>
      <trkpt lat="44.36682" lon="6.2181">
        <ele>1088.8305664</ele>
        <time>2016-05-03T09:48:55Z</time>
      </trkpt>
      <trkpt lat="44.36695" lon="6.21823">
        <ele>1088.8305664</ele>
        <time>2016-05-03T09:49:09Z</time>
      </trkpt>
      <trkpt lat="44.36707" lon="6.21837">
        <ele>1089.3110352</ele>
        <time>2016-05-03T09:49:22Z</time>
      </trkpt>
      <trkpt lat="44.36708" lon="6.21839">
        <ele>1089.791748</ele>
        <time>2016-05-03T09:49:24Z</time>
      </trkpt>
      <trkpt lat="44.36713" lon="6.21848">
        <ele>1090.7529297</ele>
        <time>2016-05-03T09:49:33Z</time>
      </trkpt>
      <trkpt lat="44.36716" lon="6.21854">
        <ele>1090.7529297</ele>
        <time>2016-05-03T09:49:38Z</time>
      </trkpt>
      <trkpt lat="44.36718" lon="6.21858">
        <ele>1090.7529297</ele>
        <time>2016-05-03T09:49:41Z</time>
      </trkpt>
      <trkpt lat="44.36728" lon="6.2187">
        <ele>1091.2336426</ele>
        <time>2016-05-03T09:49:52Z</time>
      </trkpt>
      <trkpt lat="44.36734" lon="6.21893">
        <ele>1092.1950684</ele>
        <time>2016-05-03T09:50:07Z</time>
      </trkpt>
      <trkpt lat="44.36733" lon="6.21899">
        <ele>1092.1950684</ele>
        <time>2016-05-03T09:50:11Z</time>
      </trkpt>
      <trkpt lat="44.36737" lon="6.21901">
        <ele>1092.1950684</ele>
        <time>2016-05-03T09:50:13Z</time>
      </trkpt>
      <trkpt lat="44.36739" lon="6.21906">
        <ele>1092.6757813</ele>
        <time>2016-05-03T09:50:17Z</time>
      </trkpt>
      <trkpt lat="44.36746" lon="6.21913">
        <ele>1093.15625</ele>
        <time>2016-05-03T09:50:26Z</time>
      </trkpt>
      <trkpt lat="44.36747" lon="6.21917">
        <ele>1093.15625</ele>
        <time>2016-05-03T09:50:29Z</time>
      </trkpt>
      <trkpt lat="44.36751" lon="6.21927">
        <ele>1093.6369629</ele>
        <time>2016-05-03T09:50:37Z</time>
      </trkpt>
      <trkpt lat="44.36756" lon="6.21935">
        <ele>1093.6369629</ele>
        <time>2016-05-03T09:50:45Z</time>
      </trkpt>
      <trkpt lat="44.36757" lon="6.21939">
        <ele>1093.6369629</ele>
        <time>2016-05-03T09:50:48Z</time>
      </trkpt>
      <trkpt lat="44.36759" lon="6.21945">
        <ele>1093.6369629</ele>
        <time>2016-05-03T09:50:52Z</time>
      </trkpt>
      <trkpt lat="44.36766" lon="6.21969">
        <ele>1093.6369629</ele>
        <time>2016-05-03T09:51:09Z</time>
      </trkpt>
      <trkpt lat="44.36768" lon="6.21991">
        <ele>1094.1176758</ele>
        <time>2016-05-03T09:51:24Z</time>
      </trkpt>
      <trkpt lat="44.36767" lon="6.21996">
        <ele>1094.1176758</ele>
        <time>2016-05-03T09:51:27Z</time>
      </trkpt>
      <trkpt lat="44.36768" lon="6.2201">
        <ele>1094.5981445</ele>
        <time>2016-05-03T09:51:36Z</time>
      </trkpt>
      <trkpt lat="44.36772" lon="6.22015">
        <ele>1094.5981445</ele>
        <time>2016-05-03T09:51:40Z</time>
      </trkpt>
      <trkpt lat="44.36775" lon="6.22042">
        <ele>1095.0788574</ele>
        <time>2016-05-03T09:51:57Z</time>
      </trkpt>
      <trkpt lat="44.36782" lon="6.22056">
        <ele>1095.5595703</ele>
        <time>2016-05-03T09:52:06Z</time>
      </trkpt>
      <trkpt lat="44.36786" lon="6.22062">
        <ele>1095.0788574</ele>
        <time>2016-05-03T09:52:11Z</time>
      </trkpt>
      <trkpt lat="44.36789" lon="6.22068">
        <ele>1095.0788574</ele>
        <time>2016-05-03T09:52:15Z</time>
      </trkpt>
      <trkpt lat="44.36791" lon="6.22072">
        <ele>1095.0788574</ele>
        <time>2016-05-03T09:52:18Z</time>
      </trkpt>
      <trkpt lat="44.36791" lon="6.22082">
        <ele>1094.5981445</ele>
        <time>2016-05-03T09:52:23Z</time>
      </trkpt>
      <trkpt lat="44.36797" lon="6.22094">
        <ele>1094.5981445</ele>
        <time>2016-05-03T09:52:35Z</time>
      </trkpt>
      <trkpt lat="44.36789" lon="6.2213">
        <ele>1094.5981445</ele>
        <time>2016-05-03T09:52:58Z</time>
      </trkpt>
      <trkpt lat="44.3678" lon="6.22175">
        <ele>1096.0402832</ele>
        <time>2016-05-03T09:53:23Z</time>
      </trkpt>
      <trkpt lat="44.36777" lon="6.22214">
        <ele>1096.5209961</ele>
        <time>2016-05-03T09:53:48Z</time>
      </trkpt>
      <trkpt lat="44.36779" lon="6.22257">
        <ele>1096.5209961</ele>
        <time>2016-05-03T09:54:13Z</time>
      </trkpt>
      <trkpt lat="44.3678" lon="6.22262">
        <ele>1096.5209961</ele>
        <time>2016-05-03T09:54:15Z</time>
      </trkpt>
      <trkpt lat="44.36785" lon="6.22271">
        <ele>1095.0788574</ele>
        <time>2016-05-03T09:54:29Z</time>
      </trkpt>
      <trkpt lat="44.36803" lon="6.22292">
        <ele>1094.1176758</ele>
        <time>2016-05-03T09:54:52Z</time>
      </trkpt>
      <trkpt lat="44.3682" lon="6.22302">
        <ele>1094.1176758</ele>
        <time>2016-05-03T09:55:11Z</time>
      </trkpt>
      <trkpt lat="44.36829" lon="6.22309">
        <ele>1093.6369629</ele>
        <time>2016-05-03T09:55:21Z</time>
      </trkpt>
      <trkpt lat="44.36847" lon="6.22332">
        <ele>1093.6369629</ele>
        <time>2016-05-03T09:55:43Z</time>
      </trkpt>
      <trkpt lat="44.36853" lon="6.22349">
        <ele>1093.15625</ele>
        <time>2016-05-03T09:55:58Z</time>
      </trkpt>
      <trkpt lat="44.36872" lon="6.22376">
        <ele>1092.1950684</ele>
        <time>2016-05-03T09:56:22Z</time>
      </trkpt>
      <trkpt lat="44.36884" lon="6.22399">
        <ele>1093.15625</ele>
        <time>2016-05-03T09:56:43Z</time>
      </trkpt>
      <trkpt lat="44.36891" lon="6.22429">
        <ele>1092.1950684</ele>
        <time>2016-05-03T09:57:05Z</time>
      </trkpt>
      <trkpt lat="44.36891" lon="6.22463">
        <ele>1091.7143555</ele>
        <time>2016-05-03T09:57:31Z</time>
      </trkpt>
      <trkpt lat="44.36891" lon="6.22465">
        <ele>1092.1950684</ele>
        <time>2016-05-03T09:57:32Z</time>
      </trkpt>
      <trkpt lat="44.36894" lon="6.22472">
        <ele>1092.1950684</ele>
        <time>2016-05-03T09:57:41Z</time>
      </trkpt>
      <trkpt lat="44.36898" lon="6.22448">
        <ele>1092.1950684</ele>
        <time>2016-05-03T09:58:02Z</time>
      </trkpt>
      <trkpt lat="44.36897" lon="6.22438">
        <ele>1092.1950684</ele>
        <time>2016-05-03T09:58:17Z</time>
      </trkpt>
      <trkpt lat="44.3689" lon="6.2243">
        <ele>1092.6757813</ele>
        <time>2016-05-03T09:58:37Z</time>
      </trkpt>
      <trkpt lat="44.36897" lon="6.22431">
        <ele>1092.1950684</ele>
        <time>2016-05-03T09:59:15Z</time>
      </trkpt>
      <trkpt lat="44.36973" lon="6.22501">
        <ele>1090.2724609</ele>
        <time>2016-05-03T09:59:46Z</time>
      </trkpt>
      <trkpt lat="44.36992" lon="6.22469">
        <ele>1091.7143555</ele>
        <time>2016-05-03T10:00:03Z</time>
      </trkpt>
      <trkpt lat="44.37" lon="6.22442">
        <ele>1094.5981445</ele>
        <time>2016-05-03T10:00:33Z</time>
      </trkpt>
      <trkpt lat="44.37073" lon="6.22486">
        <ele>1097.0014648</ele>
        <time>2016-05-03T10:00:55Z</time>
      </trkpt>
      <trkpt lat="44.371" lon="6.22476">
        <ele>1097.4821777</ele>
        <time>2016-05-03T10:01:15Z</time>
      </trkpt>
      <trkpt lat="44.37105" lon="6.22462">
        <ele>1097.9628906</ele>
        <time>2016-05-03T10:01:32Z</time>
      </trkpt>
      <trkpt lat="44.37097" lon="6.22466">
        <ele>1097.4821777</ele>
        <time>2016-05-03T10:01:47Z</time>
      </trkpt>
      <trkpt lat="44.3703" lon="6.22384">
        <ele>1097.9628906</ele>
        <time>2016-05-03T10:02:13Z</time>
      </trkpt>
      <trkpt lat="44.37015" lon="6.22387">
        <ele>1097.9628906</ele>
        <time>2016-05-03T10:02:49Z</time>
      </trkpt>
      <trkpt lat="44.37008" lon="6.22385">
        <ele>1098.9240723</ele>
        <time>2016-05-03T10:03:26Z</time>
      </trkpt>
      <trkpt lat="44.37002" lon="6.22384">
        <ele>1098.4433594</ele>
        <time>2016-05-03T10:03:48Z</time>
      </trkpt>
      <trkpt lat="44.37003" lon="6.22385">
        <ele>1099.885498</ele>
        <time>2016-05-03T10:04:35Z</time>
      </trkpt>
      <trkpt lat="44.37002" lon="6.22386">
        <ele>1099.885498</ele>
        <time>2016-05-03T10:05:07Z</time>
      </trkpt>
      <trkpt lat="44.37" lon="6.22387">
        <ele>1100.8469238</ele>
        <time>2016-05-03T10:05:52Z</time>
      </trkpt>
      <trkpt lat="44.37" lon="6.22387">
        <ele>1103.730957</ele>
        <time>2016-05-03T10:07:15Z</time>
      </trkpt>
      <trkpt lat="44.37" lon="6.22386">
        <ele>1105.1728516</ele>
        <time>2016-05-03T10:08:48Z</time>
      </trkpt>
      <trkpt lat="44.37" lon="6.22386">
        <ele>1106.6147461</ele>
        <time>2016-05-03T10:09:27Z</time>
      </trkpt>
      <trkpt lat="44.36999" lon="6.22386">
        <ele>1107.095459</ele>
        <time>2016-05-03T10:10:58Z</time>
      </trkpt>
      <trkpt lat="44.36999" lon="6.22386">
        <ele>1108.5373535</ele>
        <time>2016-05-03T10:12:31Z</time>
      </trkpt>
      <trkpt lat="44.36999" lon="6.22384">
        <ele>1109.979248</ele>
        <time>2016-05-03T10:13:30Z</time>
      </trkpt>
      <trkpt lat="44.36996" lon="6.22381">
        <ele>1110.4599609</ele>
        <time>2016-05-03T10:13:44Z</time>
      </trkpt>
      <trkpt lat="44.37006" lon="6.2238">
        <ele>1111.4213867</ele>
        <time>2016-05-03T10:14:07Z</time>
      </trkpt>
      <trkpt lat="44.37011" lon="6.22381">
        <ele>1112.3825684</ele>
        <time>2016-05-03T10:14:11Z</time>
      </trkpt>
      <trkpt lat="44.37014" lon="6.22381">
        <ele>1113.3439941</ele>
        <time>2016-05-03T10:14:15Z</time>
      </trkpt>
      <trkpt lat="44.37026" lon="6.22391">
        <ele>1115.7473145</ele>
        <time>2016-05-03T10:14:33Z</time>
      </trkpt>
      <trkpt lat="44.37028" lon="6.22412">
        <ele>1117.1894531</ele>
        <time>2016-05-03T10:14:48Z</time>
      </trkpt>
      <trkpt lat="44.37034" lon="6.2244">
        <ele>1119.5927734</ele>
        <time>2016-05-03T10:15:12Z</time>
      </trkpt>
      <trkpt lat="44.37048" lon="6.22453">
        <ele>1122.4765625</ele>
        <time>2016-05-03T10:15:36Z</time>
      </trkpt>
      <trkpt lat="44.37052" lon="6.22455">
        <ele>1123.4379883</ele>
        <time>2016-05-03T10:15:41Z</time>
      </trkpt>
      <trkpt lat="44.37061" lon="6.22458">
        <ele>1124.8798828</ele>
        <time>2016-05-03T10:15:53Z</time>
      </trkpt>
      <trkpt lat="44.37075" lon="6.22452">
        <ele>1127.2832031</ele>
        <time>2016-05-03T10:16:10Z</time>
      </trkpt>
      <trkpt lat="44.37088" lon="6.22441">
        <ele>1130.1669922</ele>
        <time>2016-05-03T10:16:29Z</time>
      </trkpt>
      <trkpt lat="44.37104" lon="6.22437">
        <ele>1132.5705566</ele>
        <time>2016-05-03T10:16:47Z</time>
      </trkpt>
      <trkpt lat="44.37116" lon="6.22433">
        <ele>1135.4543457</ele>
        <time>2016-05-03T10:17:04Z</time>
      </trkpt>
      <trkpt lat="44.37131" lon="6.22431">
        <ele>1137.3769531</ele>
        <time>2016-05-03T10:17:23Z</time>
      </trkpt>
      <trkpt lat="44.37129" lon="6.2243">
        <ele>1138.8190918</ele>
        <time>2016-05-03T10:17:38Z</time>
      </trkpt>
      <trkpt lat="44.3713" lon="6.22428">
        <ele>1139.7802734</ele>
        <time>2016-05-03T10:17:57Z</time>
      </trkpt>
      <trkpt lat="44.37155" lon="6.22416">
        <ele>1142.1835938</ele>
        <time>2016-05-03T10:18:16Z</time>
      </trkpt>
      <trkpt lat="44.37167" lon="6.22403">
        <ele>1145.5480957</ele>
        <time>2016-05-03T10:18:35Z</time>
      </trkpt>
      <trkpt lat="44.37182" lon="6.22392">
        <ele>1147.951416</ele>
        <time>2016-05-03T10:18:52Z</time>
      </trkpt>
      <trkpt lat="44.37193" lon="6.22383">
        <ele>1150.8354492</ele>
        <time>2016-05-03T10:19:09Z</time>
      </trkpt>
      <trkpt lat="44.37197" lon="6.22376">
        <ele>1152.7580566</ele>
        <time>2016-05-03T10:19:17Z</time>
      </trkpt>
      <trkpt lat="44.37204" lon="6.22371">
        <ele>1153.7194824</ele>
        <time>2016-05-03T10:19:26Z</time>
      </trkpt>
      <trkpt lat="44.37214" lon="6.22371">
        <ele>1155.6420898</ele>
        <time>2016-05-03T10:19:41Z</time>
      </trkpt>
      <trkpt lat="44.37228" lon="6.22359">
        <ele>1158.5258789</ele>
        <time>2016-05-03T10:20:00Z</time>
      </trkpt>
      <trkpt lat="44.37241" lon="6.2234">
        <ele>1161.4099121</ele>
        <time>2016-05-03T10:20:19Z</time>
      </trkpt>
      <trkpt lat="44.3725" lon="6.22327">
        <ele>1164.2939453</ele>
        <time>2016-05-03T10:20:40Z</time>
      </trkpt>
      <trkpt lat="44.37247" lon="6.22317">
        <ele>1166.2165527</ele>
        <time>2016-05-03T10:20:53Z</time>
      </trkpt>
      <trkpt lat="44.37245" lon="6.22302">
        <ele>1168.1391602</ele>
        <time>2016-05-03T10:21:05Z</time>
      </trkpt>
      <trkpt lat="44.37233" lon="6.22288">
        <ele>1170.0617676</ele>
        <time>2016-05-03T10:21:16Z</time>
      </trkpt>
      <trkpt lat="44.37235" lon="6.22277">
        <ele>1171.0231934</ele>
        <time>2016-05-03T10:21:25Z</time>
      </trkpt>
      <trkpt lat="44.37222" lon="6.22271">
        <ele>1171.5036621</ele>
        <time>2016-05-03T10:21:29Z</time>
      </trkpt>
      <trkpt lat="44.37213" lon="6.22273">
        <ele>1173.4265137</ele>
        <time>2016-05-03T10:21:36Z</time>
      </trkpt>
      <trkpt lat="44.37206" lon="6.22282">
        <ele>1174.8684082</ele>
        <time>2016-05-03T10:21:45Z</time>
      </trkpt>
      <trkpt lat="44.37187" lon="6.22293">
        <ele>1177.2717285</ele>
        <time>2016-05-03T10:22:08Z</time>
      </trkpt>
      <trkpt lat="44.37182" lon="6.22295">
        <ele>1178.2329102</ele>
        <time>2016-05-03T10:22:13Z</time>
      </trkpt>
      <trkpt lat="44.37177" lon="6.22303">
        <ele>1179.6748047</ele>
        <time>2016-05-03T10:22:20Z</time>
      </trkpt>
      <trkpt lat="44.37158" lon="6.22307">
        <ele>1182.559082</ele>
        <time>2016-05-03T10:22:42Z</time>
      </trkpt>
      <trkpt lat="44.37154" lon="6.22305">
        <ele>1183.0395508</ele>
        <time>2016-05-03T10:22:46Z</time>
      </trkpt>
      <trkpt lat="44.37145" lon="6.22304">
        <ele>1184.0009766</ele>
        <time>2016-05-03T10:22:56Z</time>
      </trkpt>
      <trkpt lat="44.37128" lon="6.22313">
        <ele>1186.8847656</ele>
        <time>2016-05-03T10:23:14Z</time>
      </trkpt>
      <trkpt lat="44.37115" lon="6.22317">
        <ele>1187.8461914</ele>
        <time>2016-05-03T10:23:27Z</time>
      </trkpt>
      <trkpt lat="44.37107" lon="6.22322">
        <ele>1189.2880859</ele>
        <time>2016-05-03T10:23:36Z</time>
      </trkpt>
      <trkpt lat="44.37085" lon="6.22332">
        <ele>1192.1721191</ele>
        <time>2016-05-03T10:23:58Z</time>
      </trkpt>
      <trkpt lat="44.37079" lon="6.22332">
        <ele>1192.1721191</ele>
        <time>2016-05-03T10:24:03Z</time>
      </trkpt>
      <trkpt lat="44.37065" lon="6.22344">
        <ele>1196.0175781</ele>
        <time>2016-05-03T10:24:21Z</time>
      </trkpt>
      <trkpt lat="44.37061" lon="6.22347">
        <ele>1196.498291</ele>
        <time>2016-05-03T10:24:26Z</time>
      </trkpt>
      <trkpt lat="44.37055" lon="6.22349">
        <ele>1196.9787598</ele>
        <time>2016-05-03T10:24:32Z</time>
      </trkpt>
      <trkpt lat="44.37036" lon="6.22334">
        <ele>1199.862793</ele>
        <time>2016-05-03T10:24:55Z</time>
      </trkpt>
      <trkpt lat="44.37034" lon="6.22321">
        <ele>1201.3046875</ele>
        <time>2016-05-03T10:25:06Z</time>
      </trkpt>
      <trkpt lat="44.3703" lon="6.22295">
        <ele>1203.7080078</ele>
        <time>2016-05-03T10:25:26Z</time>
      </trkpt>
      <trkpt lat="44.37011" lon="6.22249">
        <ele>1207.0725098</ele>
        <time>2016-05-03T10:25:54Z</time>
      </trkpt>
      <trkpt lat="44.37006" lon="6.22242">
        <ele>1207.5532227</ele>
        <time>2016-05-03T10:26:00Z</time>
      </trkpt>
      <trkpt lat="44.36998" lon="6.22217">
        <ele>1208.9951172</ele>
        <time>2016-05-03T10:26:20Z</time>
      </trkpt>
      <trkpt lat="44.37009" lon="6.22212">
        <ele>1211.3984375</ele>
        <time>2016-05-03T10:26:41Z</time>
      </trkpt>
      <trkpt lat="44.37017" lon="6.22208">
        <ele>1212.3598633</ele>
        <time>2016-05-03T10:26:49Z</time>
      </trkpt>
      <trkpt lat="44.37024" lon="6.22211">
        <ele>1212.3598633</ele>
        <time>2016-05-03T10:27:04Z</time>
      </trkpt>
      <trkpt lat="44.3703" lon="6.22207">
        <ele>1213.3212891</ele>
        <time>2016-05-03T10:27:21Z</time>
      </trkpt>
      <trkpt lat="44.37056" lon="6.22208">
        <ele>1213.8017578</ele>
        <time>2016-05-03T10:27:33Z</time>
      </trkpt>
      <trkpt lat="44.37079" lon="6.22202">
        <ele>1214.2824707</ele>
        <time>2016-05-03T10:27:47Z</time>
      </trkpt>
      <trkpt lat="44.37099" lon="6.22182">
        <ele>1216.2050781</ele>
        <time>2016-05-03T10:28:01Z</time>
      </trkpt>
      <trkpt lat="44.37102" lon="6.2218">
        <ele>1216.2050781</ele>
        <time>2016-05-03T10:28:03Z</time>
      </trkpt>
      <trkpt lat="44.37117" lon="6.22167">
        <ele>1218.1276855</ele>
        <time>2016-05-03T10:28:14Z</time>
      </trkpt>
      <trkpt lat="44.37126" lon="6.22133">
        <ele>1220.050293</ele>
        <time>2016-05-03T10:28:32Z</time>
      </trkpt>
      <trkpt lat="44.37123" lon="6.2209">
        <ele>1221.9729004</ele>
        <time>2016-05-03T10:28:49Z</time>
      </trkpt>
      <trkpt lat="44.3713" lon="6.22078">
        <ele>1222.4536133</ele>
        <time>2016-05-03T10:28:56Z</time>
      </trkpt>
      <trkpt lat="44.37134" lon="6.22076">
        <ele>1222.9343262</ele>
        <time>2016-05-03T10:28:59Z</time>
      </trkpt>
      <trkpt lat="44.37141" lon="6.22066">
        <ele>1223.8955078</ele>
        <time>2016-05-03T10:29:06Z</time>
      </trkpt>
      <trkpt lat="44.37145" lon="6.22062">
        <ele>1223.8955078</ele>
        <time>2016-05-03T10:29:09Z</time>
      </trkpt>
      <trkpt lat="44.37171" lon="6.22035">
        <ele>1225.8181152</ele>
        <time>2016-05-03T10:29:30Z</time>
      </trkpt>
      <trkpt lat="44.37182" lon="6.22013">
        <ele>1227.2602539</ele>
        <time>2016-05-03T10:29:40Z</time>
      </trkpt>
      <trkpt lat="44.37182" lon="6.21974">
        <ele>1228.2216797</ele>
        <time>2016-05-03T10:29:55Z</time>
      </trkpt>
      <trkpt lat="44.37189" lon="6.21974">
        <ele>1228.7023926</ele>
        <time>2016-05-03T10:30:14Z</time>
      </trkpt>
      <trkpt lat="44.37193" lon="6.21975">
        <ele>1229.6635742</ele>
        <time>2016-05-03T10:31:12Z</time>
      </trkpt>
      <trkpt lat="44.37194" lon="6.21969">
        <ele>1230.1442871</ele>
        <time>2016-05-03T10:31:43Z</time>
      </trkpt>
      <trkpt lat="44.37196" lon="6.21975">
        <ele>1229.1828613</ele>
        <time>2016-05-03T10:31:53Z</time>
      </trkpt>
      <trkpt lat="44.37201" lon="6.21983">
        <ele>1230.1442871</ele>
        <time>2016-05-03T10:32:11Z</time>
      </trkpt>
      <trkpt lat="44.37202" lon="6.21983">
        <ele>1233.0280762</ele>
        <time>2016-05-03T10:33:35Z</time>
      </trkpt>
      <trkpt lat="44.37203" lon="6.21983">
        <ele>1236.3928223</ele>
        <time>2016-05-03T10:36:14Z</time>
      </trkpt>
      <trkpt lat="44.37204" lon="6.21984">
        <ele>1239.7573242</ele>
        <time>2016-05-03T10:37:37Z</time>
      </trkpt>
      <trkpt lat="44.37204" lon="6.21984">
        <ele>1242.6413574</ele>
        <time>2016-05-03T10:40:46Z</time>
      </trkpt>
      <trkpt lat="44.37204" lon="6.21983">
        <ele>1244.0834961</ele>
        <time>2016-05-03T10:41:18Z</time>
      </trkpt>
      <trkpt lat="44.37204" lon="6.21984">
        <ele>1244.0834961</ele>
        <time>2016-05-03T10:41:23Z</time>
      </trkpt>
      <trkpt lat="44.37204" lon="6.21982">
        <ele>1245.0446777</ele>
        <time>2016-05-03T10:41:36Z</time>
      </trkpt>
      <trkpt lat="44.37207" lon="6.21976">
        <ele>1245.5253906</ele>
        <time>2016-05-03T10:41:59Z</time>
      </trkpt>
      <trkpt lat="44.37207" lon="6.21974">
        <ele>1247.447998</ele>
        <time>2016-05-03T10:42:52Z</time>
      </trkpt>
      <trkpt lat="44.37205" lon="6.21971">
        <ele>1247.9287109</ele>
        <time>2016-05-03T10:43:12Z</time>
      </trkpt>
      <trkpt lat="44.37209" lon="6.21972">
        <ele>1247.447998</ele>
        <time>2016-05-03T10:43:27Z</time>
      </trkpt>
      <trkpt lat="44.37209" lon="6.21971">
        <ele>1247.447998</ele>
        <time>2016-05-03T10:43:47Z</time>
      </trkpt>
      <trkpt lat="44.37214" lon="6.21967">
        <ele>1247.447998</ele>
        <time>2016-05-03T10:44:01Z</time>
      </trkpt>
      <trkpt lat="44.37214" lon="6.21967">
        <ele>1247.447998</ele>
        <time>2016-05-03T10:44:07Z</time>
      </trkpt>
      <trkpt lat="44.37225" lon="6.21968">
        <ele>1246.0061035</ele>
        <time>2016-05-03T10:44:12Z</time>
      </trkpt>
      <trkpt lat="44.37252" lon="6.2198">
        <ele>1243.1218262</ele>
        <time>2016-05-03T10:44:20Z</time>
      </trkpt>
      <trkpt lat="44.37267" lon="6.21985">
        <ele>1242.1606445</ele>
        <time>2016-05-03T10:44:23Z</time>
      </trkpt>
      <trkpt lat="44.37287" lon="6.21996">
        <ele>1239.7573242</ele>
        <time>2016-05-03T10:44:27Z</time>
      </trkpt>
      <trkpt lat="44.37295" lon="6.21999">
        <ele>1238.7961426</ele>
        <time>2016-05-03T10:44:29Z</time>
      </trkpt>
      <trkpt lat="44.37305" lon="6.21996">
        <ele>1237.8347168</ele>
        <time>2016-05-03T10:44:33Z</time>
      </trkpt>
      <trkpt lat="44.37314" lon="6.21997">
        <ele>1236.3928223</ele>
        <time>2016-05-03T10:44:35Z</time>
      </trkpt>
      <trkpt lat="44.37339" lon="6.21974">
        <ele>1234.4702148</ele>
        <time>2016-05-03T10:44:41Z</time>
      </trkpt>
      <trkpt lat="44.3736" lon="6.21933">
        <ele>1231.5861816</ele>
        <time>2016-05-03T10:44:52Z</time>
      </trkpt>
      <trkpt lat="44.37365" lon="6.21921">
        <ele>1231.1057129</ele>
        <time>2016-05-03T10:44:54Z</time>
      </trkpt>
      <trkpt lat="44.3738" lon="6.21908">
        <ele>1230.1442871</ele>
        <time>2016-05-03T10:44:59Z</time>
      </trkpt>
      <trkpt lat="44.37406" lon="6.21913">
        <ele>1227.2602539</ele>
        <time>2016-05-03T10:45:05Z</time>
      </trkpt>
      <trkpt lat="44.37428" lon="6.2191">
        <ele>1225.3374023</ele>
        <time>2016-05-03T10:45:10Z</time>
      </trkpt>
      <trkpt lat="44.37441" lon="6.21915">
        <ele>1223.8955078</ele>
        <time>2016-05-03T10:45:13Z</time>
      </trkpt>
      <trkpt lat="44.3745" lon="6.21918">
        <ele>1223.4150391</ele>
        <time>2016-05-03T10:45:15Z</time>
      </trkpt>
      <trkpt lat="44.37471" lon="6.21906">
        <ele>1221.0117188</ele>
        <time>2016-05-03T10:45:23Z</time>
      </trkpt>
      <trkpt lat="44.37464" lon="6.21897">
        <ele>1221.0117188</ele>
        <time>2016-05-03T10:45:26Z</time>
      </trkpt>
      <trkpt lat="44.37461" lon="6.21889">
        <ele>1221.0117188</ele>
        <time>2016-05-03T10:45:28Z</time>
      </trkpt>
      <trkpt lat="44.3746" lon="6.21862">
        <ele>1220.5310059</ele>
        <time>2016-05-03T10:45:33Z</time>
      </trkpt>
      <trkpt lat="44.37448" lon="6.21843">
        <ele>1221.0117188</ele>
        <time>2016-05-03T10:45:37Z</time>
      </trkpt>
      <trkpt lat="44.3744" lon="6.21823">
        <ele>1220.5310059</ele>
        <time>2016-05-03T10:45:41Z</time>
      </trkpt>
      <trkpt lat="44.37414" lon="6.21808">
        <ele>1219.5698242</ele>
        <time>2016-05-03T10:45:50Z</time>
      </trkpt>
      <trkpt lat="44.37375" lon="6.21791">
        <ele>1219.5698242</ele>
        <time>2016-05-03T10:46:04Z</time>
      </trkpt>
      <trkpt lat="44.37355" lon="6.21762">
        <ele>1219.5698242</ele>
        <time>2016-05-03T10:46:14Z</time>
      </trkpt>
      <trkpt lat="44.37377" lon="6.21718">
        <ele>1221.4921875</ele>
        <time>2016-05-03T10:46:31Z</time>
      </trkpt>
      <trkpt lat="44.37403" lon="6.2171">
        <ele>1223.8955078</ele>
        <time>2016-05-03T10:46:46Z</time>
      </trkpt>
      <trkpt lat="44.37433" lon="6.21679">
        <ele>1224.3762207</ele>
        <time>2016-05-03T10:47:04Z</time>
      </trkpt>
      <trkpt lat="44.37438" lon="6.21674">
        <ele>1224.3762207</ele>
        <time>2016-05-03T10:47:07Z</time>
      </trkpt>
      <trkpt lat="44.37442" lon="6.21657">
        <ele>1226.2988281</ele>
        <time>2016-05-03T10:47:20Z</time>
      </trkpt>
      <trkpt lat="44.37421" lon="6.21648">
        <ele>1228.2216797</ele>
        <time>2016-05-03T10:47:33Z</time>
      </trkpt>
      <trkpt lat="44.37404" lon="6.21637">
        <ele>1228.7023926</ele>
        <time>2016-05-03T10:47:46Z</time>
      </trkpt>
      <trkpt lat="44.37384" lon="6.21643">
        <ele>1231.1057129</ele>
        <time>2016-05-03T10:48:02Z</time>
      </trkpt>
      <trkpt lat="44.37383" lon="6.21644">
        <ele>1231.5861816</ele>
        <time>2016-05-03T10:48:03Z</time>
      </trkpt>
      <trkpt lat="44.37364" lon="6.21642">
        <ele>1234.4702148</ele>
        <time>2016-05-03T10:48:19Z</time>
      </trkpt>
      <trkpt lat="44.37364" lon="6.21621">
        <ele>1236.873291</ele>
        <time>2016-05-03T10:48:34Z</time>
      </trkpt>
      <trkpt lat="44.37366" lon="6.21618">
        <ele>1237.3540039</ele>
        <time>2016-05-03T10:48:38Z</time>
      </trkpt>
      <trkpt lat="44.3737" lon="6.21612">
        <ele>1238.3154297</ele>
        <time>2016-05-03T10:48:43Z</time>
      </trkpt>
      <trkpt lat="44.37384" lon="6.21588">
        <ele>1240.7185059</ele>
        <time>2016-05-03T10:49:03Z</time>
      </trkpt>
      <trkpt lat="44.37384" lon="6.21587">
        <ele>1240.7185059</ele>
        <time>2016-05-03T10:49:04Z</time>
      </trkpt>
      <trkpt lat="44.37386" lon="6.21574">
        <ele>1242.1606445</ele>
        <time>2016-05-03T10:49:11Z</time>
      </trkpt>
      <trkpt lat="44.37384" lon="6.2156">
        <ele>1243.1218262</ele>
        <time>2016-05-03T10:49:18Z</time>
      </trkpt>
      <trkpt lat="44.37376" lon="6.21549">
        <ele>1245.0446777</ele>
        <time>2016-05-03T10:49:28Z</time>
      </trkpt>
      <trkpt lat="44.37372" lon="6.2154">
        <ele>1245.5253906</ele>
        <time>2016-05-03T10:49:35Z</time>
      </trkpt>
      <trkpt lat="44.37372" lon="6.21531">
        <ele>1246.4868164</ele>
        <time>2016-05-03T10:49:42Z</time>
      </trkpt>
      <trkpt lat="44.37381" lon="6.21519">
        <ele>1247.9287109</ele>
        <time>2016-05-03T10:49:53Z</time>
      </trkpt>
      <trkpt lat="44.37384" lon="6.21504">
        <ele>1248.8898926</ele>
        <time>2016-05-03T10:50:04Z</time>
      </trkpt>
      <trkpt lat="44.37376" lon="6.21488">
        <ele>1251.7739258</ele>
        <time>2016-05-03T10:50:17Z</time>
      </trkpt>
      <trkpt lat="44.37372" lon="6.21484">
        <ele>1252.2543945</ele>
        <time>2016-05-03T10:50:23Z</time>
      </trkpt>
      <trkpt lat="44.3737" lon="6.21473">
        <ele>1253.2158203</ele>
        <time>2016-05-03T10:50:30Z</time>
      </trkpt>
      <trkpt lat="44.37371" lon="6.21467">
        <ele>1254.1772461</ele>
        <time>2016-05-03T10:50:34Z</time>
      </trkpt>
      <trkpt lat="44.37375" lon="6.21452">
        <ele>1256.0996094</ele>
        <time>2016-05-03T10:50:46Z</time>
      </trkpt>
      <trkpt lat="44.37378" lon="6.21431">
        <ele>1257.0610352</ele>
        <time>2016-05-03T10:51:00Z</time>
      </trkpt>
      <trkpt lat="44.37363" lon="6.21422">
        <ele>1258.9836426</ele>
        <time>2016-05-03T10:51:14Z</time>
      </trkpt>
      <trkpt lat="44.37348" lon="6.21429">
        <ele>1261.8679199</ele>
        <time>2016-05-03T10:51:31Z</time>
      </trkpt>
      <trkpt lat="44.37334" lon="6.2144">
        <ele>1264.2709961</ele>
        <time>2016-05-03T10:51:46Z</time>
      </trkpt>
      <trkpt lat="44.37325" lon="6.21434">
        <ele>1266.1936035</ele>
        <time>2016-05-03T10:51:56Z</time>
      </trkpt>
      <trkpt lat="44.37323" lon="6.21428">
        <ele>1267.1550293</ele>
        <time>2016-05-03T10:52:01Z</time>
      </trkpt>
      <trkpt lat="44.37326" lon="6.21409">
        <ele>1269.5583496</ele>
        <time>2016-05-03T10:52:17Z</time>
      </trkpt>
      <trkpt lat="44.37326" lon="6.21401">
        <ele>1270.5195313</ele>
        <time>2016-05-03T10:52:22Z</time>
      </trkpt>
      <trkpt lat="44.37326" lon="6.21395">
        <ele>1271.0002441</ele>
        <time>2016-05-03T10:52:27Z</time>
      </trkpt>
      <trkpt lat="44.37324" lon="6.21392">
        <ele>1271.0002441</ele>
        <time>2016-05-03T10:52:30Z</time>
      </trkpt>
      <trkpt lat="44.37325" lon="6.21384">
        <ele>1271.9614258</ele>
        <time>2016-05-03T10:52:37Z</time>
      </trkpt>
      <trkpt lat="44.37326" lon="6.21374">
        <ele>1272.9228516</ele>
        <time>2016-05-03T10:52:44Z</time>
      </trkpt>
      <trkpt lat="44.37327" lon="6.21366">
        <ele>1273.4035645</ele>
        <time>2016-05-03T10:52:49Z</time>
      </trkpt>
      <trkpt lat="44.37329" lon="6.21358">
        <ele>1273.8840332</ele>
        <time>2016-05-03T10:52:54Z</time>
      </trkpt>
      <trkpt lat="44.37332" lon="6.21351">
        <ele>1274.845459</ele>
        <time>2016-05-03T10:53:00Z</time>
      </trkpt>
      <trkpt lat="44.3733" lon="6.21338">
        <ele>1275.8066406</ele>
        <time>2016-05-03T10:53:09Z</time>
      </trkpt>
      <trkpt lat="44.37328" lon="6.21331">
        <ele>1276.2875977</ele>
        <time>2016-05-03T10:53:14Z</time>
      </trkpt>
      <trkpt lat="44.37326" lon="6.21329">
        <ele>1277.2490234</ele>
        <time>2016-05-03T10:53:17Z</time>
      </trkpt>
      <trkpt lat="44.37321" lon="6.21328">
        <ele>1277.7294922</ele>
        <time>2016-05-03T10:53:23Z</time>
      </trkpt>
      <trkpt lat="44.37318" lon="6.21324">
        <ele>1278.690918</ele>
        <time>2016-05-03T10:53:27Z</time>
      </trkpt>
      <trkpt lat="44.37296" lon="6.21308">
        <ele>1280.6135254</ele>
        <time>2016-05-03T10:53:48Z</time>
      </trkpt>
      <trkpt lat="44.37294" lon="6.21306">
        <ele>1281.0942383</ele>
        <time>2016-05-03T10:53:51Z</time>
      </trkpt>
      <trkpt lat="44.37293" lon="6.21302">
        <ele>1281.574707</ele>
        <time>2016-05-03T10:53:54Z</time>
      </trkpt>
      <trkpt lat="44.37279" lon="6.21287">
        <ele>1283.0166016</ele>
        <time>2016-05-03T10:54:09Z</time>
      </trkpt>
      <trkpt lat="44.37271" lon="6.21282">
        <ele>1284.4587402</ele>
        <time>2016-05-03T10:54:18Z</time>
      </trkpt>
      <trkpt lat="44.37268" lon="6.21276">
        <ele>1284.9394531</ele>
        <time>2016-05-03T10:54:22Z</time>
      </trkpt>
      <trkpt lat="44.37271" lon="6.21248">
        <ele>1288.3039551</ele>
        <time>2016-05-03T10:54:41Z</time>
      </trkpt>
      <trkpt lat="44.37273" lon="6.21235">
        <ele>1289.7458496</ele>
        <time>2016-05-03T10:54:56Z</time>
      </trkpt>
      <trkpt lat="44.37291" lon="6.21211">
        <ele>1292.1494141</ele>
        <time>2016-05-03T10:55:13Z</time>
      </trkpt>
      <trkpt lat="44.37291" lon="6.21205">
        <ele>1292.630127</ele>
        <time>2016-05-03T10:55:17Z</time>
      </trkpt>
      <trkpt lat="44.37286" lon="6.21196">
        <ele>1293.5913086</ele>
        <time>2016-05-03T10:55:28Z</time>
      </trkpt>
      <trkpt lat="44.37278" lon="6.21196">
        <ele>1295.9946289</ele>
        <time>2016-05-03T10:55:36Z</time>
      </trkpt>
      <trkpt lat="44.37275" lon="6.21195">
        <ele>1295.513916</ele>
        <time>2016-05-03T10:55:39Z</time>
      </trkpt>
      <trkpt lat="44.37267" lon="6.21195">
        <ele>1296.9558105</ele>
        <time>2016-05-03T10:55:46Z</time>
      </trkpt>
      <trkpt lat="44.37263" lon="6.21191">
        <ele>1297.4365234</ele>
        <time>2016-05-03T10:55:51Z</time>
      </trkpt>
      <trkpt lat="44.3726" lon="6.21161">
        <ele>1300.3205566</ele>
        <time>2016-05-03T10:56:11Z</time>
      </trkpt>
      <trkpt lat="44.3726" lon="6.21155">
        <ele>1301.2817383</ele>
        <time>2016-05-03T10:56:15Z</time>
      </trkpt>
      <trkpt lat="44.37255" lon="6.21127">
        <ele>1303.2043457</ele>
        <time>2016-05-03T10:56:32Z</time>
      </trkpt>
      <trkpt lat="44.37255" lon="6.21122">
        <ele>1303.2043457</ele>
        <time>2016-05-03T10:56:35Z</time>
      </trkpt>
      <trkpt lat="44.37257" lon="6.21116">
        <ele>1303.6850586</ele>
        <time>2016-05-03T10:56:40Z</time>
      </trkpt>
      <trkpt lat="44.37256" lon="6.21112">
        <ele>1304.1657715</ele>
        <time>2016-05-03T10:56:43Z</time>
      </trkpt>
      <trkpt lat="44.37241" lon="6.21104">
        <ele>1306.0881348</ele>
        <time>2016-05-03T10:57:00Z</time>
      </trkpt>
      <trkpt lat="44.37222" lon="6.2111">
        <ele>1308.4916992</ele>
        <time>2016-05-03T10:57:18Z</time>
      </trkpt>
      <trkpt lat="44.37207" lon="6.21135">
        <ele>1311.8564453</ele>
        <time>2016-05-03T10:57:40Z</time>
      </trkpt>
      <trkpt lat="44.37193" lon="6.21144">
        <ele>1313.2983398</ele>
        <time>2016-05-03T10:57:55Z</time>
      </trkpt>
      <trkpt lat="44.37174" lon="6.21151">
        <ele>1315.2209473</ele>
        <time>2016-05-03T10:58:13Z</time>
      </trkpt>
      <trkpt lat="44.37162" lon="6.21152">
        <ele>1316.1821289</ele>
        <time>2016-05-03T10:58:25Z</time>
      </trkpt>
      <trkpt lat="44.37149" lon="6.2115">
        <ele>1317.6240234</ele>
        <time>2016-05-03T10:58:36Z</time>
      </trkpt>
      <trkpt lat="44.37148" lon="6.21148">
        <ele>1317.6240234</ele>
        <time>2016-05-03T10:58:38Z</time>
      </trkpt>
      <trkpt lat="44.37129" lon="6.21158">
        <ele>1319.0661621</ele>
        <time>2016-05-03T10:58:53Z</time>
      </trkpt>
      <trkpt lat="44.37115" lon="6.21173">
        <ele>1321.4692383</ele>
        <time>2016-05-03T10:59:07Z</time>
      </trkpt>
      <trkpt lat="44.37112" lon="6.21176">
        <ele>1320.9887695</ele>
        <time>2016-05-03T10:59:10Z</time>
      </trkpt>
      <trkpt lat="44.37097" lon="6.2119">
        <ele>1322.4306641</ele>
        <time>2016-05-03T10:59:24Z</time>
      </trkpt>
      <trkpt lat="44.37081" lon="6.21209">
        <ele>1323.8725586</ele>
        <time>2016-05-03T10:59:41Z</time>
      </trkpt>
      <trkpt lat="44.37078" lon="6.21217">
        <ele>1324.8342285</ele>
        <time>2016-05-03T10:59:47Z</time>
      </trkpt>
      <trkpt lat="44.37072" lon="6.2124">
        <ele>1325.7954102</ele>
        <time>2016-05-03T11:00:02Z</time>
      </trkpt>
      <trkpt lat="44.37071" lon="6.21259">
        <ele>1327.2375488</ele>
        <time>2016-05-03T11:00:12Z</time>
      </trkpt>
      <trkpt lat="44.37069" lon="6.21267">
        <ele>1327.2375488</ele>
        <time>2016-05-03T11:00:18Z</time>
      </trkpt>
      <trkpt lat="44.37052" lon="6.21288">
        <ele>1329.1599121</ele>
        <time>2016-05-03T11:00:36Z</time>
      </trkpt>
      <trkpt lat="44.37041" lon="6.2131">
        <ele>1329.640625</ele>
        <time>2016-05-03T11:00:49Z</time>
      </trkpt>
      <trkpt lat="44.3702" lon="6.21326">
        <ele>1330.6020508</ele>
        <time>2016-05-03T11:01:06Z</time>
      </trkpt>
      <trkpt lat="44.37" lon="6.21338">
        <ele>1332.0439453</ele>
        <time>2016-05-03T11:01:23Z</time>
      </trkpt>
      <trkpt lat="44.36982" lon="6.21361">
        <ele>1334.4472656</ele>
        <time>2016-05-03T11:01:43Z</time>
      </trkpt>
      <trkpt lat="44.36978" lon="6.21359">
        <ele>1334.4472656</ele>
        <time>2016-05-03T11:01:46Z</time>
      </trkpt>
      <trkpt lat="44.36977" lon="6.21356">
        <ele>1334.4472656</ele>
        <time>2016-05-03T11:01:48Z</time>
      </trkpt>
      <trkpt lat="44.36977" lon="6.21353">
        <ele>1334.9279785</ele>
        <time>2016-05-03T11:01:50Z</time>
      </trkpt>
      <trkpt lat="44.3698" lon="6.21343">
        <ele>1335.4084473</ele>
        <time>2016-05-03T11:01:56Z</time>
      </trkpt>
      <trkpt lat="44.36999" lon="6.21317">
        <ele>1338.2924805</ele>
        <time>2016-05-03T11:02:17Z</time>
      </trkpt>
      <trkpt lat="44.37003" lon="6.21316">
        <ele>1338.7731934</ele>
        <time>2016-05-03T11:02:23Z</time>
      </trkpt>
      <trkpt lat="44.37009" lon="6.2131">
        <ele>1338.7731934</ele>
        <time>2016-05-03T11:02:29Z</time>
      </trkpt>
      <trkpt lat="44.3703" lon="6.21288">
        <ele>1341.6572266</ele>
        <time>2016-05-03T11:02:52Z</time>
      </trkpt>
      <trkpt lat="44.37033" lon="6.21284">
        <ele>1342.1379395</ele>
        <time>2016-05-03T11:02:57Z</time>
      </trkpt>
      <trkpt lat="44.37033" lon="6.21278">
        <ele>1342.1379395</ele>
        <time>2016-05-03T11:03:00Z</time>
      </trkpt>
      <trkpt lat="44.37036" lon="6.21267">
        <ele>1342.6186523</ele>
        <time>2016-05-03T11:03:07Z</time>
      </trkpt>
      <trkpt lat="44.3704" lon="6.21255">
        <ele>1344.0605469</ele>
        <time>2016-05-03T11:03:16Z</time>
      </trkpt>
      <trkpt lat="44.37042" lon="6.21247">
        <ele>1344.0605469</ele>
        <time>2016-05-03T11:03:21Z</time>
      </trkpt>
      <trkpt lat="44.37042" lon="6.21244">
        <ele>1344.5410156</ele>
        <time>2016-05-03T11:03:23Z</time>
      </trkpt>
      <trkpt lat="44.37042" lon="6.21223">
        <ele>1346.4638672</ele>
        <time>2016-05-03T11:03:37Z</time>
      </trkpt>
      <trkpt lat="44.37043" lon="6.21212">
        <ele>1347.4250488</ele>
        <time>2016-05-03T11:03:44Z</time>
      </trkpt>
      <trkpt lat="44.37044" lon="6.21195">
        <ele>1348.8669434</ele>
        <time>2016-05-03T11:03:55Z</time>
      </trkpt>
      <trkpt lat="44.37044" lon="6.21166">
        <ele>1349.8283691</ele>
        <time>2016-05-03T11:04:10Z</time>
      </trkpt>
      <trkpt lat="44.37047" lon="6.21157">
        <ele>1351.2702637</ele>
        <time>2016-05-03T11:04:15Z</time>
      </trkpt>
      <trkpt lat="44.37053" lon="6.21151">
        <ele>1351.7509766</ele>
        <time>2016-05-03T11:04:21Z</time>
      </trkpt>
      <trkpt lat="44.3706" lon="6.21143">
        <ele>1352.7121582</ele>
        <time>2016-05-03T11:04:27Z</time>
      </trkpt>
      <trkpt lat="44.37064" lon="6.2114">
        <ele>1353.1928711</ele>
        <time>2016-05-03T11:04:30Z</time>
      </trkpt>
      <trkpt lat="44.37072" lon="6.21128">
        <ele>1353.673584</ele>
        <time>2016-05-03T11:04:39Z</time>
      </trkpt>
      <trkpt lat="44.37076" lon="6.21121">
        <ele>1354.1542969</ele>
        <time>2016-05-03T11:04:44Z</time>
      </trkpt>
      <trkpt lat="44.37085" lon="6.21105">
        <ele>1355.5961914</ele>
        <time>2016-05-03T11:04:58Z</time>
      </trkpt>
      <trkpt lat="44.37088" lon="6.21103">
        <ele>1356.0769043</ele>
        <time>2016-05-03T11:05:01Z</time>
      </trkpt>
      <trkpt lat="44.37098" lon="6.21095">
        <ele>1357.0383301</ele>
        <time>2016-05-03T11:05:10Z</time>
      </trkpt>
      <trkpt lat="44.37107" lon="6.21078">
        <ele>1358.4802246</ele>
        <time>2016-05-03T11:05:25Z</time>
      </trkpt>
      <trkpt lat="44.37117" lon="6.21061">
        <ele>1359.9221191</ele>
        <time>2016-05-03T11:05:40Z</time>
      </trkpt>
      <trkpt lat="44.37119" lon="6.21056">
        <ele>1359.9221191</ele>
        <time>2016-05-03T11:05:44Z</time>
      </trkpt>
      <trkpt lat="44.3712" lon="6.21051">
        <ele>1360.402832</ele>
        <time>2016-05-03T11:05:48Z</time>
      </trkpt>
      <trkpt lat="44.37122" lon="6.21048">
        <ele>1360.8835449</ele>
        <time>2016-05-03T11:05:50Z</time>
      </trkpt>
      <trkpt lat="44.37129" lon="6.21041">
        <ele>1361.8449707</ele>
        <time>2016-05-03T11:05:57Z</time>
      </trkpt>
      <trkpt lat="44.37131" lon="6.21039">
        <ele>1361.8449707</ele>
        <time>2016-05-03T11:05:59Z</time>
      </trkpt>
      <trkpt lat="44.37149" lon="6.21031">
        <ele>1363.767334</ele>
        <time>2016-05-03T11:06:17Z</time>
      </trkpt>
      <trkpt lat="44.37162" lon="6.21019">
        <ele>1364.7287598</ele>
        <time>2016-05-03T11:06:29Z</time>
      </trkpt>
      <trkpt lat="44.37167" lon="6.21005">
        <ele>1365.6901855</ele>
        <time>2016-05-03T11:06:40Z</time>
      </trkpt>
      <trkpt lat="44.37171" lon="6.20996">
        <ele>1366.6513672</ele>
        <time>2016-05-03T11:06:46Z</time>
      </trkpt>
      <trkpt lat="44.37173" lon="6.20986">
        <ele>1367.6125488</ele>
        <time>2016-05-03T11:06:57Z</time>
      </trkpt>
      <trkpt lat="44.37173" lon="6.2098">
        <ele>1369.0546875</ele>
        <time>2016-05-03T11:07:26Z</time>
      </trkpt>
      <trkpt lat="44.37173" lon="6.2098">
        <ele>1370.0158691</ele>
        <time>2016-05-03T11:07:38Z</time>
      </trkpt>
      <trkpt lat="44.37173" lon="6.2098">
        <ele>1368.5739746</ele>
        <time>2016-05-03T11:07:49Z</time>
      </trkpt>
      <trkpt lat="44.37178" lon="6.20987">
        <ele>1368.0932617</ele>
        <time>2016-05-03T11:08:20Z</time>
      </trkpt>
      <trkpt lat="44.37178" lon="6.20987">
        <ele>1369.5354004</ele>
        <time>2016-05-03T11:08:22Z</time>
      </trkpt>
      <trkpt lat="44.37178" lon="6.20987">
        <ele>1370.9772949</ele>
        <time>2016-05-03T11:08:40Z</time>
      </trkpt>
      <trkpt lat="44.37176" lon="6.20985">
        <ele>1370.496582</ele>
        <time>2016-05-03T11:09:13Z</time>
      </trkpt>
      <trkpt lat="44.37177" lon="6.20984">
        <ele>1371.9384766</ele>
        <time>2016-05-03T11:09:33Z</time>
      </trkpt>
      <trkpt lat="44.37177" lon="6.20984">
        <ele>1372.9001465</ele>
        <time>2016-05-03T11:10:00Z</time>
      </trkpt>
      <trkpt lat="44.37177" lon="6.20984">
        <ele>1373.8613281</ele>
        <time>2016-05-03T11:10:34Z</time>
      </trkpt>
      <trkpt lat="44.37177" lon="6.20984">
        <ele>1373.8613281</ele>
        <time>2016-05-03T11:10:52Z</time>
      </trkpt>
      <trkpt lat="44.37181" lon="6.20985">
        <ele>1374.342041</ele>
        <time>2016-05-03T11:11:53Z</time>
      </trkpt>
      <trkpt lat="44.37181" lon="6.20989">
        <ele>1372.4194336</ele>
        <time>2016-05-03T11:12:13Z</time>
      </trkpt>
      <trkpt lat="44.3718" lon="6.20987">
        <ele>1374.342041</ele>
        <time>2016-05-03T11:13:43Z</time>
      </trkpt>
      <trkpt lat="44.37182" lon="6.20981">
        <ele>1374.8227539</ele>
        <time>2016-05-03T11:14:08Z</time>
      </trkpt>
      <trkpt lat="44.37189" lon="6.20967">
        <ele>1376.7453613</ele>
        <time>2016-05-03T11:14:27Z</time>
      </trkpt>
      <trkpt lat="44.37192" lon="6.20964">
        <ele>1376.7453613</ele>
        <time>2016-05-03T11:15:33Z</time>
      </trkpt>
      <trkpt lat="44.37194" lon="6.20939">
        <ele>1379.1484375</ele>
        <time>2016-05-03T11:15:56Z</time>
      </trkpt>
      <trkpt lat="44.3719" lon="6.20902">
        <ele>1381.5517578</ele>
        <time>2016-05-03T11:16:26Z</time>
      </trkpt>
      <trkpt lat="44.37196" lon="6.20867">
        <ele>1384.9165039</ele>
        <time>2016-05-03T11:16:55Z</time>
      </trkpt>
      <trkpt lat="44.37206" lon="6.20841">
        <ele>1386.3583984</ele>
        <time>2016-05-03T11:17:17Z</time>
      </trkpt>
      <trkpt lat="44.37209" lon="6.20815">
        <ele>1388.7619629</ele>
        <time>2016-05-03T11:17:41Z</time>
      </trkpt>
      <trkpt lat="44.37209" lon="6.20782">
        <ele>1392.1264648</ele>
        <time>2016-05-03T11:18:09Z</time>
      </trkpt>
      <trkpt lat="44.37219" lon="6.2075">
        <ele>1394.0490723</ele>
        <time>2016-05-03T11:18:38Z</time>
      </trkpt>
      <trkpt lat="44.37235" lon="6.2072">
        <ele>1397.4135742</ele>
        <time>2016-05-03T11:19:11Z</time>
      </trkpt>
      <trkpt lat="44.37244" lon="6.20692">
        <ele>1400.2976074</ele>
        <time>2016-05-03T11:19:38Z</time>
      </trkpt>
      <trkpt lat="44.37244" lon="6.20664">
        <ele>1401.739502</ele>
        <time>2016-05-03T11:20:02Z</time>
      </trkpt>
      <trkpt lat="44.37242" lon="6.20661">
        <ele>1402.2199707</ele>
        <time>2016-05-03T11:20:07Z</time>
      </trkpt>
      <trkpt lat="44.37228" lon="6.20651">
        <ele>1404.1430664</ele>
        <time>2016-05-03T11:20:26Z</time>
      </trkpt>
      <trkpt lat="44.37226" lon="6.20646">
        <ele>1404.6235352</ele>
        <time>2016-05-03T11:20:31Z</time>
      </trkpt>
      <trkpt lat="44.3722" lon="6.20614">
        <ele>1407.0268555</ele>
        <time>2016-05-03T11:20:56Z</time>
      </trkpt>
      <trkpt lat="44.37233" lon="6.20599">
        <ele>1408.46875</ele>
        <time>2016-05-03T11:21:18Z</time>
      </trkpt>
      <trkpt lat="44.37233" lon="6.20597">
        <ele>1408.9494629</ele>
        <time>2016-05-03T11:21:33Z</time>
      </trkpt>
      <trkpt lat="44.37243" lon="6.20554">
        <ele>1409.4301758</ele>
        <time>2016-05-03T11:21:50Z</time>
      </trkpt>
      <trkpt lat="44.37239" lon="6.20494">
        <ele>1408.9494629</ele>
        <time>2016-05-03T11:22:06Z</time>
      </trkpt>
      <trkpt lat="44.37216" lon="6.20453">
        <ele>1409.9106445</ele>
        <time>2016-05-03T11:22:22Z</time>
      </trkpt>
      <trkpt lat="44.37216" lon="6.20415">
        <ele>1411.3527832</ele>
        <time>2016-05-03T11:22:38Z</time>
      </trkpt>
      <trkpt lat="44.37232" lon="6.20378">
        <ele>1411.8334961</ele>
        <time>2016-05-03T11:22:54Z</time>
      </trkpt>
      <trkpt lat="44.37235" lon="6.20342">
        <ele>1413.7558594</ele>
        <time>2016-05-03T11:23:10Z</time>
      </trkpt>
      <trkpt lat="44.37236" lon="6.2034">
        <ele>1413.7558594</ele>
        <time>2016-05-03T11:23:11Z</time>
      </trkpt>
      <trkpt lat="44.37259" lon="6.20337">
        <ele>1416.1591797</ele>
        <time>2016-05-03T11:23:28Z</time>
      </trkpt>
      <trkpt lat="44.37262" lon="6.20337">
        <ele>1416.1591797</ele>
        <time>2016-05-03T11:23:30Z</time>
      </trkpt>
      <trkpt lat="44.37265" lon="6.20336">
        <ele>1416.6398926</ele>
        <time>2016-05-03T11:23:32Z</time>
      </trkpt>
      <trkpt lat="44.3727" lon="6.20326">
        <ele>1416.6398926</ele>
        <time>2016-05-03T11:23:37Z</time>
      </trkpt>
      <trkpt lat="44.37275" lon="6.20313">
        <ele>1417.6010742</ele>
        <time>2016-05-03T11:23:44Z</time>
      </trkpt>
      <trkpt lat="44.37287" lon="6.20308">
        <ele>1417.6010742</ele>
        <time>2016-05-03T11:23:52Z</time>
      </trkpt>
      <trkpt lat="44.37296" lon="6.20298">
        <ele>1417.1206055</ele>
        <time>2016-05-03T11:23:58Z</time>
      </trkpt>
      <trkpt lat="44.37298" lon="6.20287">
        <ele>1417.1206055</ele>
        <time>2016-05-03T11:24:03Z</time>
      </trkpt>
      <trkpt lat="44.37296" lon="6.20247">
        <ele>1418.5625</ele>
        <time>2016-05-03T11:24:20Z</time>
      </trkpt>
      <trkpt lat="44.37291" lon="6.2021">
        <ele>1419.5239258</ele>
        <time>2016-05-03T11:24:35Z</time>
      </trkpt>
      <trkpt lat="44.37291" lon="6.20154">
        <ele>1419.5239258</ele>
        <time>2016-05-03T11:24:55Z</time>
      </trkpt>
      <trkpt lat="44.37277" lon="6.20121">
        <ele>1421.4465332</ele>
        <time>2016-05-03T11:25:11Z</time>
      </trkpt>
      <trkpt lat="44.37279" lon="6.20101">
        <ele>1422.407959</ele>
        <time>2016-05-03T11:25:22Z</time>
      </trkpt>
      <trkpt lat="44.37286" lon="6.20108">
        <ele>1422.8886719</ele>
        <time>2016-05-03T11:25:28Z</time>
      </trkpt>
      <trkpt lat="44.37303" lon="6.20146">
        <ele>1426.2531738</ele>
        <time>2016-05-03T11:25:50Z</time>
      </trkpt>
      <trkpt lat="44.37314" lon="6.20159">
        <ele>1427.6950684</ele>
        <time>2016-05-03T11:26:02Z</time>
      </trkpt>
      <trkpt lat="44.37322" lon="6.20195">
        <ele>1430.0983887</ele>
        <time>2016-05-03T11:26:22Z</time>
      </trkpt>
      <trkpt lat="44.3733" lon="6.20232">
        <ele>1432.501709</ele>
        <time>2016-05-03T11:26:44Z</time>
      </trkpt>
      <trkpt lat="44.37336" lon="6.20242">
        <ele>1433.4628906</ele>
        <time>2016-05-03T11:26:52Z</time>
      </trkpt>
      <trkpt lat="44.37343" lon="6.20265">
        <ele>1435.385498</ele>
        <time>2016-05-03T11:27:09Z</time>
      </trkpt>
      <trkpt lat="44.37343" lon="6.20266">
        <ele>1434.9050293</ele>
        <time>2016-05-03T11:27:10Z</time>
      </trkpt>
      <trkpt lat="44.37343" lon="6.20289">
        <ele>1437.3083496</ele>
        <time>2016-05-03T11:27:26Z</time>
      </trkpt>
      <trkpt lat="44.37347" lon="6.20317">
        <ele>1439.230957</ele>
        <time>2016-05-03T11:27:45Z</time>
      </trkpt>
      <trkpt lat="44.37344" lon="6.2034">
        <ele>1441.6342773</ele>
        <time>2016-05-03T11:28:01Z</time>
      </trkpt>
      <trkpt lat="44.37339" lon="6.20359">
        <ele>1443.0761719</ele>
        <time>2016-05-03T11:28:15Z</time>
      </trkpt>
      <trkpt lat="44.37332" lon="6.20384">
        <ele>1443.5568848</ele>
        <time>2016-05-03T11:28:28Z</time>
      </trkpt>
      <trkpt lat="44.37319" lon="6.20404">
        <ele>1444.9987793</ele>
        <time>2016-05-03T11:28:42Z</time>
      </trkpt>
      <trkpt lat="44.37312" lon="6.20418">
        <ele>1445.4794922</ele>
        <time>2016-05-03T11:28:49Z</time>
      </trkpt>
      <trkpt lat="44.37314" lon="6.20445">
        <ele>1447.4020996</ele>
        <time>2016-05-03T11:29:07Z</time>
      </trkpt>
      <trkpt lat="44.37319" lon="6.20471">
        <ele>1449.324707</ele>
        <time>2016-05-03T11:29:27Z</time>
      </trkpt>
      <trkpt lat="44.37323" lon="6.2048">
        <ele>1449.8054199</ele>
        <time>2016-05-03T11:29:33Z</time>
      </trkpt>
      <trkpt lat="44.3733" lon="6.20512">
        <ele>1452.6894531</ele>
        <time>2016-05-03T11:29:54Z</time>
      </trkpt>
      <trkpt lat="44.37334" lon="6.20536">
        <ele>1454.1315918</ele>
        <time>2016-05-03T11:30:08Z</time>
      </trkpt>
      <trkpt lat="44.37336" lon="6.20552">
        <ele>1455.0927734</ele>
        <time>2016-05-03T11:30:18Z</time>
      </trkpt>
      <trkpt lat="44.37338" lon="6.20556">
        <ele>1455.0927734</ele>
        <time>2016-05-03T11:30:21Z</time>
      </trkpt>
      <trkpt lat="44.37338" lon="6.20563">
        <ele>1455.5734863</ele>
        <time>2016-05-03T11:30:25Z</time>
      </trkpt>
      <trkpt lat="44.37338" lon="6.20593">
        <ele>1457.0153809</ele>
        <time>2016-05-03T11:30:42Z</time>
      </trkpt>
      <trkpt lat="44.37343" lon="6.20613">
        <ele>1457.9768066</ele>
        <time>2016-05-03T11:30:53Z</time>
      </trkpt>
      <trkpt lat="44.37343" lon="6.20642">
        <ele>1459.4187012</ele>
        <time>2016-05-03T11:31:10Z</time>
      </trkpt>
      <trkpt lat="44.37345" lon="6.20654">
        <ele>1459.8991699</ele>
        <time>2016-05-03T11:31:17Z</time>
      </trkpt>
      <trkpt lat="44.37347" lon="6.20661">
        <ele>1460.8605957</ele>
        <time>2016-05-03T11:31:21Z</time>
      </trkpt>
      <trkpt lat="44.37349" lon="6.20687">
        <ele>1462.3024902</ele>
        <time>2016-05-03T11:31:37Z</time>
      </trkpt>
      <trkpt lat="44.3735" lon="6.20708">
        <ele>1463.263916</ele>
        <time>2016-05-03T11:31:49Z</time>
      </trkpt>
      <trkpt lat="44.37349" lon="6.20739">
        <ele>1465.6672363</ele>
        <time>2016-05-03T11:32:08Z</time>
      </trkpt>
      <trkpt lat="44.37346" lon="6.20757">
        <ele>1466.1477051</ele>
        <time>2016-05-03T11:32:19Z</time>
      </trkpt>
      <trkpt lat="44.37344" lon="6.20762">
        <ele>1467.1091309</ele>
        <time>2016-05-03T11:32:22Z</time>
      </trkpt>
      <trkpt lat="44.3735" lon="6.20794">
        <ele>1469.0319824</ele>
        <time>2016-05-03T11:32:42Z</time>
      </trkpt>
      <trkpt lat="44.37358" lon="6.20832">
        <ele>1470.9545898</ele>
        <time>2016-05-03T11:33:09Z</time>
      </trkpt>
      <trkpt lat="44.37368" lon="6.20848">
        <ele>1471.9157715</ele>
        <time>2016-05-03T11:33:21Z</time>
      </trkpt>
      <trkpt lat="44.37371" lon="6.20848">
        <ele>1472.3964844</ele>
        <time>2016-05-03T11:33:24Z</time>
      </trkpt>
      <trkpt lat="44.37373" lon="6.20842">
        <ele>1472.8771973</ele>
        <time>2016-05-03T11:33:28Z</time>
      </trkpt>
      <trkpt lat="44.37372" lon="6.20833">
        <ele>1472.8771973</ele>
        <time>2016-05-03T11:33:32Z</time>
      </trkpt>
      <trkpt lat="44.37366" lon="6.20821">
        <ele>1473.8383789</ele>
        <time>2016-05-03T11:33:40Z</time>
      </trkpt>
      <trkpt lat="44.37358" lon="6.20787">
        <ele>1476.7224121</ele>
        <time>2016-05-03T11:34:00Z</time>
      </trkpt>
      <trkpt lat="44.37357" lon="6.20751">
        <ele>1479.6062012</ele>
        <time>2016-05-03T11:34:26Z</time>
      </trkpt>
      <trkpt lat="44.37361" lon="6.20733">
        <ele>1481.5288086</ele>
        <time>2016-05-03T11:34:39Z</time>
      </trkpt>
      <trkpt lat="44.37361" lon="6.20709">
        <ele>1484.4130859</ele>
        <time>2016-05-03T11:34:54Z</time>
      </trkpt>
      <trkpt lat="44.37361" lon="6.20706">
        <ele>1484.4130859</ele>
        <time>2016-05-03T11:34:56Z</time>
      </trkpt>
      <trkpt lat="44.37363" lon="6.20677">
        <ele>1487.296875</ele>
        <time>2016-05-03T11:35:14Z</time>
      </trkpt>
      <trkpt lat="44.37364" lon="6.20665">
        <ele>1487.7775879</ele>
        <time>2016-05-03T11:35:22Z</time>
      </trkpt>
      <trkpt lat="44.37364" lon="6.20636">
        <ele>1489.2194824</ele>
        <time>2016-05-03T11:35:40Z</time>
      </trkpt>
      <trkpt lat="44.37365" lon="6.20629">
        <ele>1489.2194824</ele>
        <time>2016-05-03T11:35:44Z</time>
      </trkpt>
      <trkpt lat="44.37366" lon="6.20619">
        <ele>1489.7001953</ele>
        <time>2016-05-03T11:35:50Z</time>
      </trkpt>
      <trkpt lat="44.37367" lon="6.20615">
        <ele>1490.1809082</ele>
        <time>2016-05-03T11:35:52Z</time>
      </trkpt>
      <trkpt lat="44.37367" lon="6.20593">
        <ele>1491.1420898</ele>
        <time>2016-05-03T11:36:05Z</time>
      </trkpt>
      <trkpt lat="44.37367" lon="6.20586">
        <ele>1491.1420898</ele>
        <time>2016-05-03T11:36:09Z</time>
      </trkpt>
      <trkpt lat="44.37366" lon="6.20582">
        <ele>1491.6228027</ele>
        <time>2016-05-03T11:36:12Z</time>
      </trkpt>
      <trkpt lat="44.37367" lon="6.20547">
        <ele>1494.026123</ele>
        <time>2016-05-03T11:36:32Z</time>
      </trkpt>
      <trkpt lat="44.37368" lon="6.20519">
        <ele>1495.4680176</ele>
        <time>2016-05-03T11:36:48Z</time>
      </trkpt>
      <trkpt lat="44.37368" lon="6.20509">
        <ele>1495.9487305</ele>
        <time>2016-05-03T11:36:54Z</time>
      </trkpt>
      <trkpt lat="44.37369" lon="6.20498">
        <ele>1496.4294434</ele>
        <time>2016-05-03T11:36:59Z</time>
      </trkpt>
      <trkpt lat="44.37375" lon="6.20473">
        <ele>1496.9099121</ele>
        <time>2016-05-03T11:37:15Z</time>
      </trkpt>
      <trkpt lat="44.37375" lon="6.20474">
        <ele>1498.3518066</ele>
        <time>2016-05-03T11:38:37Z</time>
      </trkpt>
      <trkpt lat="44.37375" lon="6.20471">
        <ele>1498.3518066</ele>
        <time>2016-05-03T11:39:02Z</time>
      </trkpt>
      <trkpt lat="44.37375" lon="6.20471">
        <ele>1499.3132324</ele>
        <time>2016-05-03T11:40:18Z</time>
      </trkpt>
      <trkpt lat="44.37375" lon="6.20471">
        <ele>1499.7939453</ele>
        <time>2016-05-03T11:41:12Z</time>
      </trkpt>
      <trkpt lat="44.37376" lon="6.2047">
        <ele>1501.236084</ele>
        <time>2016-05-03T11:42:02Z</time>
      </trkpt>
      <trkpt lat="44.37377" lon="6.20466">
        <ele>1499.7939453</ele>
        <time>2016-05-03T11:42:40Z</time>
      </trkpt>
      <trkpt lat="44.37389" lon="6.20428">
        <ele>1498.8325195</ele>
        <time>2016-05-03T11:42:56Z</time>
      </trkpt>
      <trkpt lat="44.37403" lon="6.20383">
        <ele>1495.9487305</ele>
        <time>2016-05-03T11:43:13Z</time>
      </trkpt>
      <trkpt lat="44.37413" lon="6.20311">
        <ele>1493.0646973</ele>
        <time>2016-05-03T11:43:28Z</time>
      </trkpt>
      <trkpt lat="44.37416" lon="6.20256">
        <ele>1493.0646973</ele>
        <time>2016-05-03T11:43:42Z</time>
      </trkpt>
      <trkpt lat="44.37419" lon="6.202">
        <ele>1494.9873047</ele>
        <time>2016-05-03T11:43:59Z</time>
      </trkpt>
      <trkpt lat="44.37421" lon="6.20153">
        <ele>1495.4680176</ele>
        <time>2016-05-03T11:44:17Z</time>
      </trkpt>
      <trkpt lat="44.37428" lon="6.20105">
        <ele>1496.4294434</ele>
        <time>2016-05-03T11:44:37Z</time>
      </trkpt>
      <trkpt lat="44.37429" lon="6.20104">
        <ele>1496.9099121</ele>
        <time>2016-05-03T11:44:57Z</time>
      </trkpt>
      <trkpt lat="44.3743" lon="6.20104">
        <ele>1497.390625</ele>
        <time>2016-05-03T11:45:28Z</time>
      </trkpt>
      <trkpt lat="44.37437" lon="6.20085">
        <ele>1498.3518066</ele>
        <time>2016-05-03T11:46:44Z</time>
      </trkpt>
      <trkpt lat="44.37446" lon="6.20064">
        <ele>1498.8325195</ele>
        <time>2016-05-03T11:47:10Z</time>
      </trkpt>
      <trkpt lat="44.37447" lon="6.20064">
        <ele>1498.8325195</ele>
        <time>2016-05-03T11:47:29Z</time>
      </trkpt>
      <trkpt lat="44.37451" lon="6.20057">
        <ele>1498.8325195</ele>
        <time>2016-05-03T11:48:12Z</time>
      </trkpt>
      <trkpt lat="44.37453" lon="6.20052">
        <ele>1498.8325195</ele>
        <time>2016-05-03T11:48:28Z</time>
      </trkpt>
      <trkpt lat="44.3745" lon="6.20052">
        <ele>1498.8325195</ele>
        <time>2016-05-03T11:48:44Z</time>
      </trkpt>
      <trkpt lat="44.37453" lon="6.20053">
        <ele>1498.3518066</ele>
        <time>2016-05-03T11:49:46Z</time>
      </trkpt>
      <trkpt lat="44.37453" lon="6.20055">
        <ele>1499.7939453</ele>
        <time>2016-05-03T11:50:03Z</time>
      </trkpt>
      <trkpt lat="44.37454" lon="6.20054">
        <ele>1500.2749023</ele>
        <time>2016-05-03T11:50:25Z</time>
      </trkpt>
      <trkpt lat="44.37453" lon="6.20057">
        <ele>1498.8325195</ele>
        <time>2016-05-03T11:50:47Z</time>
      </trkpt>
      <trkpt lat="44.37456" lon="6.20053">
        <ele>1498.3518066</ele>
        <time>2016-05-03T11:51:00Z</time>
      </trkpt>
      <trkpt lat="44.37456" lon="6.20048">
        <ele>1497.390625</ele>
        <time>2016-05-03T11:51:11Z</time>
      </trkpt>
      <trkpt lat="44.37457" lon="6.2005">
        <ele>1497.8713379</ele>
        <time>2016-05-03T11:51:34Z</time>
      </trkpt>
      <trkpt lat="44.37456" lon="6.20051">
        <ele>1498.3518066</ele>
        <time>2016-05-03T11:51:37Z</time>
      </trkpt>
      <trkpt lat="44.37456" lon="6.20059">
        <ele>1498.8325195</ele>
        <time>2016-05-03T11:51:55Z</time>
      </trkpt>
      <trkpt lat="44.37457" lon="6.2006">
        <ele>1498.8325195</ele>
        <time>2016-05-03T11:52:10Z</time>
      </trkpt>
      <trkpt lat="44.37453" lon="6.20057">
        <ele>1498.8325195</ele>
        <time>2016-05-03T11:52:13Z</time>
      </trkpt>
      <trkpt lat="44.37454" lon="6.20062">
        <ele>1497.8713379</ele>
        <time>2016-05-03T11:52:25Z</time>
      </trkpt>
      <trkpt lat="44.37454" lon="6.20062">
        <ele>1501.236084</ele>
        <time>2016-05-03T11:57:24Z</time>
      </trkpt>
      <trkpt lat="44.37456" lon="6.20061">
        <ele>1504.1201172</ele>
        <time>2016-05-03T12:12:08Z</time>
      </trkpt>
      <trkpt lat="44.37458" lon="6.20065">
        <ele>1504.6005859</ele>
        <time>2016-05-03T12:33:47Z</time>
      </trkpt>
      <trkpt lat="44.37457" lon="6.20065">
        <ele>1505.5620117</ele>
        <time>2016-05-03T12:34:32Z</time>
      </trkpt>
      <trkpt lat="44.37456" lon="6.20064">
        <ele>1505.0812988</ele>
        <time>2016-05-03T12:35:11Z</time>
      </trkpt>
      <trkpt lat="44.37455" lon="6.20064">
        <ele>1506.5231934</ele>
        <time>2016-05-03T12:35:44Z</time>
      </trkpt>
      <trkpt lat="44.37454" lon="6.20062">
        <ele>1505.5620117</ele>
        <time>2016-05-03T12:36:02Z</time>
      </trkpt>
      <trkpt lat="44.37455" lon="6.20058">
        <ele>1505.5620117</ele>
        <time>2016-05-03T12:36:10Z</time>
      </trkpt>
      <trkpt lat="44.37456" lon="6.20054">
        <ele>1505.0812988</ele>
        <time>2016-05-03T12:36:23Z</time>
      </trkpt>
      <trkpt lat="44.37456" lon="6.20057">
        <ele>1505.0812988</ele>
        <time>2016-05-03T12:36:59Z</time>
      </trkpt>
      <trkpt lat="44.37457" lon="6.20052">
        <ele>1504.6005859</ele>
        <time>2016-05-03T12:37:18Z</time>
      </trkpt>
      <trkpt lat="44.37455" lon="6.20052">
        <ele>1504.1201172</ele>
        <time>2016-05-03T12:37:35Z</time>
      </trkpt>
      <trkpt lat="44.37455" lon="6.20051">
        <ele>1504.1201172</ele>
        <time>2016-05-03T12:38:10Z</time>
      </trkpt>
      <trkpt lat="44.37456" lon="6.2005">
        <ele>1503.6394043</ele>
        <time>2016-05-03T12:38:14Z</time>
      </trkpt>
      <trkpt lat="44.37466" lon="6.20015">
        <ele>1500.2749023</ele>
        <time>2016-05-03T12:38:23Z</time>
      </trkpt>
      <trkpt lat="44.37475" lon="6.1999">
        <ele>1498.3518066</ele>
        <time>2016-05-03T12:38:28Z</time>
      </trkpt>
      <trkpt lat="44.37475" lon="6.19955">
        <ele>1495.4680176</ele>
        <time>2016-05-03T12:38:34Z</time>
      </trkpt>
      <trkpt lat="44.37475" lon="6.19943">
        <ele>1494.5065918</ele>
        <time>2016-05-03T12:38:36Z</time>
      </trkpt>
      <trkpt lat="44.37475" lon="6.19932">
        <ele>1493.0646973</ele>
        <time>2016-05-03T12:38:38Z</time>
      </trkpt>
      <trkpt lat="44.37475" lon="6.19906">
        <ele>1490.661377</ele>
        <time>2016-05-03T12:38:43Z</time>
      </trkpt>
      <trkpt lat="44.37475" lon="6.19895">
        <ele>1489.2194824</ele>
        <time>2016-05-03T12:38:45Z</time>
      </trkpt>
      <trkpt lat="44.37476" lon="6.19875">
        <ele>1487.296875</ele>
        <time>2016-05-03T12:38:56Z</time>
      </trkpt>
      <trkpt lat="44.37477" lon="6.19876">
        <ele>1487.296875</ele>
        <time>2016-05-03T12:39:09Z</time>
      </trkpt>
      <trkpt lat="44.37476" lon="6.19878">
        <ele>1486.8161621</ele>
        <time>2016-05-03T12:39:35Z</time>
      </trkpt>
      <trkpt lat="44.37478" lon="6.19875">
        <ele>1486.8161621</ele>
        <time>2016-05-03T12:39:54Z</time>
      </trkpt>
      <trkpt lat="44.37478" lon="6.19871">
        <ele>1486.8161621</ele>
        <time>2016-05-03T12:40:08Z</time>
      </trkpt>
      <trkpt lat="44.37476" lon="6.19862">
        <ele>1484.8937988</ele>
        <time>2016-05-03T12:40:28Z</time>
      </trkpt>
      <trkpt lat="44.37476" lon="6.19863">
        <ele>1484.8937988</ele>
        <time>2016-05-03T12:40:29Z</time>
      </trkpt>
      <trkpt lat="44.37476" lon="6.19863">
        <ele>1485.3742676</ele>
        <time>2016-05-03T12:40:35Z</time>
      </trkpt>
      <trkpt lat="44.37473" lon="6.19854">
        <ele>1485.3742676</ele>
        <time>2016-05-03T12:40:38Z</time>
      </trkpt>
      <trkpt lat="44.37468" lon="6.19826">
        <ele>1482.9707031</ele>
        <time>2016-05-03T12:40:47Z</time>
      </trkpt>
      <trkpt lat="44.37473" lon="6.19824">
        <ele>1482.0095215</ele>
        <time>2016-05-03T12:41:00Z</time>
      </trkpt>
      <trkpt lat="44.37477" lon="6.19828">
        <ele>1481.5288086</ele>
        <time>2016-05-03T12:41:04Z</time>
      </trkpt>
      <trkpt lat="44.37483" lon="6.19838">
        <ele>1478.6450195</ele>
        <time>2016-05-03T12:41:11Z</time>
      </trkpt>
      <trkpt lat="44.37496" lon="6.19842">
        <ele>1475.7609863</ele>
        <time>2016-05-03T12:41:18Z</time>
      </trkpt>
      <trkpt lat="44.37507" lon="6.19842">
        <ele>1471.9157715</ele>
        <time>2016-05-03T12:41:24Z</time>
      </trkpt>
      <trkpt lat="44.37514" lon="6.19848">
        <ele>1470.473877</ele>
        <time>2016-05-03T12:41:27Z</time>
      </trkpt>
      <trkpt lat="44.37528" lon="6.1986">
        <ele>1466.628418</ele>
        <time>2016-05-03T12:41:33Z</time>
      </trkpt>
      <trkpt lat="44.37531" lon="6.19862">
        <ele>1466.628418</ele>
        <time>2016-05-03T12:41:34Z</time>
      </trkpt>
      <trkpt lat="44.37539" lon="6.19873">
        <ele>1463.7443848</ele>
        <time>2016-05-03T12:41:39Z</time>
      </trkpt>
      <trkpt lat="44.37542" lon="6.19877">
        <ele>1461.8220215</ele>
        <time>2016-05-03T12:41:42Z</time>
      </trkpt>
      <trkpt lat="44.37545" lon="6.19886">
        <ele>1460.3798828</ele>
        <time>2016-05-03T12:41:45Z</time>
      </trkpt>
      <trkpt lat="44.37546" lon="6.19889">
        <ele>1459.4187012</ele>
        <time>2016-05-03T12:41:46Z</time>
      </trkpt>
      <trkpt lat="44.37547" lon="6.19892">
        <ele>1458.4572754</ele>
        <time>2016-05-03T12:41:48Z</time>
      </trkpt>
      <trkpt lat="44.37549" lon="6.19896">
        <ele>1457.4960938</ele>
        <time>2016-05-03T12:41:50Z</time>
      </trkpt>
      <trkpt lat="44.37561" lon="6.19907">
        <ele>1455.0927734</ele>
        <time>2016-05-03T12:41:55Z</time>
      </trkpt>
      <trkpt lat="44.37579" lon="6.19922">
        <ele>1451.2473145</ele>
        <time>2016-05-03T12:42:00Z</time>
      </trkpt>
      <trkpt lat="44.37585" lon="6.19926">
        <ele>1450.2861328</ele>
        <time>2016-05-03T12:42:02Z</time>
      </trkpt>
      <trkpt lat="44.3759" lon="6.1993">
        <ele>1448.8439941</ele>
        <time>2016-05-03T12:42:04Z</time>
      </trkpt>
      <trkpt lat="44.37595" lon="6.19936">
        <ele>1447.4020996</ele>
        <time>2016-05-03T12:42:06Z</time>
      </trkpt>
      <trkpt lat="44.37602" lon="6.19947">
        <ele>1444.9987793</ele>
        <time>2016-05-03T12:42:09Z</time>
      </trkpt>
      <trkpt lat="44.37613" lon="6.19961">
        <ele>1442.1149902</ele>
        <time>2016-05-03T12:42:14Z</time>
      </trkpt>
      <trkpt lat="44.37619" lon="6.19966">
        <ele>1440.1923828</ele>
        <time>2016-05-03T12:42:16Z</time>
      </trkpt>
      <trkpt lat="44.37624" lon="6.19971">
        <ele>1438.7504883</ele>
        <time>2016-05-03T12:42:18Z</time>
      </trkpt>
      <trkpt lat="44.37632" lon="6.19985">
        <ele>1435.8662109</ele>
        <time>2016-05-03T12:42:23Z</time>
      </trkpt>
      <trkpt lat="44.37646" lon="6.19999">
        <ele>1432.501709</ele>
        <time>2016-05-03T12:42:30Z</time>
      </trkpt>
      <trkpt lat="44.37649" lon="6.20001">
        <ele>1431.5402832</ele>
        <time>2016-05-03T12:42:31Z</time>
      </trkpt>
      <trkpt lat="44.37655" lon="6.20003">
        <ele>1430.5791016</ele>
        <time>2016-05-03T12:42:34Z</time>
      </trkpt>
      <trkpt lat="44.3766" lon="6.20001">
        <ele>1429.6176758</ele>
        <time>2016-05-03T12:42:36Z</time>
      </trkpt>
      <trkpt lat="44.37662" lon="6.19995">
        <ele>1427.2145996</ele>
        <time>2016-05-03T12:42:39Z</time>
      </trkpt>
      <trkpt lat="44.37664" lon="6.19992">
        <ele>1425.7724609</ele>
        <time>2016-05-03T12:42:41Z</time>
      </trkpt>
      <trkpt lat="44.37668" lon="6.19978">
        <ele>1422.8886719</ele>
        <time>2016-05-03T12:42:46Z</time>
      </trkpt>
      <trkpt lat="44.37669" lon="6.19973">
        <ele>1421.4465332</ele>
        <time>2016-05-03T12:42:48Z</time>
      </trkpt>
      <trkpt lat="44.37673" lon="6.19957">
        <ele>1419.0432129</ele>
        <time>2016-05-03T12:42:53Z</time>
      </trkpt>
      <trkpt lat="44.37676" lon="6.19953">
        <ele>1418.0817871</ele>
        <time>2016-05-03T12:42:55Z</time>
      </trkpt>
      <trkpt lat="44.37682" lon="6.19951">
        <ele>1415.197998</ele>
        <time>2016-05-03T12:42:59Z</time>
      </trkpt>
      <trkpt lat="44.37686" lon="6.19954">
        <ele>1414.2365723</ele>
        <time>2016-05-03T12:43:03Z</time>
      </trkpt>
      <trkpt lat="44.3769" lon="6.1996">
        <ele>1412.3139648</ele>
        <time>2016-05-03T12:43:06Z</time>
      </trkpt>
      <trkpt lat="44.37694" lon="6.19967">
        <ele>1410.8720703</ele>
        <time>2016-05-03T12:43:10Z</time>
      </trkpt>
      <trkpt lat="44.37697" lon="6.19975">
        <ele>1408.9494629</ele>
        <time>2016-05-03T12:43:16Z</time>
      </trkpt>
      <trkpt lat="44.37699" lon="6.19977">
        <ele>1407.5075684</ele>
        <time>2016-05-03T12:43:17Z</time>
      </trkpt>
      <trkpt lat="44.377" lon="6.19983">
        <ele>1406.0654297</ele>
        <time>2016-05-03T12:43:20Z</time>
      </trkpt>
      <trkpt lat="44.37703" lon="6.1999">
        <ele>1404.6235352</ele>
        <time>2016-05-03T12:43:23Z</time>
      </trkpt>
      <trkpt lat="44.3771" lon="6.19995">
        <ele>1402.2199707</ele>
        <time>2016-05-03T12:43:27Z</time>
      </trkpt>
      <trkpt lat="44.37715" lon="6.19994">
        <ele>1400.2976074</ele>
        <time>2016-05-03T12:43:30Z</time>
      </trkpt>
      <trkpt lat="44.37722" lon="6.19991">
        <ele>1397.8942871</ele>
        <time>2016-05-03T12:43:34Z</time>
      </trkpt>
      <trkpt lat="44.37731" lon="6.19985">
        <ele>1395.4909668</ele>
        <time>2016-05-03T12:43:37Z</time>
      </trkpt>
      <trkpt lat="44.37736" lon="6.1998">
        <ele>1393.5683594</ele>
        <time>2016-05-03T12:43:39Z</time>
      </trkpt>
      <trkpt lat="44.3774" lon="6.19976">
        <ele>1392.1264648</ele>
        <time>2016-05-03T12:43:41Z</time>
      </trkpt>
      <trkpt lat="44.37748" lon="6.19966">
        <ele>1389.7231445</ele>
        <time>2016-05-03T12:43:44Z</time>
      </trkpt>
      <trkpt lat="44.37751" lon="6.19958">
        <ele>1388.28125</ele>
        <time>2016-05-03T12:43:46Z</time>
      </trkpt>
      <trkpt lat="44.37752" lon="6.19934">
        <ele>1387.800293</ele>
        <time>2016-05-03T12:43:50Z</time>
      </trkpt>
      <trkpt lat="44.37745" lon="6.1992">
        <ele>1386.8388672</ele>
        <time>2016-05-03T12:43:54Z</time>
      </trkpt>
      <trkpt lat="44.37735" lon="6.19894">
        <ele>1384.435791</ele>
        <time>2016-05-03T12:44:00Z</time>
      </trkpt>
      <trkpt lat="44.37736" lon="6.1986">
        <ele>1383.9550781</ele>
        <time>2016-05-03T12:44:09Z</time>
      </trkpt>
      <trkpt lat="44.37737" lon="6.19859">
        <ele>1383.4743652</ele>
        <time>2016-05-03T12:44:37Z</time>
      </trkpt>
      <trkpt lat="44.37736" lon="6.19856">
        <ele>1382.9936523</ele>
        <time>2016-05-03T12:44:39Z</time>
      </trkpt>
      <trkpt lat="44.37735" lon="6.19845">
        <ele>1381.0712891</ele>
        <time>2016-05-03T12:44:45Z</time>
      </trkpt>
      <trkpt lat="44.37739" lon="6.19837">
        <ele>1379.1484375</ele>
        <time>2016-05-03T12:44:49Z</time>
      </trkpt>
      <trkpt lat="44.37742" lon="6.19835">
        <ele>1378.1872559</ele>
        <time>2016-05-03T12:44:51Z</time>
      </trkpt>
      <trkpt lat="44.37745" lon="6.19833">
        <ele>1376.7453613</ele>
        <time>2016-05-03T12:44:53Z</time>
      </trkpt>
      <trkpt lat="44.37753" lon="6.19837">
        <ele>1374.342041</ele>
        <time>2016-05-03T12:45:02Z</time>
      </trkpt>
      <trkpt lat="44.37765" lon="6.19852">
        <ele>1371.4577637</ele>
        <time>2016-05-03T12:45:10Z</time>
      </trkpt>
      <trkpt lat="44.37768" lon="6.19859">
        <ele>1370.9772949</ele>
        <time>2016-05-03T12:45:12Z</time>
      </trkpt>
      <trkpt lat="44.37772" lon="6.19866">
        <ele>1369.5354004</ele>
        <time>2016-05-03T12:45:14Z</time>
      </trkpt>
      <trkpt lat="44.37792" lon="6.19887">
        <ele>1366.1706543</ele>
        <time>2016-05-03T12:45:24Z</time>
      </trkpt>
      <trkpt lat="44.378" lon="6.19892">
        <ele>1362.8061523</ele>
        <time>2016-05-03T12:45:27Z</time>
      </trkpt>
      <trkpt lat="44.37802" lon="6.19892">
        <ele>1362.8061523</ele>
        <time>2016-05-03T12:45:28Z</time>
      </trkpt>
      <trkpt lat="44.37805" lon="6.19892">
        <ele>1361.8449707</ele>
        <time>2016-05-03T12:45:30Z</time>
      </trkpt>
      <trkpt lat="44.37823" lon="6.19899">
        <ele>1357.9997559</ele>
        <time>2016-05-03T12:45:43Z</time>
      </trkpt>
      <trkpt lat="44.37828" lon="6.19899">
        <ele>1357.9997559</ele>
        <time>2016-05-03T12:45:44Z</time>
      </trkpt>
      <trkpt lat="44.37848" lon="6.19898">
        <ele>1353.1928711</ele>
        <time>2016-05-03T12:45:48Z</time>
      </trkpt>
      <trkpt lat="44.37853" lon="6.19898">
        <ele>1353.1928711</ele>
        <time>2016-05-03T12:45:49Z</time>
      </trkpt>
      <trkpt lat="44.37862" lon="6.19898">
        <ele>1351.7509766</ele>
        <time>2016-05-03T12:45:51Z</time>
      </trkpt>
      <trkpt lat="44.37866" lon="6.19898">
        <ele>1350.309082</ele>
        <time>2016-05-03T12:45:52Z</time>
      </trkpt>
      <trkpt lat="44.37879" lon="6.19895">
        <ele>1346.4638672</ele>
        <time>2016-05-03T12:45:55Z</time>
      </trkpt>
      <trkpt lat="44.37884" lon="6.19893">
        <ele>1346.4638672</ele>
        <time>2016-05-03T12:45:56Z</time>
      </trkpt>
      <trkpt lat="44.37893" lon="6.19886">
        <ele>1345.0217285</ele>
        <time>2016-05-03T12:46:06Z</time>
      </trkpt>
      <trkpt lat="44.37894" lon="6.19888">
        <ele>1345.5024414</ele>
        <time>2016-05-03T12:46:37Z</time>
      </trkpt>
      <trkpt lat="44.37897" lon="6.1989">
        <ele>1345.0217285</ele>
        <time>2016-05-03T12:47:47Z</time>
      </trkpt>
      <trkpt lat="44.37903" lon="6.19894">
        <ele>1344.0605469</ele>
        <time>2016-05-03T12:47:51Z</time>
      </trkpt>
      <trkpt lat="44.37906" lon="6.19901">
        <ele>1343.579834</ele>
        <time>2016-05-03T12:47:55Z</time>
      </trkpt>
      <trkpt lat="44.37929" lon="6.19934">
        <ele>1342.1379395</ele>
        <time>2016-05-03T12:48:07Z</time>
      </trkpt>
      <trkpt lat="44.37936" lon="6.19945">
        <ele>1342.6186523</ele>
        <time>2016-05-03T12:48:12Z</time>
      </trkpt>
      <trkpt lat="44.37936" lon="6.19953">
        <ele>1342.6186523</ele>
        <time>2016-05-03T12:48:16Z</time>
      </trkpt>
      <trkpt lat="44.3794" lon="6.19988">
        <ele>1341.6572266</ele>
        <time>2016-05-03T12:48:28Z</time>
      </trkpt>
      <trkpt lat="44.37958" lon="6.20028">
        <ele>1341.1765137</ele>
        <time>2016-05-03T12:48:42Z</time>
      </trkpt>
      <trkpt lat="44.3797" lon="6.20052">
        <ele>1341.1765137</ele>
        <time>2016-05-03T12:48:52Z</time>
      </trkpt>
      <trkpt lat="44.37975" lon="6.20052">
        <ele>1340.215332</ele>
        <time>2016-05-03T12:48:55Z</time>
      </trkpt>
      <trkpt lat="44.37978" lon="6.20055">
        <ele>1338.7731934</ele>
        <time>2016-05-03T12:48:58Z</time>
      </trkpt>
      <trkpt lat="44.37983" lon="6.20056">
        <ele>1337.3310547</ele>
        <time>2016-05-03T12:49:01Z</time>
      </trkpt>
      <trkpt lat="44.37999" lon="6.20062">
        <ele>1333.9665527</ele>
        <time>2016-05-03T12:49:13Z</time>
      </trkpt>
      <trkpt lat="44.38002" lon="6.20063">
        <ele>1333.4858398</ele>
        <time>2016-05-03T12:49:15Z</time>
      </trkpt>
      <trkpt lat="44.38009" lon="6.20065">
        <ele>1332.0439453</ele>
        <time>2016-05-03T12:49:20Z</time>
      </trkpt>
      <trkpt lat="44.38021" lon="6.20069">
        <ele>1330.1213379</ele>
        <time>2016-05-03T12:49:33Z</time>
      </trkpt>
      <trkpt lat="44.38025" lon="6.20075">
        <ele>1328.6794434</ele>
        <time>2016-05-03T12:49:53Z</time>
      </trkpt>
      <trkpt lat="44.38027" lon="6.20086">
        <ele>1326.7568359</ele>
        <time>2016-05-03T12:50:07Z</time>
      </trkpt>
      <trkpt lat="44.38029" lon="6.20088">
        <ele>1326.276123</ele>
        <time>2016-05-03T12:50:09Z</time>
      </trkpt>
      <trkpt lat="44.38031" lon="6.20096">
        <ele>1325.3146973</ele>
        <time>2016-05-03T12:50:13Z</time>
      </trkpt>
      <trkpt lat="44.38039" lon="6.201">
        <ele>1322.911377</ele>
        <time>2016-05-03T12:50:27Z</time>
      </trkpt>
      <trkpt lat="44.38046" lon="6.20087">
        <ele>1323.8725586</ele>
        <time>2016-05-03T12:50:39Z</time>
      </trkpt>
      <trkpt lat="44.3805" lon="6.20074">
        <ele>1323.8725586</ele>
        <time>2016-05-03T12:50:53Z</time>
      </trkpt>
      <trkpt lat="44.38048" lon="6.20073">
        <ele>1324.3535156</ele>
        <time>2016-05-03T12:50:59Z</time>
      </trkpt>
      <trkpt lat="44.38049" lon="6.20055">
        <ele>1322.911377</ele>
        <time>2016-05-03T12:51:04Z</time>
      </trkpt>
      <trkpt lat="44.38047" lon="6.20044">
        <ele>1321.4692383</ele>
        <time>2016-05-03T12:51:07Z</time>
      </trkpt>
      <trkpt lat="44.38044" lon="6.20031">
        <ele>1320.9887695</ele>
        <time>2016-05-03T12:51:11Z</time>
      </trkpt>
      <trkpt lat="44.38033" lon="6.20007">
        <ele>1317.1435547</ele>
        <time>2016-05-03T12:51:17Z</time>
      </trkpt>
      <trkpt lat="44.38019" lon="6.19964">
        <ele>1318.5854492</ele>
        <time>2016-05-03T12:51:27Z</time>
      </trkpt>
      <trkpt lat="44.38017" lon="6.19955">
        <ele>1317.1435547</ele>
        <time>2016-05-03T12:51:33Z</time>
      </trkpt>
      <trkpt lat="44.38008" lon="6.19929">
        <ele>1315.2209473</ele>
        <time>2016-05-03T12:51:41Z</time>
      </trkpt>
      <trkpt lat="44.37988" lon="6.19902">
        <ele>1316.6628418</ele>
        <time>2016-05-03T12:51:50Z</time>
      </trkpt>
      <trkpt lat="44.37968" lon="6.19858">
        <ele>1315.2209473</ele>
        <time>2016-05-03T12:52:04Z</time>
      </trkpt>
      <trkpt lat="44.37966" lon="6.19847">
        <ele>1316.6628418</ele>
        <time>2016-05-03T12:52:16Z</time>
      </trkpt>
      <trkpt lat="44.37963" lon="6.19834">
        <ele>1317.1435547</ele>
        <time>2016-05-03T12:52:54Z</time>
      </trkpt>
      <trkpt lat="44.37964" lon="6.19824">
        <ele>1318.1047363</ele>
        <time>2016-05-03T12:53:11Z</time>
      </trkpt>
      <trkpt lat="44.37966" lon="6.19828">
        <ele>1317.1435547</ele>
        <time>2016-05-03T12:54:04Z</time>
      </trkpt>
      <trkpt lat="44.37969" lon="6.19844">
        <ele>1316.6628418</ele>
        <time>2016-05-03T12:54:27Z</time>
      </trkpt>
      <trkpt lat="44.37969" lon="6.19845">
        <ele>1316.1821289</ele>
        <time>2016-05-03T12:54:43Z</time>
      </trkpt>
      <trkpt lat="44.37969" lon="6.19845">
        <ele>1319.0661621</ele>
        <time>2016-05-03T12:54:45Z</time>
      </trkpt>
      <trkpt lat="44.37969" lon="6.19844">
        <ele>1319.0661621</ele>
        <time>2016-05-03T12:54:46Z</time>
      </trkpt>
      <trkpt lat="44.37969" lon="6.19845">
        <ele>1317.6240234</ele>
        <time>2016-05-03T12:54:48Z</time>
      </trkpt>
      <trkpt lat="44.3797" lon="6.19853">
        <ele>1318.5854492</ele>
        <time>2016-05-03T12:55:08Z</time>
      </trkpt>
      <trkpt lat="44.37972" lon="6.19855">
        <ele>1318.1047363</ele>
        <time>2016-05-03T12:55:15Z</time>
      </trkpt>
      <trkpt lat="44.37975" lon="6.19863">
        <ele>1317.1435547</ele>
        <time>2016-05-03T12:55:19Z</time>
      </trkpt>
      <trkpt lat="44.37979" lon="6.19873">
        <ele>1316.6628418</ele>
        <time>2016-05-03T12:55:23Z</time>
      </trkpt>
      <trkpt lat="44.37986" lon="6.19895">
        <ele>1315.2209473</ele>
        <time>2016-05-03T12:55:33Z</time>
      </trkpt>
      <trkpt lat="44.37994" lon="6.1993">
        <ele>1314.7402344</ele>
        <time>2016-05-03T12:55:50Z</time>
      </trkpt>
      <trkpt lat="44.37993" lon="6.19932">
        <ele>1314.7402344</ele>
        <time>2016-05-03T12:55:51Z</time>
      </trkpt>
      <trkpt lat="44.38006" lon="6.19949">
        <ele>1316.6628418</ele>
        <time>2016-05-03T12:56:04Z</time>
      </trkpt>
      <trkpt lat="44.38013" lon="6.19962">
        <ele>1317.1435547</ele>
        <time>2016-05-03T12:56:18Z</time>
      </trkpt>
      <trkpt lat="44.38025" lon="6.19969">
        <ele>1316.6628418</ele>
        <time>2016-05-03T12:56:30Z</time>
      </trkpt>
      <trkpt lat="44.38027" lon="6.19973">
        <ele>1317.1435547</ele>
        <time>2016-05-03T12:56:33Z</time>
      </trkpt>
      <trkpt lat="44.38033" lon="6.20008">
        <ele>1316.1821289</ele>
        <time>2016-05-03T12:56:46Z</time>
      </trkpt>
      <trkpt lat="44.38039" lon="6.20016">
        <ele>1317.1435547</ele>
        <time>2016-05-03T12:56:57Z</time>
      </trkpt>
      <trkpt lat="44.38039" lon="6.20013">
        <ele>1317.6240234</ele>
        <time>2016-05-03T12:57:22Z</time>
      </trkpt>
      <trkpt lat="44.38039" lon="6.19996">
        <ele>1316.6628418</ele>
        <time>2016-05-03T12:57:41Z</time>
      </trkpt>
      <trkpt lat="44.38051" lon="6.20001">
        <ele>1315.2209473</ele>
        <time>2016-05-03T12:58:01Z</time>
      </trkpt>
      <trkpt lat="44.38054" lon="6.20008">
        <ele>1314.7402344</ele>
        <time>2016-05-03T12:58:07Z</time>
      </trkpt>
      <trkpt lat="44.38061" lon="6.20017">
        <ele>1314.2595215</ele>
        <time>2016-05-03T12:58:23Z</time>
      </trkpt>
      <trkpt lat="44.38068" lon="6.20033">
        <ele>1311.8564453</ele>
        <time>2016-05-03T12:58:34Z</time>
      </trkpt>
      <trkpt lat="44.38077" lon="6.20047">
        <ele>1309.9335938</ele>
        <time>2016-05-03T12:58:40Z</time>
      </trkpt>
      <trkpt lat="44.3809" lon="6.20059">
        <ele>1308.0112305</ele>
        <time>2016-05-03T12:58:47Z</time>
      </trkpt>
      <trkpt lat="44.38104" lon="6.20072">
        <ele>1306.0881348</ele>
        <time>2016-05-03T12:58:58Z</time>
      </trkpt>
      <trkpt lat="44.38111" lon="6.20073">
        <ele>1304.1657715</ele>
        <time>2016-05-03T12:59:17Z</time>
      </trkpt>
      <trkpt lat="44.38112" lon="6.20072">
        <ele>1304.1657715</ele>
        <time>2016-05-03T12:59:31Z</time>
      </trkpt>
      <trkpt lat="44.38117" lon="6.2007">
        <ele>1302.2429199</ele>
        <time>2016-05-03T12:59:46Z</time>
      </trkpt>
      <trkpt lat="44.38121" lon="6.20064">
        <ele>1300.3205566</ele>
        <time>2016-05-03T13:00:00Z</time>
      </trkpt>
      <trkpt lat="44.3813" lon="6.2006">
        <ele>1297.9172363</ele>
        <time>2016-05-03T13:00:18Z</time>
      </trkpt>
      <trkpt lat="44.38137" lon="6.20068">
        <ele>1296.9558105</ele>
        <time>2016-05-03T13:00:33Z</time>
      </trkpt>
      <trkpt lat="44.38143" lon="6.20058">
        <ele>1295.513916</ele>
        <time>2016-05-03T13:00:48Z</time>
      </trkpt>
      <trkpt lat="44.38143" lon="6.20057">
        <ele>1295.513916</ele>
        <time>2016-05-03T13:00:49Z</time>
      </trkpt>
      <trkpt lat="44.3815" lon="6.20054">
        <ele>1292.1494141</ele>
        <time>2016-05-03T13:01:02Z</time>
      </trkpt>
      <trkpt lat="44.38151" lon="6.20043">
        <ele>1289.2651367</ele>
        <time>2016-05-03T13:01:20Z</time>
      </trkpt>
      <trkpt lat="44.38151" lon="6.20039">
        <ele>1287.3425293</ele>
        <time>2016-05-03T13:01:40Z</time>
      </trkpt>
      <trkpt lat="44.38151" lon="6.20033">
        <ele>1287.3425293</ele>
        <time>2016-05-03T13:02:00Z</time>
      </trkpt>
      <trkpt lat="44.38155" lon="6.2002">
        <ele>1284.9394531</ele>
        <time>2016-05-03T13:02:20Z</time>
      </trkpt>
      <trkpt lat="44.38163" lon="6.20012">
        <ele>1282.5361328</ele>
        <time>2016-05-03T13:02:39Z</time>
      </trkpt>
      <trkpt lat="44.38168" lon="6.20006">
        <ele>1281.574707</ele>
        <time>2016-05-03T13:02:54Z</time>
      </trkpt>
      <trkpt lat="44.38175" lon="6.19995">
        <ele>1279.1713867</ele>
        <time>2016-05-03T13:03:10Z</time>
      </trkpt>
      <trkpt lat="44.38174" lon="6.1999">
        <ele>1278.2102051</ele>
        <time>2016-05-03T13:03:18Z</time>
      </trkpt>
      <trkpt lat="44.38171" lon="6.19978">
        <ele>1277.2490234</ele>
        <time>2016-05-03T13:03:32Z</time>
      </trkpt>
      <trkpt lat="44.38175" lon="6.19973">
        <ele>1276.2875977</ele>
        <time>2016-05-03T13:04:01Z</time>
      </trkpt>
      <trkpt lat="44.38177" lon="6.19969">
        <ele>1276.2875977</ele>
        <time>2016-05-03T13:04:14Z</time>
      </trkpt>
      <trkpt lat="44.38183" lon="6.19966">
        <ele>1274.845459</ele>
        <time>2016-05-03T13:04:18Z</time>
      </trkpt>
      <trkpt lat="44.38189" lon="6.19962">
        <ele>1273.4035645</ele>
        <time>2016-05-03T13:04:30Z</time>
      </trkpt>
      <trkpt lat="44.38208" lon="6.19949">
        <ele>1271.4807129</ele>
        <time>2016-05-03T13:04:42Z</time>
      </trkpt>
      <trkpt lat="44.3821" lon="6.19945">
        <ele>1271.4807129</ele>
        <time>2016-05-03T13:04:43Z</time>
      </trkpt>
      <trkpt lat="44.38225" lon="6.19929">
        <ele>1271.0002441</ele>
        <time>2016-05-03T13:04:54Z</time>
      </trkpt>
      <trkpt lat="44.38237" lon="6.19923">
        <ele>1269.5583496</ele>
        <time>2016-05-03T13:05:02Z</time>
      </trkpt>
      <trkpt lat="44.38249" lon="6.19919">
        <ele>1267.635498</ele>
        <time>2016-05-03T13:05:06Z</time>
      </trkpt>
      <trkpt lat="44.38261" lon="6.19905">
        <ele>1264.751709</ele>
        <time>2016-05-03T13:05:14Z</time>
      </trkpt>
      <trkpt lat="44.38263" lon="6.199">
        <ele>1263.7902832</ele>
        <time>2016-05-03T13:05:16Z</time>
      </trkpt>
      <trkpt lat="44.38266" lon="6.19895">
        <ele>1262.3483887</ele>
        <time>2016-05-03T13:05:18Z</time>
      </trkpt>
      <trkpt lat="44.3827" lon="6.19893">
        <ele>1260.9064941</ele>
        <time>2016-05-03T13:05:19Z</time>
      </trkpt>
      <trkpt lat="44.38282" lon="6.19888">
        <ele>1259.4643555</ele>
        <time>2016-05-03T13:05:23Z</time>
      </trkpt>
      <trkpt lat="44.38295" lon="6.19881">
        <ele>1256.5803223</ele>
        <time>2016-05-03T13:05:31Z</time>
      </trkpt>
      <trkpt lat="44.38296" lon="6.19881">
        <ele>1256.5803223</ele>
        <time>2016-05-03T13:05:32Z</time>
      </trkpt>
      <trkpt lat="44.38322" lon="6.19895">
        <ele>1255.6191406</ele>
        <time>2016-05-03T13:05:46Z</time>
      </trkpt>
      <trkpt lat="44.38353" lon="6.19901">
        <ele>1256.5803223</ele>
        <time>2016-05-03T13:06:04Z</time>
      </trkpt>
      <trkpt lat="44.38367" lon="6.19907">
        <ele>1257.0610352</ele>
        <time>2016-05-03T13:06:17Z</time>
      </trkpt>
      <trkpt lat="44.38378" lon="6.19915">
        <ele>1258.9836426</ele>
        <time>2016-05-03T13:06:36Z</time>
      </trkpt>
      <trkpt lat="44.3838" lon="6.19917">
        <ele>1258.5029297</ele>
        <time>2016-05-03T13:06:51Z</time>
      </trkpt>
      <trkpt lat="44.38384" lon="6.19919">
        <ele>1258.9836426</ele>
        <time>2016-05-03T13:07:06Z</time>
      </trkpt>
      <trkpt lat="44.384" lon="6.19928">
        <ele>1258.0224609</ele>
        <time>2016-05-03T13:07:19Z</time>
      </trkpt>
      <trkpt lat="44.38405" lon="6.19931">
        <ele>1257.0610352</ele>
        <time>2016-05-03T13:07:21Z</time>
      </trkpt>
      <trkpt lat="44.38441" lon="6.19944">
        <ele>1255.1384277</ele>
        <time>2016-05-03T13:07:34Z</time>
      </trkpt>
      <trkpt lat="44.38469" lon="6.19942">
        <ele>1256.0996094</ele>
        <time>2016-05-03T13:07:53Z</time>
      </trkpt>
      <trkpt lat="44.38495" lon="6.19942">
        <ele>1254.6577148</ele>
        <time>2016-05-03T13:08:04Z</time>
      </trkpt>
      <trkpt lat="44.3851" lon="6.19939">
        <ele>1253.2158203</ele>
        <time>2016-05-03T13:08:07Z</time>
      </trkpt>
      <trkpt lat="44.38529" lon="6.19932">
        <ele>1252.7351074</ele>
        <time>2016-05-03T13:08:17Z</time>
      </trkpt>
      <trkpt lat="44.38554" lon="6.19914">
        <ele>1251.2932129</ele>
        <time>2016-05-03T13:08:35Z</time>
      </trkpt>
      <trkpt lat="44.38579" lon="6.19912">
        <ele>1249.8513184</ele>
        <time>2016-05-03T13:08:48Z</time>
      </trkpt>
      <trkpt lat="44.38615" lon="6.19946">
        <ele>1246.4868164</ele>
        <time>2016-05-03T13:09:03Z</time>
      </trkpt>
      <trkpt lat="44.38633" lon="6.19959">
        <ele>1243.1218262</ele>
        <time>2016-05-03T13:09:10Z</time>
      </trkpt>
      <trkpt lat="44.38636" lon="6.19961">
        <ele>1243.6025391</ele>
        <time>2016-05-03T13:09:11Z</time>
      </trkpt>
      <trkpt lat="44.38659" lon="6.1998">
        <ele>1240.2380371</ele>
        <time>2016-05-03T13:09:20Z</time>
      </trkpt>
      <trkpt lat="44.38671" lon="6.20005">
        <ele>1237.3540039</ele>
        <time>2016-05-03T13:09:31Z</time>
      </trkpt>
      <trkpt lat="44.38674" lon="6.20009">
        <ele>1235.9121094</ele>
        <time>2016-05-03T13:09:33Z</time>
      </trkpt>
      <trkpt lat="44.38675" lon="6.20011">
        <ele>1236.3928223</ele>
        <time>2016-05-03T13:09:34Z</time>
      </trkpt>
      <trkpt lat="44.38682" lon="6.2002">
        <ele>1233.989502</ele>
        <time>2016-05-03T13:09:41Z</time>
      </trkpt>
      <trkpt lat="44.38685" lon="6.20022">
        <ele>1232.5476074</ele>
        <time>2016-05-03T13:09:54Z</time>
      </trkpt>
      <trkpt lat="44.38691" lon="6.20028">
        <ele>1231.1057129</ele>
        <time>2016-05-03T13:10:10Z</time>
      </trkpt>
      <trkpt lat="44.38695" lon="6.20031">
        <ele>1229.1828613</ele>
        <time>2016-05-03T13:10:16Z</time>
      </trkpt>
      <trkpt lat="44.38704" lon="6.20039">
        <ele>1225.8181152</ele>
        <time>2016-05-03T13:10:23Z</time>
      </trkpt>
      <trkpt lat="44.38705" lon="6.20041">
        <ele>1225.8181152</ele>
        <time>2016-05-03T13:10:24Z</time>
      </trkpt>
      <trkpt lat="44.38715" lon="6.20051">
        <ele>1222.9343262</ele>
        <time>2016-05-03T13:10:30Z</time>
      </trkpt>
      <trkpt lat="44.38717" lon="6.20053">
        <ele>1222.9343262</ele>
        <time>2016-05-03T13:10:31Z</time>
      </trkpt>
      <trkpt lat="44.38726" lon="6.2006">
        <ele>1221.0117188</ele>
        <time>2016-05-03T13:10:35Z</time>
      </trkpt>
      <trkpt lat="44.38736" lon="6.2007">
        <ele>1217.6469727</ele>
        <time>2016-05-03T13:10:41Z</time>
      </trkpt>
      <trkpt lat="44.38744" lon="6.2008">
        <ele>1215.7246094</ele>
        <time>2016-05-03T13:10:47Z</time>
      </trkpt>
      <trkpt lat="44.38757" lon="6.20101">
        <ele>1212.3598633</ele>
        <time>2016-05-03T13:10:55Z</time>
      </trkpt>
      <trkpt lat="44.38765" lon="6.20115">
        <ele>1209.4758301</ele>
        <time>2016-05-03T13:11:01Z</time>
      </trkpt>
      <trkpt lat="44.38771" lon="6.20125">
        <ele>1205.1499023</ele>
        <time>2016-05-03T13:11:07Z</time>
      </trkpt>
      <trkpt lat="44.38772" lon="6.20127">
        <ele>1205.1499023</ele>
        <time>2016-05-03T13:11:08Z</time>
      </trkpt>
      <trkpt lat="44.38778" lon="6.20133">
        <ele>1202.746582</ele>
        <time>2016-05-03T13:11:12Z</time>
      </trkpt>
      <trkpt lat="44.38783" lon="6.2014">
        <ele>1200.8239746</ele>
        <time>2016-05-03T13:11:15Z</time>
      </trkpt>
      <trkpt lat="44.38787" lon="6.20143">
        <ele>1198.9013672</ele>
        <time>2016-05-03T13:11:17Z</time>
      </trkpt>
      <trkpt lat="44.38795" lon="6.2015">
        <ele>1196.9787598</ele>
        <time>2016-05-03T13:11:21Z</time>
      </trkpt>
      <trkpt lat="44.38806" lon="6.20164">
        <ele>1193.6140137</ele>
        <time>2016-05-03T13:11:27Z</time>
      </trkpt>
      <trkpt lat="44.38813" lon="6.20171">
        <ele>1191.6914063</ele>
        <time>2016-05-03T13:11:31Z</time>
      </trkpt>
      <trkpt lat="44.38825" lon="6.2019">
        <ele>1188.8076172</ele>
        <time>2016-05-03T13:11:38Z</time>
      </trkpt>
      <trkpt lat="44.38841" lon="6.20211">
        <ele>1184.9624023</ele>
        <time>2016-05-03T13:11:46Z</time>
      </trkpt>
      <trkpt lat="44.3885" lon="6.20221">
        <ele>1181.5976563</ele>
        <time>2016-05-03T13:11:53Z</time>
      </trkpt>
      <trkpt lat="44.38859" lon="6.20244">
        <ele>1178.713623</ele>
        <time>2016-05-03T13:12:02Z</time>
      </trkpt>
      <trkpt lat="44.38867" lon="6.2026">
        <ele>1175.8295898</ele>
        <time>2016-05-03T13:12:08Z</time>
      </trkpt>
      <trkpt lat="44.38886" lon="6.20285">
        <ele>1171.984375</ele>
        <time>2016-05-03T13:12:18Z</time>
      </trkpt>
      <trkpt lat="44.38892" lon="6.20292">
        <ele>1171.0231934</ele>
        <time>2016-05-03T13:12:22Z</time>
      </trkpt>
      <trkpt lat="44.38902" lon="6.20308">
        <ele>1167.6584473</ele>
        <time>2016-05-03T13:12:28Z</time>
      </trkpt>
      <trkpt lat="44.38904" lon="6.20312">
        <ele>1167.6584473</ele>
        <time>2016-05-03T13:12:29Z</time>
      </trkpt>
      <trkpt lat="44.38918" lon="6.2034">
        <ele>1164.2939453</ele>
        <time>2016-05-03T13:12:37Z</time>
      </trkpt>
      <trkpt lat="44.38921" lon="6.20348">
        <ele>1163.3325195</ele>
        <time>2016-05-03T13:12:39Z</time>
      </trkpt>
      <trkpt lat="44.38937" lon="6.20372">
        <ele>1159.0065918</ele>
        <time>2016-05-03T13:12:48Z</time>
      </trkpt>
      <trkpt lat="44.38947" lon="6.20387">
        <ele>1156.1225586</ele>
        <time>2016-05-03T13:12:55Z</time>
      </trkpt>
      <trkpt lat="44.38953" lon="6.20396">
        <ele>1153.7194824</ele>
        <time>2016-05-03T13:12:59Z</time>
      </trkpt>
      <trkpt lat="44.38958" lon="6.20399">
        <ele>1152.2773438</ele>
        <time>2016-05-03T13:13:01Z</time>
      </trkpt>
      <trkpt lat="44.38963" lon="6.20402">
        <ele>1151.3161621</ele>
        <time>2016-05-03T13:13:03Z</time>
      </trkpt>
      <trkpt lat="44.38972" lon="6.20403">
        <ele>1149.3935547</ele>
        <time>2016-05-03T13:13:06Z</time>
      </trkpt>
      <trkpt lat="44.38993" lon="6.20407">
        <ele>1146.0288086</ele>
        <time>2016-05-03T13:13:12Z</time>
      </trkpt>
      <trkpt lat="44.38997" lon="6.20408">
        <ele>1146.0288086</ele>
        <time>2016-05-03T13:13:13Z</time>
      </trkpt>
      <trkpt lat="44.39019" lon="6.20421">
        <ele>1142.6643066</ele>
        <time>2016-05-03T13:13:19Z</time>
      </trkpt>
      <trkpt lat="44.39022" lon="6.20423">
        <ele>1142.6643066</ele>
        <time>2016-05-03T13:13:20Z</time>
      </trkpt>
      <trkpt lat="44.39062" lon="6.20465">
        <ele>1139.2995605</ele>
        <time>2016-05-03T13:13:37Z</time>
      </trkpt>
      <trkpt lat="44.39082" lon="6.20488">
        <ele>1135.4543457</ele>
        <time>2016-05-03T13:13:48Z</time>
      </trkpt>
      <trkpt lat="44.39085" lon="6.20495">
        <ele>1134.4931641</ele>
        <time>2016-05-03T13:13:50Z</time>
      </trkpt>
      <trkpt lat="44.39093" lon="6.20516">
        <ele>1130.1669922</ele>
        <time>2016-05-03T13:13:56Z</time>
      </trkpt>
      <trkpt lat="44.39095" lon="6.20519">
        <ele>1130.1669922</ele>
        <time>2016-05-03T13:13:57Z</time>
      </trkpt>
      <trkpt lat="44.39107" lon="6.20531">
        <ele>1126.8024902</ele>
        <time>2016-05-03T13:14:02Z</time>
      </trkpt>
      <trkpt lat="44.39114" lon="6.20535">
        <ele>1125.3603516</ele>
        <time>2016-05-03T13:14:04Z</time>
      </trkpt>
      <trkpt lat="44.39121" lon="6.2054">
        <ele>1123.918457</ele>
        <time>2016-05-03T13:14:06Z</time>
      </trkpt>
      <trkpt lat="44.39137" lon="6.20544">
        <ele>1121.5151367</ele>
        <time>2016-05-03T13:14:10Z</time>
      </trkpt>
      <trkpt lat="44.39148" lon="6.20545">
        <ele>1119.5927734</ele>
        <time>2016-05-03T13:14:13Z</time>
      </trkpt>
      <trkpt lat="44.39166" lon="6.20548">
        <ele>1115.7473145</ele>
        <time>2016-05-03T13:14:19Z</time>
      </trkpt>
      <trkpt lat="44.39169" lon="6.20549">
        <ele>1115.7473145</ele>
        <time>2016-05-03T13:14:20Z</time>
      </trkpt>
      <trkpt lat="44.39174" lon="6.20554">
        <ele>1114.3051758</ele>
        <time>2016-05-03T13:14:22Z</time>
      </trkpt>
      <trkpt lat="44.39185" lon="6.20562">
        <ele>1111.4213867</ele>
        <time>2016-05-03T13:14:27Z</time>
      </trkpt>
      <trkpt lat="44.39196" lon="6.20564">
        <ele>1109.4987793</ele>
        <time>2016-05-03T13:14:31Z</time>
      </trkpt>
      <trkpt lat="44.39206" lon="6.20566">
        <ele>1108.0568848</ele>
        <time>2016-05-03T13:14:34Z</time>
      </trkpt>
      <trkpt lat="44.39213" lon="6.20567">
        <ele>1106.6147461</ele>
        <time>2016-05-03T13:14:36Z</time>
      </trkpt>
      <trkpt lat="44.39222" lon="6.20574">
        <ele>1103.2502441</ele>
        <time>2016-05-03T13:14:40Z</time>
      </trkpt>
      <trkpt lat="44.39224" lon="6.20578">
        <ele>1103.2502441</ele>
        <time>2016-05-03T13:14:41Z</time>
      </trkpt>
      <trkpt lat="44.39237" lon="6.20597">
        <ele>1100.3664551</ele>
        <time>2016-05-03T13:14:46Z</time>
      </trkpt>
      <trkpt lat="44.39241" lon="6.20605">
        <ele>1098.9240723</ele>
        <time>2016-05-03T13:14:48Z</time>
      </trkpt>
      <trkpt lat="44.39248" lon="6.20619">
        <ele>1096.5209961</ele>
        <time>2016-05-03T13:14:52Z</time>
      </trkpt>
      <trkpt lat="44.3925" lon="6.20654">
        <ele>1094.5981445</ele>
        <time>2016-05-03T13:15:04Z</time>
      </trkpt>
      <trkpt lat="44.39255" lon="6.20663">
        <ele>1093.15625</ele>
        <time>2016-05-03T13:15:09Z</time>
      </trkpt>
      <trkpt lat="44.3926" lon="6.20665">
        <ele>1092.6757813</ele>
        <time>2016-05-03T13:15:11Z</time>
      </trkpt>
      <trkpt lat="44.3929" lon="6.2068">
        <ele>1088.3498535</ele>
        <time>2016-05-03T13:15:21Z</time>
      </trkpt>
      <trkpt lat="44.39294" lon="6.20682">
        <ele>1088.3498535</ele>
        <time>2016-05-03T13:15:22Z</time>
      </trkpt>
      <trkpt lat="44.39318" lon="6.20692">
        <ele>1085.9465332</ele>
        <time>2016-05-03T13:15:27Z</time>
      </trkpt>
      <trkpt lat="44.39327" lon="6.20696">
        <ele>1084.0239258</ele>
        <time>2016-05-03T13:15:29Z</time>
      </trkpt>
      <trkpt lat="44.39339" lon="6.20702">
        <ele>1081.6203613</ele>
        <time>2016-05-03T13:15:32Z</time>
      </trkpt>
      <trkpt lat="44.3936" lon="6.2071">
        <ele>1077.7751465</ele>
        <time>2016-05-03T13:15:39Z</time>
      </trkpt>
      <trkpt lat="44.39371" lon="6.2071">
        <ele>1075.8525391</ele>
        <time>2016-05-03T13:15:43Z</time>
      </trkpt>
      <trkpt lat="44.39375" lon="6.20712">
        <ele>1074.4106445</ele>
        <time>2016-05-03T13:15:45Z</time>
      </trkpt>
      <trkpt lat="44.39377" lon="6.20713">
        <ele>1073.9299316</ele>
        <time>2016-05-03T13:15:46Z</time>
      </trkpt>
      <trkpt lat="44.3938" lon="6.20718">
        <ele>1072.96875</ele>
        <time>2016-05-03T13:15:48Z</time>
      </trkpt>
      <trkpt lat="44.39382" lon="6.20732">
        <ele>1070.5654297</ele>
        <time>2016-05-03T13:15:52Z</time>
      </trkpt>
      <trkpt lat="44.3938" lon="6.20753">
        <ele>1067.6811523</ele>
        <time>2016-05-03T13:15:56Z</time>
      </trkpt>
      <trkpt lat="44.39359" lon="6.20785">
        <ele>1064.7973633</ele>
        <time>2016-05-03T13:16:03Z</time>
      </trkpt>
      <trkpt lat="44.39356" lon="6.20815">
        <ele>1061.9135742</ele>
        <time>2016-05-03T13:16:09Z</time>
      </trkpt>
      <trkpt lat="44.39362" lon="6.20821">
        <ele>1061.4328613</ele>
        <time>2016-05-03T13:16:11Z</time>
      </trkpt>
      <trkpt lat="44.39379" lon="6.20832">
        <ele>1058.5488281</ele>
        <time>2016-05-03T13:16:16Z</time>
      </trkpt>
      <trkpt lat="44.39381" lon="6.20833">
        <ele>1057.1069336</ele>
        <time>2016-05-03T13:16:17Z</time>
      </trkpt>
      <trkpt lat="44.39432" lon="6.2082">
        <ele>1054.7036133</ele>
        <time>2016-05-03T13:16:31Z</time>
      </trkpt>
      <trkpt lat="44.39437" lon="6.20805">
        <ele>1055.1843262</ele>
        <time>2016-05-03T13:16:42Z</time>
      </trkpt>
      <trkpt lat="44.39438" lon="6.20803">
        <ele>1055.1843262</ele>
        <time>2016-05-03T13:17:37Z</time>
      </trkpt>
      <trkpt lat="44.39442" lon="6.20781">
        <ele>1053.7424316</ele>
        <time>2016-05-03T13:18:53Z</time>
      </trkpt>
      <trkpt lat="44.3945" lon="6.20749">
        <ele>1052.7810059</ele>
        <time>2016-05-03T13:19:02Z</time>
      </trkpt>
      <trkpt lat="44.3947" lon="6.20682">
        <ele>1053.2617188</ele>
        <time>2016-05-03T13:19:18Z</time>
      </trkpt>
      <trkpt lat="44.39498" lon="6.20616">
        <ele>1053.7424316</ele>
        <time>2016-05-03T13:19:36Z</time>
      </trkpt>
      <trkpt lat="44.39535" lon="6.20561">
        <ele>1054.7036133</ele>
        <time>2016-05-03T13:19:53Z</time>
      </trkpt>
      <trkpt lat="44.39602" lon="6.20528">
        <ele>1054.7036133</ele>
        <time>2016-05-03T13:20:15Z</time>
      </trkpt>
      <trkpt lat="44.39653" lon="6.20484">
        <ele>1055.6650391</ele>
        <time>2016-05-03T13:20:35Z</time>
      </trkpt>
      <trkpt lat="44.39648" lon="6.20416">
        <ele>1055.6650391</ele>
        <time>2016-05-03T13:20:49Z</time>
      </trkpt>
      <trkpt lat="44.39647" lon="6.20404">
        <ele>1055.6650391</ele>
        <time>2016-05-03T13:20:51Z</time>
      </trkpt>
      <trkpt lat="44.3965" lon="6.20369">
        <ele>1055.6650391</ele>
        <time>2016-05-03T13:20:57Z</time>
      </trkpt>
      <trkpt lat="44.39682" lon="6.20289">
        <ele>1056.1455078</ele>
        <time>2016-05-03T13:21:14Z</time>
      </trkpt>
      <trkpt lat="44.39687" lon="6.20279">
        <ele>1056.1455078</ele>
        <time>2016-05-03T13:21:16Z</time>
      </trkpt>
      <trkpt lat="44.39699" lon="6.20261">
        <ele>1056.1455078</ele>
        <time>2016-05-03T13:21:20Z</time>
      </trkpt>
      <trkpt lat="44.39745" lon="6.20211">
        <ele>1055.6650391</ele>
        <time>2016-05-03T13:21:35Z</time>
      </trkpt>
      <trkpt lat="44.39785" lon="6.20145">
        <ele>1056.1455078</ele>
        <time>2016-05-03T13:21:52Z</time>
      </trkpt>
      <trkpt lat="44.39798" lon="6.20059">
        <ele>1056.1455078</ele>
        <time>2016-05-03T13:22:09Z</time>
      </trkpt>
      <trkpt lat="44.39803" lon="6.1998">
        <ele>1056.1455078</ele>
        <time>2016-05-03T13:22:24Z</time>
      </trkpt>
      <trkpt lat="44.3981" lon="6.19961">
        <ele>1056.1455078</ele>
        <time>2016-05-03T13:22:28Z</time>
      </trkpt>
      <trkpt lat="44.39829" lon="6.19891">
        <ele>1057.1069336</ele>
        <time>2016-05-03T13:22:43Z</time>
      </trkpt>
      <trkpt lat="44.39827" lon="6.1981">
        <ele>1056.6262207</ele>
        <time>2016-05-03T13:22:58Z</time>
      </trkpt>
      <trkpt lat="44.39823" lon="6.19707">
        <ele>1056.6262207</ele>
        <time>2016-05-03T13:23:18Z</time>
      </trkpt>
      <trkpt lat="44.39831" lon="6.19614">
        <ele>1057.1069336</ele>
        <time>2016-05-03T13:23:36Z</time>
      </trkpt>
      <trkpt lat="44.3984" lon="6.19521">
        <ele>1058.0683594</ele>
        <time>2016-05-03T13:23:54Z</time>
      </trkpt>
      <trkpt lat="44.39833" lon="6.19477">
        <ele>1058.0683594</ele>
        <time>2016-05-03T13:24:02Z</time>
      </trkpt>
      <trkpt lat="44.39834" lon="6.19405">
        <ele>1058.5488281</ele>
        <time>2016-05-03T13:24:16Z</time>
      </trkpt>
      <trkpt lat="44.39833" lon="6.19335">
        <ele>1059.5102539</ele>
        <time>2016-05-03T13:24:32Z</time>
      </trkpt>
      <trkpt lat="44.39847" lon="6.19275">
        <ele>1059.9907227</ele>
        <time>2016-05-03T13:24:48Z</time>
      </trkpt>
      <trkpt lat="44.39847" lon="6.19272">
        <ele>1059.9907227</ele>
        <time>2016-05-03T13:25:13Z</time>
      </trkpt>
      <trkpt lat="44.39848" lon="6.19269">
        <ele>1059.9907227</ele>
        <time>2016-05-03T13:25:20Z</time>
      </trkpt>
      <trkpt lat="44.39849" lon="6.19261">
        <ele>1059.5102539</ele>
        <time>2016-05-03T13:25:24Z</time>
      </trkpt>
      <trkpt lat="44.39851" lon="6.1925">
        <ele>1059.9907227</ele>
        <time>2016-05-03T13:25:30Z</time>
      </trkpt>
      <trkpt lat="44.3985" lon="6.19234">
        <ele>1059.9907227</ele>
        <time>2016-05-03T13:25:46Z</time>
      </trkpt>
      <trkpt lat="44.39842" lon="6.19216">
        <ele>1059.5102539</ele>
        <time>2016-05-03T13:26:11Z</time>
      </trkpt>
      <trkpt lat="44.39816" lon="6.1917">
        <ele>1059.5102539</ele>
        <time>2016-05-03T13:26:30Z</time>
      </trkpt>
      <trkpt lat="44.39783" lon="6.19121">
        <ele>1059.5102539</ele>
        <time>2016-05-03T13:26:46Z</time>
      </trkpt>
      <trkpt lat="44.39747" lon="6.19062">
        <ele>1060.4714355</ele>
        <time>2016-05-03T13:27:05Z</time>
      </trkpt>
      <trkpt lat="44.39713" lon="6.19043">
        <ele>1059.029541</ele>
        <time>2016-05-03T13:27:20Z</time>
      </trkpt>
      <trkpt lat="44.39702" lon="6.1904">
        <ele>1058.5488281</ele>
        <time>2016-05-03T13:27:23Z</time>
      </trkpt>
      <trkpt lat="44.39677" lon="6.19021">
        <ele>1057.5876465</ele>
        <time>2016-05-03T13:27:28Z</time>
      </trkpt>
      <trkpt lat="44.39649" lon="6.1898">
        <ele>1055.1843262</ele>
        <time>2016-05-03T13:27:34Z</time>
      </trkpt>
      <trkpt lat="44.3964" lon="6.18936">
        <ele>1052.7810059</ele>
        <time>2016-05-03T13:27:39Z</time>
      </trkpt>
      <trkpt lat="44.39643" lon="6.18916">
        <ele>1052.7810059</ele>
        <time>2016-05-03T13:27:41Z</time>
      </trkpt>
      <trkpt lat="44.3967" lon="6.18816">
        <ele>1049.4162598</ele>
        <time>2016-05-03T13:27:51Z</time>
      </trkpt>
      <trkpt lat="44.39684" lon="6.18775">
        <ele>1047.4936523</ele>
        <time>2016-05-03T13:27:55Z</time>
      </trkpt>
      <trkpt lat="44.39707" lon="6.18726">
        <ele>1045.5710449</ele>
        <time>2016-05-03T13:28:00Z</time>
      </trkpt>
      <trkpt lat="44.39711" lon="6.1867">
        <ele>1042.6872559</ele>
        <time>2016-05-03T13:28:06Z</time>
      </trkpt>
      <trkpt lat="44.39706" lon="6.18654">
        <ele>1040.7644043</ele>
        <time>2016-05-03T13:28:08Z</time>
      </trkpt>
      <trkpt lat="44.3969" lon="6.18609">
        <ele>1039.3225098</ele>
        <time>2016-05-03T13:28:13Z</time>
      </trkpt>
      <trkpt lat="44.39683" lon="6.18538">
        <ele>1034.5158691</ele>
        <time>2016-05-03T13:28:19Z</time>
      </trkpt>
      <trkpt lat="44.39683" lon="6.18527">
        <ele>1034.5158691</ele>
        <time>2016-05-03T13:28:20Z</time>
      </trkpt>
      <trkpt lat="44.39681" lon="6.18517">
        <ele>1033.0737305</ele>
        <time>2016-05-03T13:28:21Z</time>
      </trkpt>
      <trkpt lat="44.39676" lon="6.18499">
        <ele>1031.6318359</ele>
        <time>2016-05-03T13:28:23Z</time>
      </trkpt>
      <trkpt lat="44.39663" lon="6.18484">
        <ele>1030.1899414</ele>
        <time>2016-05-03T13:28:25Z</time>
      </trkpt>
      <trkpt lat="44.39655" lon="6.18479">
        <ele>1030.1899414</ele>
        <time>2016-05-03T13:28:26Z</time>
      </trkpt>
      <trkpt lat="44.39598" lon="6.18449">
        <ele>1026.8254395</ele>
        <time>2016-05-03T13:28:33Z</time>
      </trkpt>
      <trkpt lat="44.39561" lon="6.18431">
        <ele>1026.3447266</ele>
        <time>2016-05-03T13:28:38Z</time>
      </trkpt>
      <trkpt lat="44.39538" lon="6.18407">
        <ele>1024.902832</ele>
        <time>2016-05-03T13:28:42Z</time>
      </trkpt>
      <trkpt lat="44.39511" lon="6.18342">
        <ele>1025.3833008</ele>
        <time>2016-05-03T13:28:50Z</time>
      </trkpt>
      <trkpt lat="44.39509" lon="6.18311">
        <ele>1025.3833008</ele>
        <time>2016-05-03T13:28:54Z</time>
      </trkpt>
      <trkpt lat="44.39524" lon="6.1828">
        <ele>1026.3447266</ele>
        <time>2016-05-03T13:28:59Z</time>
      </trkpt>
      <trkpt lat="44.39568" lon="6.18233">
        <ele>1025.3833008</ele>
        <time>2016-05-03T13:29:09Z</time>
      </trkpt>
      <trkpt lat="44.39579" lon="6.18205">
        <ele>1022.9802246</ele>
        <time>2016-05-03T13:29:13Z</time>
      </trkpt>
      <trkpt lat="44.39581" lon="6.18172">
        <ele>1023.4609375</ele>
        <time>2016-05-03T13:29:17Z</time>
      </trkpt>
      <trkpt lat="44.39587" lon="6.18129">
        <ele>1023.9414063</ele>
        <time>2016-05-03T13:29:22Z</time>
      </trkpt>
      <trkpt lat="44.39583" lon="6.1808">
        <ele>1022.4995117</ele>
        <time>2016-05-03T13:29:28Z</time>
      </trkpt>
      <trkpt lat="44.39527" lon="6.1794">
        <ele>1020.5769043</ele>
        <time>2016-05-03T13:29:48Z</time>
      </trkpt>
      <trkpt lat="44.39484" lon="6.17798">
        <ele>1018.6540527</ele>
        <time>2016-05-03T13:30:07Z</time>
      </trkpt>
      <trkpt lat="44.39468" lon="6.17687">
        <ele>1016.7314453</ele>
        <time>2016-05-03T13:30:20Z</time>
      </trkpt>
      <trkpt lat="44.39436" lon="6.17593">
        <ele>1014.8088379</ele>
        <time>2016-05-03T13:30:32Z</time>
      </trkpt>
      <trkpt lat="44.39413" lon="6.17566">
        <ele>1014.8088379</ele>
        <time>2016-05-03T13:30:37Z</time>
      </trkpt>
      <trkpt lat="44.39384" lon="6.17549">
        <ele>1014.328125</ele>
        <time>2016-05-03T13:30:42Z</time>
      </trkpt>
      <trkpt lat="44.39364" lon="6.17497">
        <ele>1012.8862305</ele>
        <time>2016-05-03T13:30:49Z</time>
      </trkpt>
      <trkpt lat="44.39371" lon="6.17484">
        <ele>1012.8862305</ele>
        <time>2016-05-03T13:30:51Z</time>
      </trkpt>
      <trkpt lat="44.39379" lon="6.17471">
        <ele>1012.8862305</ele>
        <time>2016-05-03T13:30:53Z</time>
      </trkpt>
      <trkpt lat="44.39394" lon="6.17453">
        <ele>1011.9250488</ele>
        <time>2016-05-03T13:30:56Z</time>
      </trkpt>
      <trkpt lat="44.39432" lon="6.17432">
        <ele>1009.5217285</ele>
        <time>2016-05-03T13:31:02Z</time>
      </trkpt>
      <trkpt lat="44.395" lon="6.17385">
        <ele>1008.5603027</ele>
        <time>2016-05-03T13:31:13Z</time>
      </trkpt>
      <trkpt lat="44.39519" lon="6.17359">
        <ele>1006.6376953</ele>
        <time>2016-05-03T13:31:19Z</time>
      </trkpt>
      <trkpt lat="44.39542" lon="6.17315">
        <ele>1006.6376953</ele>
        <time>2016-05-03T13:31:34Z</time>
      </trkpt>
      <trkpt lat="44.39556" lon="6.17272">
        <ele>1005.1958008</ele>
        <time>2016-05-03T13:31:42Z</time>
      </trkpt>
      <trkpt lat="44.39559" lon="6.17213">
        <ele>1004.2346191</ele>
        <time>2016-05-03T13:31:51Z</time>
      </trkpt>
      <trkpt lat="44.39557" lon="6.17198">
        <ele>1002.3115234</ele>
        <time>2016-05-03T13:31:53Z</time>
      </trkpt>
      <trkpt lat="44.39557" lon="6.17108">
        <ele>999.4277344</ele>
        <time>2016-05-03T13:32:04Z</time>
      </trkpt>
      <trkpt lat="44.39576" lon="6.17025">
        <ele>997.505127</ele>
        <time>2016-05-03T13:32:14Z</time>
      </trkpt>
      <trkpt lat="44.39576" lon="6.17005">
        <ele>997.0244141</ele>
        <time>2016-05-03T13:32:18Z</time>
      </trkpt>
      <trkpt lat="44.39588" lon="6.16993">
        <ele>995.5825195</ele>
        <time>2016-05-03T13:32:24Z</time>
      </trkpt>
      <trkpt lat="44.39599" lon="6.16993">
        <ele>996.0632324</ele>
        <time>2016-05-03T13:32:30Z</time>
      </trkpt>
      <trkpt lat="44.39604" lon="6.17011">
        <ele>997.0244141</ele>
        <time>2016-05-03T13:32:41Z</time>
      </trkpt>
      <trkpt lat="44.39605" lon="6.17009">
        <ele>997.0244141</ele>
        <time>2016-05-03T13:32:54Z</time>
      </trkpt>
      <trkpt lat="44.39601" lon="6.16994">
        <ele>997.0244141</ele>
        <time>2016-05-03T13:33:01Z</time>
      </trkpt>
      <trkpt lat="44.39606" lon="6.1699">
        <ele>996.0632324</ele>
        <time>2016-05-03T13:33:05Z</time>
      </trkpt>
      <trkpt lat="44.39611" lon="6.16993">
        <ele>996.0632324</ele>
        <time>2016-05-03T13:33:19Z</time>
      </trkpt>
      <trkpt lat="44.39617" lon="6.16993">
        <ele>996.0632324</ele>
        <time>2016-05-03T13:34:09Z</time>
      </trkpt>
      <trkpt lat="44.39656" lon="6.16995">
        <ele>997.9858398</ele>
        <time>2016-05-03T13:34:26Z</time>
      </trkpt>
      <trkpt lat="44.39678" lon="6.16987">
        <ele>999.9084473</ele>
        <time>2016-05-03T13:34:36Z</time>
      </trkpt>
      <trkpt lat="44.39712" lon="6.17002">
        <ele>1002.7922363</ele>
        <time>2016-05-03T13:34:54Z</time>
      </trkpt>
      <trkpt lat="44.39753" lon="6.17026">
        <ele>1005.1958008</ele>
        <time>2016-05-03T13:35:17Z</time>
      </trkpt>
      <trkpt lat="44.39764" lon="6.1703">
        <ele>1006.6376953</ele>
        <time>2016-05-03T13:35:24Z</time>
      </trkpt>
      <trkpt lat="44.39772" lon="6.17032">
        <ele>1004.7150879</ele>
        <time>2016-05-03T13:35:36Z</time>
      </trkpt>
      <trkpt lat="44.39772" lon="6.17032">
        <ele>1006.1569824</ele>
        <time>2016-05-03T13:35:38Z</time>
      </trkpt>
      <trkpt lat="44.39773" lon="6.17031">
        <ele>1006.1569824</ele>
        <time>2016-05-03T13:35:59Z</time>
      </trkpt>
      <trkpt lat="44.39793" lon="6.17037">
        <ele>1007.1184082</ele>
        <time>2016-05-03T13:36:12Z</time>
      </trkpt>
      <trkpt lat="44.39815" lon="6.17042">
        <ele>1008.079834</ele>
        <time>2016-05-03T13:36:27Z</time>
      </trkpt>
      <trkpt lat="44.3983" lon="6.17041">
        <ele>1008.5603027</ele>
        <time>2016-05-03T13:36:37Z</time>
      </trkpt>
      <trkpt lat="44.39853" lon="6.17042">
        <ele>1009.5217285</ele>
        <time>2016-05-03T13:36:49Z</time>
      </trkpt>
      <trkpt lat="44.39886" lon="6.17038">
        <ele>1010.963623</ele>
        <time>2016-05-03T13:37:05Z</time>
      </trkpt>
      <trkpt lat="44.39913" lon="6.17026">
        <ele>1011.9250488</ele>
        <time>2016-05-03T13:37:20Z</time>
      </trkpt>
      <trkpt lat="44.39928" lon="6.1702">
        <ele>1012.4055176</ele>
        <time>2016-05-03T13:37:28Z</time>
      </trkpt>
      <trkpt lat="44.39968" lon="6.17042">
        <ele>1013.8474121</ele>
        <time>2016-05-03T13:37:47Z</time>
      </trkpt>
      <trkpt lat="44.4" lon="6.17079">
        <ele>1014.8088379</ele>
        <time>2016-05-03T13:38:06Z</time>
      </trkpt>
      <trkpt lat="44.39994" lon="6.17089">
        <ele>1013.3669434</ele>
        <time>2016-05-03T13:38:14Z</time>
      </trkpt>
      <trkpt lat="44.39994" lon="6.17089">
        <ele>1013.3669434</ele>
        <time>2016-05-03T13:38:51Z</time>
      </trkpt>
    </trkseg>
  </trk>
</gpx>